<?xml version="1.0" encoding="UTF-8" standalone="no" ?>
<gpx xmlns="http://www.topografix.com/GPX/1/1" xmlns:xsi="http://www.w3.org/2001/XMLSchema-instance" xsi:schemaLocation="http://www.topografix.com/GPX/1/1 http://www.topografix.com/GPX/1/1/gpx.xsd" version="1.1" creator="VisuGPX - https://www.visugpx.com">
  <metadata>
    <name>Entrainement CAP</name>
    <desc><![CDATA[Le long des berges au parc de la Feyssine]]></desc>
  </metadata>
  <trk>
    <name><![CDATA[Untitled]]></name>
    <trkseg>
      <trkpt lat="45.77492" lon="4.81106">
        <ele>169.39999389648</ele>
        <time>2014-05-01T07:42:12.000Z</time>
      </trkpt>
      <trkpt lat="45.77492" lon="4.81115">
        <ele>169.80000305176</ele>
        <time>2014-05-01T07:42:14.000Z</time>
      </trkpt>
      <trkpt lat="45.77488" lon="4.81137">
        <ele>170.60000610352</ele>
        <time>2014-05-01T07:42:19.000Z</time>
      </trkpt>
      <trkpt lat="45.77486" lon="4.81153">
        <ele>171.80000305176</ele>
        <time>2014-05-01T07:42:23.000Z</time>
      </trkpt>
      <trkpt lat="45.77484" lon="4.81178">
        <ele>173.60000610352</ele>
        <time>2014-05-01T07:42:29.000Z</time>
      </trkpt>
      <trkpt lat="45.7748" lon="4.81205">
        <ele>175.60000610352</ele>
        <time>2014-05-01T07:42:35.000Z</time>
      </trkpt>
      <trkpt lat="45.77479" lon="4.81223">
        <ele>175.80000305176</ele>
        <time>2014-05-01T07:42:39.000Z</time>
      </trkpt>
      <trkpt lat="45.77476" lon="4.81249">
        <ele>175.19999694824</ele>
        <time>2014-05-01T07:42:45.000Z</time>
      </trkpt>
      <trkpt lat="45.77475" lon="4.8127">
        <ele>174.60000610352</ele>
        <time>2014-05-01T07:42:50.000Z</time>
      </trkpt>
      <trkpt lat="45.77472" lon="4.81292">
        <ele>174.19999694824</ele>
        <time>2014-05-01T07:42:55.000Z</time>
      </trkpt>
      <trkpt lat="45.77469" lon="4.81318">
        <ele>175</ele>
        <time>2014-05-01T07:43:01.000Z</time>
      </trkpt>
      <trkpt lat="45.77466" lon="4.81344">
        <ele>175.80000305176</ele>
        <time>2014-05-01T07:43:08.000Z</time>
      </trkpt>
      <trkpt lat="45.77463" lon="4.81364">
        <ele>176.39999389648</ele>
        <time>2014-05-01T07:43:13.000Z</time>
      </trkpt>
      <trkpt lat="45.7746" lon="4.81388">
        <ele>178.60000610352</ele>
        <time>2014-05-01T07:43:19.000Z</time>
      </trkpt>
      <trkpt lat="45.77288" lon="4.83706">
        <ele>202</ele>
        <time>2014-05-01T07:53:07.000Z</time>
      </trkpt>
      <trkpt lat="45.77284" lon="4.83715">
        <ele>199.60000610352</ele>
        <time>2014-05-01T07:53:09.000Z</time>
      </trkpt>
      <trkpt lat="45.77284" lon="4.83718">
        <ele>198.80000305176</ele>
        <time>2014-05-01T07:53:10.000Z</time>
      </trkpt>
      <trkpt lat="45.77281" lon="4.83729">
        <ele>196.19999694824</ele>
        <time>2014-05-01T07:53:12.000Z</time>
      </trkpt>
      <trkpt lat="45.77279" lon="4.83744">
        <ele>192.80000305176</ele>
        <time>2014-05-01T07:53:15.000Z</time>
      </trkpt>
      <trkpt lat="45.77278" lon="4.83759">
        <ele>189.19999694824</ele>
        <time>2014-05-01T07:53:19.000Z</time>
      </trkpt>
      <trkpt lat="45.77273" lon="4.83781">
        <ele>184.60000610352</ele>
        <time>2014-05-01T07:53:25.000Z</time>
      </trkpt>
      <trkpt lat="45.77272" lon="4.83784">
        <ele>183.80000305176</ele>
        <time>2014-05-01T07:53:26.000Z</time>
      </trkpt>
      <trkpt lat="45.77271" lon="4.83805">
        <ele>180.39999389648</ele>
        <time>2014-05-01T07:53:32.000Z</time>
      </trkpt>
      <trkpt lat="45.7727" lon="4.83808">
        <ele>180</ele>
        <time>2014-05-01T07:53:33.000Z</time>
      </trkpt>
      <trkpt lat="45.77269" lon="4.83831">
        <ele>176.60000610352</ele>
        <time>2014-05-01T07:53:40.000Z</time>
      </trkpt>
      <trkpt lat="45.77269" lon="4.83845">
        <ele>175.19999694824</ele>
        <time>2014-05-01T07:53:44.000Z</time>
      </trkpt>
      <trkpt lat="45.77269" lon="4.83848">
        <ele>174.80000305176</ele>
        <time>2014-05-01T07:53:45.000Z</time>
      </trkpt>
      <trkpt lat="45.77261" lon="4.83855">
        <ele>174.19999694824</ele>
        <time>2014-05-01T07:53:49.000Z</time>
      </trkpt>
      <trkpt lat="45.77255" lon="4.83872">
        <ele>172.80000305176</ele>
        <time>2014-05-01T07:53:54.000Z</time>
      </trkpt>
      <trkpt lat="45.77257" lon="4.8389">
        <ele>171.19999694824</ele>
        <time>2014-05-01T07:53:58.000Z</time>
      </trkpt>
      <trkpt lat="45.77257" lon="4.83894">
        <ele>170.80000305176</ele>
        <time>2014-05-01T07:53:59.000Z</time>
      </trkpt>
      <trkpt lat="45.77257" lon="4.83911">
        <ele>169.19999694824</ele>
        <time>2014-05-01T07:54:03.000Z</time>
      </trkpt>
      <trkpt lat="45.77256" lon="4.83932">
        <ele>167.80000305176</ele>
        <time>2014-05-01T07:54:08.000Z</time>
      </trkpt>
      <trkpt lat="45.77254" lon="4.83947">
        <ele>166.60000610352</ele>
        <time>2014-05-01T07:54:12.000Z</time>
      </trkpt>
      <trkpt lat="45.77252" lon="4.83962">
        <ele>166</ele>
        <time>2014-05-01T07:54:16.000Z</time>
      </trkpt>
      <trkpt lat="45.77251" lon="4.83978">
        <ele>166</ele>
        <time>2014-05-01T07:54:20.000Z</time>
      </trkpt>
      <trkpt lat="45.77251" lon="4.83994">
        <ele>166</ele>
        <time>2014-05-01T07:54:24.000Z</time>
      </trkpt>
      <trkpt lat="45.77249" lon="4.8401">
        <ele>166</ele>
        <time>2014-05-01T07:54:28.000Z</time>
      </trkpt>
      <trkpt lat="45.77248" lon="4.84034">
        <ele>166</ele>
        <time>2014-05-01T07:54:34.000Z</time>
      </trkpt>
      <trkpt lat="45.77247" lon="4.84053">
        <ele>166</ele>
        <time>2014-05-01T07:54:39.000Z</time>
      </trkpt>
      <trkpt lat="45.77245" lon="4.84072">
        <ele>166.60000610352</ele>
        <time>2014-05-01T07:54:44.000Z</time>
      </trkpt>
      <trkpt lat="45.77246" lon="4.84089">
        <ele>167.80000305176</ele>
        <time>2014-05-01T07:54:49.000Z</time>
      </trkpt>
      <trkpt lat="45.77247" lon="4.84106">
        <ele>169</ele>
        <time>2014-05-01T07:54:53.000Z</time>
      </trkpt>
      <trkpt lat="45.77248" lon="4.84113">
        <ele>169.39999389648</ele>
        <time>2014-05-01T07:54:55.000Z</time>
      </trkpt>
      <trkpt lat="45.77253" lon="4.84113">
        <ele>169</ele>
        <time>2014-05-01T07:54:59.000Z</time>
      </trkpt>
      <trkpt lat="45.77264" lon="4.84107">
        <ele>167.80000305176</ele>
        <time>2014-05-01T07:55:04.000Z</time>
      </trkpt>
      <trkpt lat="45.77271" lon="4.84107">
        <ele>167.19999694824</ele>
        <time>2014-05-01T07:55:07.000Z</time>
      </trkpt>
      <trkpt lat="45.77273" lon="4.84106">
        <ele>167</ele>
        <time>2014-05-01T07:55:08.000Z</time>
      </trkpt>
      <trkpt lat="45.77278" lon="4.84108">
        <ele>166.80000305176</ele>
        <time>2014-05-01T07:55:10.000Z</time>
      </trkpt>
      <trkpt lat="45.7729" lon="4.84107">
        <ele>166</ele>
        <time>2014-05-01T07:55:14.000Z</time>
      </trkpt>
      <trkpt lat="45.77299" lon="4.84108">
        <ele>166</ele>
        <time>2014-05-01T07:55:17.000Z</time>
      </trkpt>
      <trkpt lat="45.77309" lon="4.84113">
        <ele>166</ele>
        <time>2014-05-01T07:55:21.000Z</time>
      </trkpt>
      <trkpt lat="45.77316" lon="4.84117">
        <ele>166</ele>
        <time>2014-05-01T07:55:24.000Z</time>
      </trkpt>
      <trkpt lat="45.77318" lon="4.84119">
        <ele>166</ele>
        <time>2014-05-01T07:55:25.000Z</time>
      </trkpt>
      <trkpt lat="45.77323" lon="4.84122">
        <ele>166</ele>
        <time>2014-05-01T07:55:27.000Z</time>
      </trkpt>
      <trkpt lat="45.77331" lon="4.84126">
        <ele>166.19999694824</ele>
        <time>2014-05-01T07:55:30.000Z</time>
      </trkpt>
      <trkpt lat="45.77334" lon="4.84128">
        <ele>166.39999389648</ele>
        <time>2014-05-01T07:55:33.000Z</time>
      </trkpt>
      <trkpt lat="45.77334" lon="4.84125">
        <ele>166.19999694824</ele>
        <time>2014-05-01T07:55:34.000Z</time>
      </trkpt>
      <trkpt lat="45.77331" lon="4.8412">
        <ele>166</ele>
        <time>2014-05-01T07:55:36.000Z</time>
      </trkpt>
      <trkpt lat="45.77321" lon="4.84111">
        <ele>166</ele>
        <time>2014-05-01T07:55:40.000Z</time>
      </trkpt>
      <trkpt lat="45.77315" lon="4.84108">
        <ele>166</ele>
        <time>2014-05-01T07:55:42.000Z</time>
      </trkpt>
      <trkpt lat="45.77298" lon="4.84096">
        <ele>166</ele>
        <time>2014-05-01T07:55:49.000Z</time>
      </trkpt>
      <trkpt lat="45.77289" lon="4.8409">
        <ele>166</ele>
        <time>2014-05-01T07:55:53.000Z</time>
      </trkpt>
      <trkpt lat="45.77273" lon="4.84083">
        <ele>166</ele>
        <time>2014-05-01T07:55:59.000Z</time>
      </trkpt>
      <trkpt lat="45.77264" lon="4.8408">
        <ele>166</ele>
        <time>2014-05-01T07:56:03.000Z</time>
      </trkpt>
      <trkpt lat="45.7725" lon="4.84076">
        <ele>166.60000610352</ele>
        <time>2014-05-01T07:56:08.000Z</time>
      </trkpt>
      <trkpt lat="45.77204" lon="4.84073">
        <ele>168.39999389648</ele>
        <time>2014-05-01T07:56:28.000Z</time>
      </trkpt>
      <trkpt lat="45.77202" lon="4.84072">
        <ele>168.39999389648</ele>
        <time>2014-05-01T07:56:29.000Z</time>
      </trkpt>
      <trkpt lat="45.77182" lon="4.84075">
        <ele>168.60000610352</ele>
        <time>2014-05-01T07:56:38.000Z</time>
      </trkpt>
      <trkpt lat="45.77172" lon="4.84072">
        <ele>168.39999389648</ele>
        <time>2014-05-01T07:56:43.000Z</time>
      </trkpt>
      <trkpt lat="45.77159" lon="4.84073">
        <ele>167.39999389648</ele>
        <time>2014-05-01T07:56:49.000Z</time>
      </trkpt>
      <trkpt lat="45.7715" lon="4.84073">
        <ele>166.80000305176</ele>
        <time>2014-05-01T07:56:53.000Z</time>
      </trkpt>
      <trkpt lat="45.77139" lon="4.84072">
        <ele>166</ele>
        <time>2014-05-01T07:56:58.000Z</time>
      </trkpt>
      <trkpt lat="45.77127" lon="4.84072">
        <ele>166</ele>
        <time>2014-05-01T07:57:03.000Z</time>
      </trkpt>
      <trkpt lat="45.77116" lon="4.84071">
        <ele>166</ele>
        <time>2014-05-01T07:57:08.000Z</time>
      </trkpt>
      <trkpt lat="45.77102" lon="4.84071">
        <ele>166</ele>
        <time>2014-05-01T07:57:14.000Z</time>
      </trkpt>
      <trkpt lat="45.77091" lon="4.8407">
        <ele>166</ele>
        <time>2014-05-01T07:57:19.000Z</time>
      </trkpt>
      <trkpt lat="45.7708" lon="4.84072">
        <ele>166.60000610352</ele>
        <time>2014-05-01T07:57:24.000Z</time>
      </trkpt>
      <trkpt lat="45.77067" lon="4.84071">
        <ele>167.39999389648</ele>
        <time>2014-05-01T07:57:29.000Z</time>
      </trkpt>
      <trkpt lat="45.77058" lon="4.8407">
        <ele>168</ele>
        <time>2014-05-01T07:57:34.000Z</time>
      </trkpt>
      <trkpt lat="45.77045" lon="4.84067">
        <ele>167.80000305176</ele>
        <time>2014-05-01T07:57:40.000Z</time>
      </trkpt>
      <trkpt lat="45.7704" lon="4.84067">
        <ele>167.60000610352</ele>
        <time>2014-05-01T07:57:43.000Z</time>
      </trkpt>
      <trkpt lat="45.77042" lon="4.84072">
        <ele>168</ele>
        <time>2014-05-01T07:57:47.000Z</time>
      </trkpt>
      <trkpt lat="45.77045" lon="4.84071">
        <ele>168</ele>
        <time>2014-05-01T07:57:48.000Z</time>
      </trkpt>
      <trkpt lat="45.7706" lon="4.84071">
        <ele>167.80000305176</ele>
        <time>2014-05-01T07:57:53.000Z</time>
      </trkpt>
      <trkpt lat="45.7707" lon="4.8407">
        <ele>167.19999694824</ele>
        <time>2014-05-01T07:57:57.000Z</time>
      </trkpt>
      <trkpt lat="45.77077" lon="4.8407">
        <ele>166.60000610352</ele>
        <time>2014-05-01T07:57:59.000Z</time>
      </trkpt>
      <trkpt lat="45.77085" lon="4.84072">
        <ele>166.19999694824</ele>
        <time>2014-05-01T07:58:03.000Z</time>
      </trkpt>
      <trkpt lat="45.77089" lon="4.84071">
        <ele>166</ele>
        <time>2014-05-01T07:58:04.000Z</time>
      </trkpt>
      <trkpt lat="45.771" lon="4.8407">
        <ele>166</ele>
        <time>2014-05-01T07:58:08.000Z</time>
      </trkpt>
      <trkpt lat="45.7711" lon="4.84069">
        <ele>166</ele>
        <time>2014-05-01T07:58:12.000Z</time>
      </trkpt>
      <trkpt lat="45.77123" lon="4.8407">
        <ele>166</ele>
        <time>2014-05-01T07:58:17.000Z</time>
      </trkpt>
      <trkpt lat="45.77134" lon="4.8407">
        <ele>166</ele>
        <time>2014-05-01T07:58:21.000Z</time>
      </trkpt>
      <trkpt lat="45.77143" lon="4.8407">
        <ele>166.39999389648</ele>
        <time>2014-05-01T07:58:25.000Z</time>
      </trkpt>
      <trkpt lat="45.77159" lon="4.84069">
        <ele>167.39999389648</ele>
        <time>2014-05-01T07:58:30.000Z</time>
      </trkpt>
      <trkpt lat="45.77176" lon="4.84067">
        <ele>168</ele>
        <time>2014-05-01T07:58:36.000Z</time>
      </trkpt>
      <trkpt lat="45.77187" lon="4.84066">
        <ele>168</ele>
        <time>2014-05-01T07:58:40.000Z</time>
      </trkpt>
      <trkpt lat="45.772" lon="4.84066">
        <ele>168</ele>
        <time>2014-05-01T07:58:45.000Z</time>
      </trkpt>
      <trkpt lat="45.77214" lon="4.84065">
        <ele>167.80000305176</ele>
        <time>2014-05-01T07:58:49.000Z</time>
      </trkpt>
      <trkpt lat="45.77221" lon="4.84066">
        <ele>168</ele>
        <time>2014-05-01T07:58:52.000Z</time>
      </trkpt>
      <trkpt lat="45.77268" lon="4.8408">
        <ele>166</ele>
        <time>2014-05-01T07:59:09.000Z</time>
      </trkpt>
      <trkpt lat="45.77278" lon="4.84083">
        <ele>166</ele>
        <time>2014-05-01T07:59:13.000Z</time>
      </trkpt>
      <trkpt lat="45.77286" lon="4.84085">
        <ele>166</ele>
        <time>2014-05-01T07:59:16.000Z</time>
      </trkpt>
      <trkpt lat="45.77296" lon="4.84089">
        <ele>166</ele>
        <time>2014-05-01T07:59:20.000Z</time>
      </trkpt>
      <trkpt lat="45.77307" lon="4.84097">
        <ele>166</ele>
        <time>2014-05-01T07:59:25.000Z</time>
      </trkpt>
      <trkpt lat="45.7731" lon="4.84098">
        <ele>166</ele>
        <time>2014-05-01T07:59:26.000Z</time>
      </trkpt>
      <trkpt lat="45.7732" lon="4.84104">
        <ele>166</ele>
        <time>2014-05-01T07:59:30.000Z</time>
      </trkpt>
      <trkpt lat="45.77329" lon="4.8411">
        <ele>166</ele>
        <time>2014-05-01T07:59:34.000Z</time>
      </trkpt>
      <trkpt lat="45.7734" lon="4.84117">
        <ele>166</ele>
        <time>2014-05-01T07:59:38.000Z</time>
      </trkpt>
      <trkpt lat="45.77348" lon="4.84125">
        <ele>166.19999694824</ele>
        <time>2014-05-01T07:59:42.000Z</time>
      </trkpt>
      <trkpt lat="45.77355" lon="4.84129">
        <ele>166.39999389648</ele>
        <time>2014-05-01T07:59:45.000Z</time>
      </trkpt>
      <trkpt lat="45.77372" lon="4.84137">
        <ele>166.80000305176</ele>
        <time>2014-05-01T07:59:51.000Z</time>
      </trkpt>
      <trkpt lat="45.77382" lon="4.84143">
        <ele>167.19999694824</ele>
        <time>2014-05-01T07:59:55.000Z</time>
      </trkpt>
      <trkpt lat="45.77392" lon="4.84149">
        <ele>167.39999389648</ele>
        <time>2014-05-01T07:59:59.000Z</time>
      </trkpt>
      <trkpt lat="45.77401" lon="4.84155">
        <ele>167.39999389648</ele>
        <time>2014-05-01T08:00:03.000Z</time>
      </trkpt>
      <trkpt lat="45.77412" lon="4.84162">
        <ele>167.19999694824</ele>
        <time>2014-05-01T08:00:07.000Z</time>
      </trkpt>
      <trkpt lat="45.77421" lon="4.84172">
        <ele>167.39999389648</ele>
        <time>2014-05-01T08:00:11.000Z</time>
      </trkpt>
      <trkpt lat="45.77424" lon="4.84174">
        <ele>167.39999389648</ele>
        <time>2014-05-01T08:00:12.000Z</time>
      </trkpt>
      <trkpt lat="45.77435" lon="4.84182">
        <ele>167.39999389648</ele>
        <time>2014-05-01T08:00:16.000Z</time>
      </trkpt>
      <trkpt lat="45.77442" lon="4.84187">
        <ele>167.19999694824</ele>
        <time>2014-05-01T08:00:19.000Z</time>
      </trkpt>
      <trkpt lat="45.77452" lon="4.84199">
        <ele>167.39999389648</ele>
        <time>2014-05-01T08:00:24.000Z</time>
      </trkpt>
      <trkpt lat="45.77455" lon="4.84201">
        <ele>167.39999389648</ele>
        <time>2014-05-01T08:00:25.000Z</time>
      </trkpt>
      <trkpt lat="45.77464" lon="4.84209">
        <ele>167.39999389648</ele>
        <time>2014-05-01T08:00:29.000Z</time>
      </trkpt>
      <trkpt lat="45.7747" lon="4.84216">
        <ele>167.39999389648</ele>
        <time>2014-05-01T08:00:32.000Z</time>
      </trkpt>
      <trkpt lat="45.77481" lon="4.84223">
        <ele>167.39999389648</ele>
        <time>2014-05-01T08:00:36.000Z</time>
      </trkpt>
      <trkpt lat="45.77491" lon="4.84231">
        <ele>167.60000610352</ele>
        <time>2014-05-01T08:00:40.000Z</time>
      </trkpt>
      <trkpt lat="45.77498" lon="4.8424">
        <ele>167.80000305176</ele>
        <time>2014-05-01T08:00:44.000Z</time>
      </trkpt>
      <trkpt lat="45.77505" lon="4.84245">
        <ele>168</ele>
        <time>2014-05-01T08:00:47.000Z</time>
      </trkpt>
      <trkpt lat="45.77508" lon="4.84248">
        <ele>168</ele>
        <time>2014-05-01T08:00:48.000Z</time>
      </trkpt>
      <trkpt lat="45.7751" lon="4.8425">
        <ele>168</ele>
        <time>2014-05-01T08:00:49.000Z</time>
      </trkpt>
      <trkpt lat="45.7752" lon="4.84256">
        <ele>168.19999694824</ele>
        <time>2014-05-01T08:00:54.000Z</time>
      </trkpt>
      <trkpt lat="45.77524" lon="4.84255">
        <ele>168.19999694824</ele>
        <time>2014-05-01T08:00:55.000Z</time>
      </trkpt>
      <trkpt lat="45.77527" lon="4.84255">
        <ele>168.19999694824</ele>
        <time>2014-05-01T08:00:56.000Z</time>
      </trkpt>
      <trkpt lat="45.77539" lon="4.84262">
        <ele>168.19999694824</ele>
        <time>2014-05-01T08:01:01.000Z</time>
      </trkpt>
      <trkpt lat="45.77543" lon="4.84266">
        <ele>168.39999389648</ele>
        <time>2014-05-01T08:01:03.000Z</time>
      </trkpt>
      <trkpt lat="45.77549" lon="4.84274">
        <ele>168.60000610352</ele>
        <time>2014-05-01T08:01:06.000Z</time>
      </trkpt>
      <trkpt lat="45.77562" lon="4.84278">
        <ele>168.19999694824</ele>
        <time>2014-05-01T08:01:10.000Z</time>
      </trkpt>
      <trkpt lat="45.77571" lon="4.8428">
        <ele>167.80000305176</ele>
        <time>2014-05-01T08:01:13.000Z</time>
      </trkpt>
      <trkpt lat="45.77576" lon="4.84282">
        <ele>167.39999389648</ele>
        <time>2014-05-01T08:01:15.000Z</time>
      </trkpt>
      <trkpt lat="45.77587" lon="4.84291">
        <ele>167.19999694824</ele>
        <time>2014-05-01T08:01:19.000Z</time>
      </trkpt>
      <trkpt lat="45.77594" lon="4.84297">
        <ele>167</ele>
        <time>2014-05-01T08:01:22.000Z</time>
      </trkpt>
      <trkpt lat="45.77605" lon="4.84303">
        <ele>166.60000610352</ele>
        <time>2014-05-01T08:01:26.000Z</time>
      </trkpt>
      <trkpt lat="45.7762" lon="4.84308">
        <ele>166</ele>
        <time>2014-05-01T08:01:32.000Z</time>
      </trkpt>
      <trkpt lat="45.77625" lon="4.8431">
        <ele>165.80000305176</ele>
        <time>2014-05-01T08:01:34.000Z</time>
      </trkpt>
      <trkpt lat="45.7764" lon="4.84319">
        <ele>165.39999389648</ele>
        <time>2014-05-01T08:01:40.000Z</time>
      </trkpt>
      <trkpt lat="45.77649" lon="4.84322">
        <ele>165.39999389648</ele>
        <time>2014-05-01T08:01:43.000Z</time>
      </trkpt>
      <trkpt lat="45.77663" lon="4.84338">
        <ele>165.80000305176</ele>
        <time>2014-05-01T08:01:49.000Z</time>
      </trkpt>
      <trkpt lat="45.77665" lon="4.84341">
        <ele>165.80000305176</ele>
        <time>2014-05-01T08:01:50.000Z</time>
      </trkpt>
      <trkpt lat="45.77673" lon="4.84349">
        <ele>166</ele>
        <time>2014-05-01T08:01:54.000Z</time>
      </trkpt>
      <trkpt lat="45.77686" lon="4.84357">
        <ele>166</ele>
        <time>2014-05-01T08:01:59.000Z</time>
      </trkpt>
      <trkpt lat="45.77692" lon="4.84359">
        <ele>166</ele>
        <time>2014-05-01T08:02:01.000Z</time>
      </trkpt>
      <trkpt lat="45.77703" lon="4.84367">
        <ele>166.19999694824</ele>
        <time>2014-05-01T08:02:05.000Z</time>
      </trkpt>
      <trkpt lat="45.7772" lon="4.84365">
        <ele>166</ele>
        <time>2014-05-01T08:02:10.000Z</time>
      </trkpt>
      <trkpt lat="45.77734" lon="4.84364">
        <ele>166.19999694824</ele>
        <time>2014-05-01T08:02:14.000Z</time>
      </trkpt>
      <trkpt lat="45.77745" lon="4.84359">
        <ele>166.19999694824</ele>
        <time>2014-05-01T08:02:17.000Z</time>
      </trkpt>
      <trkpt lat="45.77754" lon="4.84358">
        <ele>166.39999389648</ele>
        <time>2014-05-01T08:02:20.000Z</time>
      </trkpt>
      <trkpt lat="45.77767" lon="4.84357">
        <ele>166.60000610352</ele>
        <time>2014-05-01T08:02:25.000Z</time>
      </trkpt>
      <trkpt lat="45.7777" lon="4.84358">
        <ele>166.60000610352</ele>
        <time>2014-05-01T08:02:26.000Z</time>
      </trkpt>
      <trkpt lat="45.77778" lon="4.8436">
        <ele>166.60000610352</ele>
        <time>2014-05-01T08:02:30.000Z</time>
      </trkpt>
      <trkpt lat="45.77782" lon="4.8436">
        <ele>166.80000305176</ele>
        <time>2014-05-01T08:02:31.000Z</time>
      </trkpt>
      <trkpt lat="45.77796" lon="4.84368">
        <ele>166.80000305176</ele>
        <time>2014-05-01T08:02:37.000Z</time>
      </trkpt>
      <trkpt lat="45.77797" lon="4.84371">
        <ele>167</ele>
        <time>2014-05-01T08:02:38.000Z</time>
      </trkpt>
      <trkpt lat="45.77809" lon="4.84378">
        <ele>167</ele>
        <time>2014-05-01T08:02:42.000Z</time>
      </trkpt>
      <trkpt lat="45.77812" lon="4.84377">
        <ele>167</ele>
        <time>2014-05-01T08:02:43.000Z</time>
      </trkpt>
      <trkpt lat="45.77829" lon="4.84377">
        <ele>166.80000305176</ele>
        <time>2014-05-01T08:02:48.000Z</time>
      </trkpt>
      <trkpt lat="45.7783" lon="4.84379">
        <ele>166.80000305176</ele>
        <time>2014-05-01T08:02:49.000Z</time>
      </trkpt>
      <trkpt lat="45.77832" lon="4.8438">
        <ele>166.80000305176</ele>
        <time>2014-05-01T08:02:51.000Z</time>
      </trkpt>
      <trkpt lat="45.77836" lon="4.84393">
        <ele>166.80000305176</ele>
        <time>2014-05-01T08:02:55.000Z</time>
      </trkpt>
      <trkpt lat="45.77854" lon="4.84401">
        <ele>166.80000305176</ele>
        <time>2014-05-01T08:03:01.000Z</time>
      </trkpt>
      <trkpt lat="45.77867" lon="4.84409">
        <ele>166.60000610352</ele>
        <time>2014-05-01T08:03:06.000Z</time>
      </trkpt>
      <trkpt lat="45.77877" lon="4.84415">
        <ele>166.60000610352</ele>
        <time>2014-05-01T08:03:10.000Z</time>
      </trkpt>
      <trkpt lat="45.77886" lon="4.84423">
        <ele>166.60000610352</ele>
        <time>2014-05-01T08:03:14.000Z</time>
      </trkpt>
      <trkpt lat="45.77888" lon="4.84425">
        <ele>166.60000610352</ele>
        <time>2014-05-01T08:03:15.000Z</time>
      </trkpt>
      <trkpt lat="45.77895" lon="4.84436">
        <ele>166.60000610352</ele>
        <time>2014-05-01T08:03:19.000Z</time>
      </trkpt>
      <trkpt lat="45.77907" lon="4.8444">
        <ele>166.39999389648</ele>
        <time>2014-05-01T08:03:23.000Z</time>
      </trkpt>
      <trkpt lat="45.77916" lon="4.84444">
        <ele>166.19999694824</ele>
        <time>2014-05-01T08:03:26.000Z</time>
      </trkpt>
      <trkpt lat="45.77929" lon="4.84449">
        <ele>166</ele>
        <time>2014-05-01T08:03:31.000Z</time>
      </trkpt>
      <trkpt lat="45.77941" lon="4.84458">
        <ele>165.60000610352</ele>
        <time>2014-05-01T08:03:36.000Z</time>
      </trkpt>
      <trkpt lat="45.77956" lon="4.84459">
        <ele>165.39999389648</ele>
        <time>2014-05-01T08:03:41.000Z</time>
      </trkpt>
      <trkpt lat="45.7797" lon="4.84461">
        <ele>165</ele>
        <time>2014-05-01T08:03:45.000Z</time>
      </trkpt>
      <trkpt lat="45.77981" lon="4.84468">
        <ele>165.39999389648</ele>
        <time>2014-05-01T08:03:49.000Z</time>
      </trkpt>
      <trkpt lat="45.77992" lon="4.84477">
        <ele>165.80000305176</ele>
        <time>2014-05-01T08:03:54.000Z</time>
      </trkpt>
      <trkpt lat="45.78002" lon="4.84485">
        <ele>166</ele>
        <time>2014-05-01T08:03:58.000Z</time>
      </trkpt>
      <trkpt lat="45.78012" lon="4.84494">
        <ele>166.39999389648</ele>
        <time>2014-05-01T08:04:03.000Z</time>
      </trkpt>
      <trkpt lat="45.78021" lon="4.8451">
        <ele>166.80000305176</ele>
        <time>2014-05-01T08:04:09.000Z</time>
      </trkpt>
      <trkpt lat="45.78023" lon="4.84513">
        <ele>166.80000305176</ele>
        <time>2014-05-01T08:04:10.000Z</time>
      </trkpt>
      <trkpt lat="45.78029" lon="4.84522">
        <ele>167</ele>
        <time>2014-05-01T08:04:13.000Z</time>
      </trkpt>
      <trkpt lat="45.78045" lon="4.84529">
        <ele>167.60000610352</ele>
        <time>2014-05-01T08:04:19.000Z</time>
      </trkpt>
      <trkpt lat="45.78048" lon="4.84531">
        <ele>167.80000305176</ele>
        <time>2014-05-01T08:04:20.000Z</time>
      </trkpt>
      <trkpt lat="45.78055" lon="4.84541">
        <ele>168</ele>
        <time>2014-05-01T08:04:24.000Z</time>
      </trkpt>
      <trkpt lat="45.78068" lon="4.8455">
        <ele>167.60000610352</ele>
        <time>2014-05-01T08:04:29.000Z</time>
      </trkpt>
      <trkpt lat="45.78078" lon="4.84557">
        <ele>167.19999694824</ele>
        <time>2014-05-01T08:04:33.000Z</time>
      </trkpt>
      <trkpt lat="45.78094" lon="4.84573">
        <ele>166.60000610352</ele>
        <time>2014-05-01T08:04:40.000Z</time>
      </trkpt>
      <trkpt lat="45.78102" lon="4.84583">
        <ele>166.39999389648</ele>
        <time>2014-05-01T08:04:44.000Z</time>
      </trkpt>
      <trkpt lat="45.78114" lon="4.84589">
        <ele>166</ele>
        <time>2014-05-01T08:04:49.000Z</time>
      </trkpt>
      <trkpt lat="45.78124" lon="4.84599">
        <ele>165.60000610352</ele>
        <time>2014-05-01T08:04:53.000Z</time>
      </trkpt>
      <trkpt lat="45.78133" lon="4.84608">
        <ele>165.19999694824</ele>
        <time>2014-05-01T08:04:57.000Z</time>
      </trkpt>
      <trkpt lat="45.78138" lon="4.84613">
        <ele>165.19999694824</ele>
        <time>2014-05-01T08:04:59.000Z</time>
      </trkpt>
      <trkpt lat="45.78147" lon="4.84622">
        <ele>165.19999694824</ele>
        <time>2014-05-01T08:05:03.000Z</time>
      </trkpt>
      <trkpt lat="45.78149" lon="4.84624">
        <ele>165</ele>
        <time>2014-05-01T08:05:04.000Z</time>
      </trkpt>
      <trkpt lat="45.78163" lon="4.84632">
        <ele>165</ele>
        <time>2014-05-01T08:05:09.000Z</time>
      </trkpt>
      <trkpt lat="45.78172" lon="4.84638">
        <ele>164.80000305176</ele>
        <time>2014-05-01T08:05:13.000Z</time>
      </trkpt>
      <trkpt lat="45.78174" lon="4.8464">
        <ele>164.80000305176</ele>
        <time>2014-05-01T08:05:14.000Z</time>
      </trkpt>
      <trkpt lat="45.78188" lon="4.84648">
        <ele>164.60000610352</ele>
        <time>2014-05-01T08:05:19.000Z</time>
      </trkpt>
      <trkpt lat="45.7819" lon="4.84649">
        <ele>164.60000610352</ele>
        <time>2014-05-01T08:05:20.000Z</time>
      </trkpt>
      <trkpt lat="45.78202" lon="4.84659">
        <ele>164.39999389648</ele>
        <time>2014-05-01T08:05:25.000Z</time>
      </trkpt>
      <trkpt lat="45.78211" lon="4.8467">
        <ele>164.19999694824</ele>
        <time>2014-05-01T08:05:29.000Z</time>
      </trkpt>
      <trkpt lat="45.78221" lon="4.84685">
        <ele>163.80000305176</ele>
        <time>2014-05-01T08:05:34.000Z</time>
      </trkpt>
      <trkpt lat="45.78233" lon="4.84697">
        <ele>163.80000305176</ele>
        <time>2014-05-01T08:05:39.000Z</time>
      </trkpt>
      <trkpt lat="45.78243" lon="4.84708">
        <ele>163.80000305176</ele>
        <time>2014-05-01T08:05:43.000Z</time>
      </trkpt>
      <trkpt lat="45.78253" lon="4.84716">
        <ele>164.39999389648</ele>
        <time>2014-05-01T08:05:47.000Z</time>
      </trkpt>
      <trkpt lat="45.78263" lon="4.84725">
        <ele>165</ele>
        <time>2014-05-01T08:05:51.000Z</time>
      </trkpt>
      <trkpt lat="45.78274" lon="4.84737">
        <ele>165.60000610352</ele>
        <time>2014-05-01T08:05:56.000Z</time>
      </trkpt>
      <trkpt lat="45.78283" lon="4.84747">
        <ele>166.19999694824</ele>
        <time>2014-05-01T08:06:00.000Z</time>
      </trkpt>
      <trkpt lat="45.78292" lon="4.84757">
        <ele>166.80000305176</ele>
        <time>2014-05-01T08:06:04.000Z</time>
      </trkpt>
      <trkpt lat="45.78302" lon="4.84769">
        <ele>167.39999389648</ele>
        <time>2014-05-01T08:06:09.000Z</time>
      </trkpt>
      <trkpt lat="45.78312" lon="4.84781">
        <ele>167.60000610352</ele>
        <time>2014-05-01T08:06:14.000Z</time>
      </trkpt>
      <trkpt lat="45.78322" lon="4.848">
        <ele>167.60000610352</ele>
        <time>2014-05-01T08:06:20.000Z</time>
      </trkpt>
      <trkpt lat="45.78332" lon="4.84813">
        <ele>167.39999389648</ele>
        <time>2014-05-01T08:06:25.000Z</time>
      </trkpt>
      <trkpt lat="45.7834" lon="4.84825">
        <ele>167.19999694824</ele>
        <time>2014-05-01T08:06:29.000Z</time>
      </trkpt>
      <trkpt lat="45.78353" lon="4.84844">
        <ele>167</ele>
        <time>2014-05-01T08:06:35.000Z</time>
      </trkpt>
      <trkpt lat="45.78363" lon="4.84859">
        <ele>166.80000305176</ele>
        <time>2014-05-01T08:06:40.000Z</time>
      </trkpt>
      <trkpt lat="45.78372" lon="4.84871">
        <ele>166.80000305176</ele>
        <time>2014-05-01T08:06:44.000Z</time>
      </trkpt>
      <trkpt lat="45.78381" lon="4.84888">
        <ele>166.39999389648</ele>
        <time>2014-05-01T08:06:49.000Z</time>
      </trkpt>
      <trkpt lat="45.7839" lon="4.84904">
        <ele>166</ele>
        <time>2014-05-01T08:06:54.000Z</time>
      </trkpt>
      <trkpt lat="45.78401" lon="4.84924">
        <ele>166</ele>
        <time>2014-05-01T08:07:00.000Z</time>
      </trkpt>
      <trkpt lat="45.78409" lon="4.84937">
        <ele>166</ele>
        <time>2014-05-01T08:07:04.000Z</time>
      </trkpt>
      <trkpt lat="45.78417" lon="4.84949">
        <ele>166</ele>
        <time>2014-05-01T08:07:08.000Z</time>
      </trkpt>
      <trkpt lat="45.78425" lon="4.84961">
        <ele>166</ele>
        <time>2014-05-01T08:07:12.000Z</time>
      </trkpt>
      <trkpt lat="45.78433" lon="4.84978">
        <ele>166</ele>
        <time>2014-05-01T08:07:17.000Z</time>
      </trkpt>
      <trkpt lat="45.78441" lon="4.84989">
        <ele>166</ele>
        <time>2014-05-01T08:07:21.000Z</time>
      </trkpt>
      <trkpt lat="45.78443" lon="4.84992">
        <ele>166</ele>
        <time>2014-05-01T08:07:22.000Z</time>
      </trkpt>
      <trkpt lat="45.78449" lon="4.85006">
        <ele>166</ele>
        <time>2014-05-01T08:07:26.000Z</time>
      </trkpt>
      <trkpt lat="45.78455" lon="4.85022">
        <ele>166</ele>
        <time>2014-05-01T08:07:31.000Z</time>
      </trkpt>
      <trkpt lat="45.78459" lon="4.8503">
        <ele>166</ele>
        <time>2014-05-01T08:07:34.000Z</time>
      </trkpt>
      <trkpt lat="45.78465" lon="4.85048">
        <ele>166.19999694824</ele>
        <time>2014-05-01T08:07:39.000Z</time>
      </trkpt>
      <trkpt lat="45.78474" lon="4.85063">
        <ele>166</ele>
        <time>2014-05-01T08:07:44.000Z</time>
      </trkpt>
      <trkpt lat="45.78476" lon="4.85065">
        <ele>166</ele>
        <time>2014-05-01T08:07:45.000Z</time>
      </trkpt>
      <trkpt lat="45.78486" lon="4.85079">
        <ele>166</ele>
        <time>2014-05-01T08:07:50.000Z</time>
      </trkpt>
      <trkpt lat="45.78491" lon="4.85096">
        <ele>166</ele>
        <time>2014-05-01T08:07:55.000Z</time>
      </trkpt>
      <trkpt lat="45.78492" lon="4.851">
        <ele>166</ele>
        <time>2014-05-01T08:07:56.000Z</time>
      </trkpt>
      <trkpt lat="45.78503" lon="4.85119">
        <ele>166</ele>
        <time>2014-05-01T08:08:02.000Z</time>
      </trkpt>
      <trkpt lat="45.78509" lon="4.85132">
        <ele>166</ele>
        <time>2014-05-01T08:08:06.000Z</time>
      </trkpt>
      <trkpt lat="45.78514" lon="4.85152">
        <ele>166</ele>
        <time>2014-05-01T08:08:11.000Z</time>
      </trkpt>
      <trkpt lat="45.78521" lon="4.85173">
        <ele>166</ele>
        <time>2014-05-01T08:08:17.000Z</time>
      </trkpt>
      <trkpt lat="45.78526" lon="4.85193">
        <ele>166.80000305176</ele>
        <time>2014-05-01T08:08:22.000Z</time>
      </trkpt>
      <trkpt lat="45.78534" lon="4.85209">
        <ele>167</ele>
        <time>2014-05-01T08:08:27.000Z</time>
      </trkpt>
      <trkpt lat="45.78538" lon="4.85224">
        <ele>166.80000305176</ele>
        <time>2014-05-01T08:08:31.000Z</time>
      </trkpt>
      <trkpt lat="45.78544" lon="4.85241">
        <ele>166.60000610352</ele>
        <time>2014-05-01T08:08:36.000Z</time>
      </trkpt>
      <trkpt lat="45.7855" lon="4.85259">
        <ele>166.19999694824</ele>
        <time>2014-05-01T08:08:41.000Z</time>
      </trkpt>
      <trkpt lat="45.78557" lon="4.8527">
        <ele>166</ele>
        <time>2014-05-01T08:08:45.000Z</time>
      </trkpt>
      <trkpt lat="45.78561" lon="4.85289">
        <ele>166</ele>
        <time>2014-05-01T08:08:50.000Z</time>
      </trkpt>
      <trkpt lat="45.78568" lon="4.85307">
        <ele>166</ele>
        <time>2014-05-01T08:08:55.000Z</time>
      </trkpt>
      <trkpt lat="45.78571" lon="4.85314">
        <ele>166</ele>
        <time>2014-05-01T08:08:57.000Z</time>
      </trkpt>
      <trkpt lat="45.78574" lon="4.8533">
        <ele>166</ele>
        <time>2014-05-01T08:09:01.000Z</time>
      </trkpt>
      <trkpt lat="45.78578" lon="4.8534">
        <ele>166</ele>
        <time>2014-05-01T08:09:04.000Z</time>
      </trkpt>
      <trkpt lat="45.78584" lon="4.85357">
        <ele>166</ele>
        <time>2014-05-01T08:09:09.000Z</time>
      </trkpt>
      <trkpt lat="45.78588" lon="4.85376">
        <ele>166</ele>
        <time>2014-05-01T08:09:14.000Z</time>
      </trkpt>
      <trkpt lat="45.78589" lon="4.85379">
        <ele>166</ele>
        <time>2014-05-01T08:09:15.000Z</time>
      </trkpt>
      <trkpt lat="45.78592" lon="4.85398">
        <ele>166</ele>
        <time>2014-05-01T08:09:20.000Z</time>
      </trkpt>
      <trkpt lat="45.78594" lon="4.85409">
        <ele>166</ele>
        <time>2014-05-01T08:09:23.000Z</time>
      </trkpt>
      <trkpt lat="45.78602" lon="4.85437">
        <ele>166.19999694824</ele>
        <time>2014-05-01T08:09:31.000Z</time>
      </trkpt>
      <trkpt lat="45.78608" lon="4.85463">
        <ele>166.39999389648</ele>
        <time>2014-05-01T08:09:38.000Z</time>
      </trkpt>
      <trkpt lat="45.78612" lon="4.85479">
        <ele>166.39999389648</ele>
        <time>2014-05-01T08:09:43.000Z</time>
      </trkpt>
      <trkpt lat="45.78613" lon="4.85493">
        <ele>166.19999694824</ele>
        <time>2014-05-01T08:09:47.000Z</time>
      </trkpt>
      <trkpt lat="45.78616" lon="4.85511">
        <ele>166.19999694824</ele>
        <time>2014-05-01T08:09:52.000Z</time>
      </trkpt>
      <trkpt lat="45.78617" lon="4.85514">
        <ele>166.19999694824</ele>
        <time>2014-05-01T08:09:53.000Z</time>
      </trkpt>
      <trkpt lat="45.78619" lon="4.85523">
        <ele>166.39999389648</ele>
        <time>2014-05-01T08:09:56.000Z</time>
      </trkpt>
      <trkpt lat="45.78621" lon="4.85546">
        <ele>166.60000610352</ele>
        <time>2014-05-01T08:10:02.000Z</time>
      </trkpt>
      <trkpt lat="45.78623" lon="4.85564">
        <ele>166.60000610352</ele>
        <time>2014-05-01T08:10:07.000Z</time>
      </trkpt>
      <trkpt lat="45.78625" lon="4.85592">
        <ele>166.39999389648</ele>
        <time>2014-05-01T08:10:14.000Z</time>
      </trkpt>
      <trkpt lat="45.78628" lon="4.85619">
        <ele>166.19999694824</ele>
        <time>2014-05-01T08:10:21.000Z</time>
      </trkpt>
      <trkpt lat="45.78629" lon="4.8564">
        <ele>166.19999694824</ele>
        <time>2014-05-01T08:10:26.000Z</time>
      </trkpt>
      <trkpt lat="45.7863" lon="4.85658">
        <ele>166.19999694824</ele>
        <time>2014-05-01T08:10:31.000Z</time>
      </trkpt>
      <trkpt lat="45.7863" lon="4.85662">
        <ele>166.19999694824</ele>
        <time>2014-05-01T08:10:32.000Z</time>
      </trkpt>
      <trkpt lat="45.78632" lon="4.85682">
        <ele>166.19999694824</ele>
        <time>2014-05-01T08:10:37.000Z</time>
      </trkpt>
      <trkpt lat="45.78633" lon="4.85702">
        <ele>166.19999694824</ele>
        <time>2014-05-01T08:10:42.000Z</time>
      </trkpt>
      <trkpt lat="45.78633" lon="4.85725">
        <ele>166.19999694824</ele>
        <time>2014-05-01T08:10:48.000Z</time>
      </trkpt>
      <trkpt lat="45.78633" lon="4.8574">
        <ele>166.19999694824</ele>
        <time>2014-05-01T08:10:52.000Z</time>
      </trkpt>
      <trkpt lat="45.78632" lon="4.85757">
        <ele>166.19999694824</ele>
        <time>2014-05-01T08:10:56.000Z</time>
      </trkpt>
      <trkpt lat="45.78631" lon="4.85769">
        <ele>166.39999389648</ele>
        <time>2014-05-01T08:10:59.000Z</time>
      </trkpt>
      <trkpt lat="45.78632" lon="4.85777">
        <ele>166.19999694824</ele>
        <time>2014-05-01T08:11:02.000Z</time>
      </trkpt>
      <trkpt lat="45.78633" lon="4.85796">
        <ele>166.19999694824</ele>
        <time>2014-05-01T08:11:07.000Z</time>
      </trkpt>
      <trkpt lat="45.78631" lon="4.85816">
        <ele>166.19999694824</ele>
        <time>2014-05-01T08:11:12.000Z</time>
      </trkpt>
      <trkpt lat="45.78631" lon="4.85821">
        <ele>166.19999694824</ele>
        <time>2014-05-01T08:11:13.000Z</time>
      </trkpt>
      <trkpt lat="45.78629" lon="4.85844">
        <ele>166.19999694824</ele>
        <time>2014-05-01T08:11:19.000Z</time>
      </trkpt>
      <trkpt lat="45.78627" lon="4.85872">
        <ele>166.39999389648</ele>
        <time>2014-05-01T08:11:26.000Z</time>
      </trkpt>
      <trkpt lat="45.78626" lon="4.85893">
        <ele>166.39999389648</ele>
        <time>2014-05-01T08:11:31.000Z</time>
      </trkpt>
      <trkpt lat="45.78625" lon="4.8592">
        <ele>166.39999389648</ele>
        <time>2014-05-01T08:11:38.000Z</time>
      </trkpt>
      <trkpt lat="45.78625" lon="4.85935">
        <ele>166.39999389648</ele>
        <time>2014-05-01T08:11:42.000Z</time>
      </trkpt>
      <trkpt lat="45.78624" lon="4.85963">
        <ele>166.80000305176</ele>
        <time>2014-05-01T08:11:49.000Z</time>
      </trkpt>
      <trkpt lat="45.78622" lon="4.85983">
        <ele>167</ele>
        <time>2014-05-01T08:11:54.000Z</time>
      </trkpt>
      <trkpt lat="45.78621" lon="4.86001">
        <ele>167</ele>
        <time>2014-05-01T08:11:58.000Z</time>
      </trkpt>
      <trkpt lat="45.78618" lon="4.86018">
        <ele>167.19999694824</ele>
        <time>2014-05-01T08:12:01.000Z</time>
      </trkpt>
      <trkpt lat="45.78617" lon="4.86042">
        <ele>168</ele>
        <time>2014-05-01T08:12:07.000Z</time>
      </trkpt>
      <trkpt lat="45.78617" lon="4.86063">
        <ele>168</ele>
        <time>2014-05-01T08:12:12.000Z</time>
      </trkpt>
      <trkpt lat="45.78616" lon="4.86084">
        <ele>168.19999694824</ele>
        <time>2014-05-01T08:12:17.000Z</time>
      </trkpt>
      <trkpt lat="45.78615" lon="4.86104">
        <ele>168</ele>
        <time>2014-05-01T08:12:22.000Z</time>
      </trkpt>
      <trkpt lat="45.78613" lon="4.86124">
        <ele>166.60000610352</ele>
        <time>2014-05-01T08:12:27.000Z</time>
      </trkpt>
      <trkpt lat="45.78611" lon="4.86141">
        <ele>166.60000610352</ele>
        <time>2014-05-01T08:12:31.000Z</time>
      </trkpt>
      <trkpt lat="45.78608" lon="4.8617">
        <ele>166.80000305176</ele>
        <time>2014-05-01T08:12:38.000Z</time>
      </trkpt>
      <trkpt lat="45.78606" lon="4.8619">
        <ele>166.19999694824</ele>
        <time>2014-05-01T08:12:43.000Z</time>
      </trkpt>
      <trkpt lat="45.78604" lon="4.8621">
        <ele>165.60000610352</ele>
        <time>2014-05-01T08:12:48.000Z</time>
      </trkpt>
      <trkpt lat="45.78602" lon="4.86235">
        <ele>165.60000610352</ele>
        <time>2014-05-01T08:12:54.000Z</time>
      </trkpt>
      <trkpt lat="45.78599" lon="4.86255">
        <ele>165.60000610352</ele>
        <time>2014-05-01T08:12:59.000Z</time>
      </trkpt>
      <trkpt lat="45.78595" lon="4.86275">
        <ele>166.19999694824</ele>
        <time>2014-05-01T08:13:04.000Z</time>
      </trkpt>
      <trkpt lat="45.78588" lon="4.86301">
        <ele>166.60000610352</ele>
        <time>2014-05-01T08:13:11.000Z</time>
      </trkpt>
      <trkpt lat="45.78584" lon="4.86316">
        <ele>166.60000610352</ele>
        <time>2014-05-01T08:13:16.000Z</time>
      </trkpt>
      <trkpt lat="45.78578" lon="4.86332">
        <ele>167</ele>
        <time>2014-05-01T08:13:21.000Z</time>
      </trkpt>
      <trkpt lat="45.78578" lon="4.8635">
        <ele>167.19999694824</ele>
        <time>2014-05-01T08:13:26.000Z</time>
      </trkpt>
      <trkpt lat="45.78578" lon="4.86353">
        <ele>167.19999694824</ele>
        <time>2014-05-01T08:13:27.000Z</time>
      </trkpt>
      <trkpt lat="45.78578" lon="4.86363">
        <ele>167.39999389648</ele>
        <time>2014-05-01T08:13:30.000Z</time>
      </trkpt>
      <trkpt lat="45.78578" lon="4.86384">
        <ele>167.39999389648</ele>
        <time>2014-05-01T08:13:36.000Z</time>
      </trkpt>
      <trkpt lat="45.78579" lon="4.86403">
        <ele>167.60000610352</ele>
        <time>2014-05-01T08:13:41.000Z</time>
      </trkpt>
      <trkpt lat="45.7858" lon="4.8642">
        <ele>167.60000610352</ele>
        <time>2014-05-01T08:13:45.000Z</time>
      </trkpt>
      <trkpt lat="45.78582" lon="4.86439">
        <ele>167.80000305176</ele>
        <time>2014-05-01T08:13:50.000Z</time>
      </trkpt>
      <trkpt lat="45.78585" lon="4.86464">
        <ele>168</ele>
        <time>2014-05-01T08:13:56.000Z</time>
      </trkpt>
      <trkpt lat="45.78585" lon="4.86485">
        <ele>168</ele>
        <time>2014-05-01T08:14:01.000Z</time>
      </trkpt>
      <trkpt lat="45.78586" lon="4.86488">
        <ele>168</ele>
        <time>2014-05-01T08:14:02.000Z</time>
      </trkpt>
      <trkpt lat="45.78588" lon="4.86505">
        <ele>168.19999694824</ele>
        <time>2014-05-01T08:14:07.000Z</time>
      </trkpt>
      <trkpt lat="45.78592" lon="4.8653">
        <ele>168.60000610352</ele>
        <time>2014-05-01T08:14:13.000Z</time>
      </trkpt>
      <trkpt lat="45.78592" lon="4.86534">
        <ele>168.60000610352</ele>
        <time>2014-05-01T08:14:14.000Z</time>
      </trkpt>
      <trkpt lat="45.78595" lon="4.86548">
        <ele>168.60000610352</ele>
        <time>2014-05-01T08:14:18.000Z</time>
      </trkpt>
      <trkpt lat="45.78597" lon="4.86552">
        <ele>168.39999389648</ele>
        <time>2014-05-01T08:14:19.000Z</time>
      </trkpt>
      <trkpt lat="45.78601" lon="4.86577">
        <ele>168.19999694824</ele>
        <time>2014-05-01T08:14:26.000Z</time>
      </trkpt>
      <trkpt lat="45.78603" lon="4.86593">
        <ele>168.39999389648</ele>
        <time>2014-05-01T08:14:30.000Z</time>
      </trkpt>
      <trkpt lat="45.78605" lon="4.86597">
        <ele>168.19999694824</ele>
        <time>2014-05-01T08:14:31.000Z</time>
      </trkpt>
      <trkpt lat="45.7861" lon="4.86617">
        <ele>168.39999389648</ele>
        <time>2014-05-01T08:14:36.000Z</time>
      </trkpt>
      <trkpt lat="45.78616" lon="4.86639">
        <ele>168.19999694824</ele>
        <time>2014-05-01T08:14:42.000Z</time>
      </trkpt>
      <trkpt lat="45.78622" lon="4.86665">
        <ele>167.60000610352</ele>
        <time>2014-05-01T08:14:49.000Z</time>
      </trkpt>
      <trkpt lat="45.78627" lon="4.86682">
        <ele>167</ele>
        <time>2014-05-01T08:14:54.000Z</time>
      </trkpt>
      <trkpt lat="45.7863" lon="4.86693">
        <ele>166.80000305176</ele>
        <time>2014-05-01T08:14:57.000Z</time>
      </trkpt>
      <trkpt lat="45.7863" lon="4.86698">
        <ele>166.80000305176</ele>
        <time>2014-05-01T08:14:58.000Z</time>
      </trkpt>
      <trkpt lat="45.78633" lon="4.86718">
        <ele>167.19999694824</ele>
        <time>2014-05-01T08:15:03.000Z</time>
      </trkpt>
      <trkpt lat="45.78638" lon="4.86738">
        <ele>167.60000610352</ele>
        <time>2014-05-01T08:15:08.000Z</time>
      </trkpt>
      <trkpt lat="45.78642" lon="4.86745">
        <ele>167.80000305176</ele>
        <time>2014-05-01T08:15:10.000Z</time>
      </trkpt>
      <trkpt lat="45.78646" lon="4.86759">
        <ele>168.19999694824</ele>
        <time>2014-05-01T08:15:14.000Z</time>
      </trkpt>
      <trkpt lat="45.78651" lon="4.86774">
        <ele>168.60000610352</ele>
        <time>2014-05-01T08:15:18.000Z</time>
      </trkpt>
      <trkpt lat="45.78662" lon="4.86797">
        <ele>168.80000305176</ele>
        <time>2014-05-01T08:15:25.000Z</time>
      </trkpt>
      <trkpt lat="45.78665" lon="4.86799">
        <ele>168.80000305176</ele>
        <time>2014-05-01T08:15:26.000Z</time>
      </trkpt>
      <trkpt lat="45.78668" lon="4.86812">
        <ele>168.60000610352</ele>
        <time>2014-05-01T08:15:29.000Z</time>
      </trkpt>
      <trkpt lat="45.78674" lon="4.86822">
        <ele>168.19999694824</ele>
        <time>2014-05-01T08:15:32.000Z</time>
      </trkpt>
      <trkpt lat="45.78677" lon="4.86828">
        <ele>168.19999694824</ele>
        <time>2014-05-01T08:15:34.000Z</time>
      </trkpt>
      <trkpt lat="45.78678" lon="4.86832">
        <ele>168.19999694824</ele>
        <time>2014-05-01T08:15:35.000Z</time>
      </trkpt>
      <trkpt lat="45.78679" lon="4.86849">
        <ele>168.60000610352</ele>
        <time>2014-05-01T08:15:39.000Z</time>
      </trkpt>
      <trkpt lat="45.78679" lon="4.86858">
        <ele>169</ele>
        <time>2014-05-01T08:15:41.000Z</time>
      </trkpt>
      <trkpt lat="45.78686" lon="4.86877">
        <ele>169</ele>
        <time>2014-05-01T08:15:46.000Z</time>
      </trkpt>
      <trkpt lat="45.78687" lon="4.86881">
        <ele>169</ele>
        <time>2014-05-01T08:15:47.000Z</time>
      </trkpt>
      <trkpt lat="45.78688" lon="4.86888">
        <ele>168.80000305176</ele>
        <time>2014-05-01T08:15:49.000Z</time>
      </trkpt>
      <trkpt lat="45.78697" lon="4.86908">
        <ele>168</ele>
        <time>2014-05-01T08:15:55.000Z</time>
      </trkpt>
      <trkpt lat="45.78704" lon="4.86926">
        <ele>167.39999389648</ele>
        <time>2014-05-01T08:16:00.000Z</time>
      </trkpt>
      <trkpt lat="45.78706" lon="4.8693">
        <ele>167.39999389648</ele>
        <time>2014-05-01T08:16:01.000Z</time>
      </trkpt>
      <trkpt lat="45.78715" lon="4.86943">
        <ele>166.60000610352</ele>
        <time>2014-05-01T08:16:05.000Z</time>
      </trkpt>
      <trkpt lat="45.78723" lon="4.86954">
        <ele>166</ele>
        <time>2014-05-01T08:16:09.000Z</time>
      </trkpt>
      <trkpt lat="45.78731" lon="4.86972">
        <ele>166</ele>
        <time>2014-05-01T08:16:14.000Z</time>
      </trkpt>
      <trkpt lat="45.78736" lon="4.86988">
        <ele>166</ele>
        <time>2014-05-01T08:16:19.000Z</time>
      </trkpt>
      <trkpt lat="45.78738" lon="4.86994">
        <ele>166</ele>
        <time>2014-05-01T08:16:21.000Z</time>
      </trkpt>
      <trkpt lat="45.7874" lon="4.87001">
        <ele>166</ele>
        <time>2014-05-01T08:16:23.000Z</time>
      </trkpt>
      <trkpt lat="45.7874" lon="4.87021">
        <ele>166</ele>
        <time>2014-05-01T08:16:28.000Z</time>
      </trkpt>
      <trkpt lat="45.7874" lon="4.87037">
        <ele>166</ele>
        <time>2014-05-01T08:16:33.000Z</time>
      </trkpt>
      <trkpt lat="45.78741" lon="4.87051">
        <ele>166</ele>
        <time>2014-05-01T08:16:37.000Z</time>
      </trkpt>
      <trkpt lat="45.78741" lon="4.87054">
        <ele>166</ele>
        <time>2014-05-01T08:16:38.000Z</time>
      </trkpt>
      <trkpt lat="45.78741" lon="4.87081">
        <ele>168.80000305176</ele>
        <time>2014-05-01T08:16:45.000Z</time>
      </trkpt>
      <trkpt lat="45.78742" lon="4.87108">
        <ele>171.80000305176</ele>
        <time>2014-05-01T08:16:51.000Z</time>
      </trkpt>
      <trkpt lat="45.78742" lon="4.87132">
        <ele>173.60000610352</ele>
        <time>2014-05-01T08:16:57.000Z</time>
      </trkpt>
      <trkpt lat="45.78742" lon="4.87157">
        <ele>172.39999389648</ele>
        <time>2014-05-01T08:17:03.000Z</time>
      </trkpt>
      <trkpt lat="45.78743" lon="4.87176">
        <ele>170.80000305176</ele>
        <time>2014-05-01T08:17:08.000Z</time>
      </trkpt>
      <trkpt lat="45.78745" lon="4.8719">
        <ele>169.60000610352</ele>
        <time>2014-05-01T08:17:12.000Z</time>
      </trkpt>
      <trkpt lat="45.78745" lon="4.87194">
        <ele>169.19999694824</ele>
        <time>2014-05-01T08:17:13.000Z</time>
      </trkpt>
      <trkpt lat="45.78746" lon="4.87209">
        <ele>168.19999694824</ele>
        <time>2014-05-01T08:17:17.000Z</time>
      </trkpt>
      <trkpt lat="45.78749" lon="4.87224">
        <ele>168</ele>
        <time>2014-05-01T08:17:22.000Z</time>
      </trkpt>
      <trkpt lat="45.78752" lon="4.87246">
        <ele>168.39999389648</ele>
        <time>2014-05-01T08:17:28.000Z</time>
      </trkpt>
      <trkpt lat="45.78755" lon="4.87266">
        <ele>169.39999389648</ele>
        <time>2014-05-01T08:17:33.000Z</time>
      </trkpt>
      <trkpt lat="45.78755" lon="4.87271">
        <ele>169.60000610352</ele>
        <time>2014-05-01T08:17:34.000Z</time>
      </trkpt>
      <trkpt lat="45.78754" lon="4.87292">
        <ele>170.80000305176</ele>
        <time>2014-05-01T08:17:39.000Z</time>
      </trkpt>
      <trkpt lat="45.78755" lon="4.87315">
        <ele>170.80000305176</ele>
        <time>2014-05-01T08:17:44.000Z</time>
      </trkpt>
      <trkpt lat="45.78756" lon="4.87341">
        <ele>169.80000305176</ele>
        <time>2014-05-01T08:17:50.000Z</time>
      </trkpt>
      <trkpt lat="45.78759" lon="4.87363">
        <ele>168.60000610352</ele>
        <time>2014-05-01T08:17:55.000Z</time>
      </trkpt>
      <trkpt lat="45.78761" lon="4.87383">
        <ele>168</ele>
        <time>2014-05-01T08:18:00.000Z</time>
      </trkpt>
      <trkpt lat="45.78763" lon="4.87389">
        <ele>168</ele>
        <time>2014-05-01T08:18:02.000Z</time>
      </trkpt>
      <trkpt lat="45.78766" lon="4.87404">
        <ele>167.80000305176</ele>
        <time>2014-05-01T08:18:07.000Z</time>
      </trkpt>
      <trkpt lat="45.78769" lon="4.87429">
        <ele>167.80000305176</ele>
        <time>2014-05-01T08:18:13.000Z</time>
      </trkpt>
      <trkpt lat="45.7877" lon="4.87455">
        <ele>168</ele>
        <time>2014-05-01T08:18:19.000Z</time>
      </trkpt>
      <trkpt lat="45.78774" lon="4.87471">
        <ele>167.80000305176</ele>
        <time>2014-05-01T08:18:24.000Z</time>
      </trkpt>
      <trkpt lat="45.78775" lon="4.87488">
        <ele>167.80000305176</ele>
        <time>2014-05-01T08:18:28.000Z</time>
      </trkpt>
      <trkpt lat="45.78776" lon="4.87509">
        <ele>167.80000305176</ele>
        <time>2014-05-01T08:18:33.000Z</time>
      </trkpt>
      <trkpt lat="45.78775" lon="4.87525">
        <ele>168.39999389648</ele>
        <time>2014-05-01T08:18:37.000Z</time>
      </trkpt>
      <trkpt lat="45.78774" lon="4.87545">
        <ele>169</ele>
        <time>2014-05-01T08:18:41.000Z</time>
      </trkpt>
      <trkpt lat="45.78777" lon="4.87559">
        <ele>168.60000610352</ele>
        <time>2014-05-01T08:18:45.000Z</time>
      </trkpt>
      <trkpt lat="45.78782" lon="4.87573">
        <ele>168.19999694824</ele>
        <time>2014-05-01T08:18:50.000Z</time>
      </trkpt>
      <trkpt lat="45.78785" lon="4.87593">
        <ele>167.80000305176</ele>
        <time>2014-05-01T08:18:55.000Z</time>
      </trkpt>
      <trkpt lat="45.78788" lon="4.87608">
        <ele>167.60000610352</ele>
        <time>2014-05-01T08:18:59.000Z</time>
      </trkpt>
      <trkpt lat="45.7879" lon="4.87624">
        <ele>167.39999389648</ele>
        <time>2014-05-01T08:19:03.000Z</time>
      </trkpt>
      <trkpt lat="45.78793" lon="4.87639">
        <ele>167.19999694824</ele>
        <time>2014-05-01T08:19:07.000Z</time>
      </trkpt>
      <trkpt lat="45.78795" lon="4.87642">
        <ele>167</ele>
        <time>2014-05-01T08:19:08.000Z</time>
      </trkpt>
      <trkpt lat="45.78803" lon="4.87664">
        <ele>166.19999694824</ele>
        <time>2014-05-01T08:19:14.000Z</time>
      </trkpt>
      <trkpt lat="45.78811" lon="4.87674">
        <ele>166</ele>
        <time>2014-05-01T08:19:18.000Z</time>
      </trkpt>
      <trkpt lat="45.78823" lon="4.87688">
        <ele>166</ele>
        <time>2014-05-01T08:19:23.000Z</time>
      </trkpt>
      <trkpt lat="45.78834" lon="4.877">
        <ele>166</ele>
        <time>2014-05-01T08:19:28.000Z</time>
      </trkpt>
      <trkpt lat="45.78847" lon="4.87714">
        <ele>166</ele>
        <time>2014-05-01T08:19:34.000Z</time>
      </trkpt>
      <trkpt lat="45.78861" lon="4.87729">
        <ele>166</ele>
        <time>2014-05-01T08:19:40.000Z</time>
      </trkpt>
      <trkpt lat="45.78873" lon="4.8774">
        <ele>166</ele>
        <time>2014-05-01T08:19:45.000Z</time>
      </trkpt>
      <trkpt lat="45.78885" lon="4.87751">
        <ele>166</ele>
        <time>2014-05-01T08:19:50.000Z</time>
      </trkpt>
      <trkpt lat="45.78897" lon="4.87762">
        <ele>166</ele>
        <time>2014-05-01T08:19:55.000Z</time>
      </trkpt>
      <trkpt lat="45.78911" lon="4.87774">
        <ele>166</ele>
        <time>2014-05-01T08:20:01.000Z</time>
      </trkpt>
      <trkpt lat="45.78928" lon="4.87788">
        <ele>166</ele>
        <time>2014-05-01T08:20:08.000Z</time>
      </trkpt>
      <trkpt lat="45.78939" lon="4.878">
        <ele>166.19999694824</ele>
        <time>2014-05-01T08:20:13.000Z</time>
      </trkpt>
      <trkpt lat="45.78952" lon="4.87809">
        <ele>166.19999694824</ele>
        <time>2014-05-01T08:20:18.000Z</time>
      </trkpt>
      <trkpt lat="45.78955" lon="4.87811">
        <ele>166.19999694824</ele>
        <time>2014-05-01T08:20:19.000Z</time>
      </trkpt>
      <trkpt lat="45.78969" lon="4.87824">
        <ele>166.39999389648</ele>
        <time>2014-05-01T08:20:25.000Z</time>
      </trkpt>
      <trkpt lat="45.78985" lon="4.8784">
        <ele>166.60000610352</ele>
        <time>2014-05-01T08:20:32.000Z</time>
      </trkpt>
      <trkpt lat="45.79" lon="4.87853">
        <ele>166.80000305176</ele>
        <time>2014-05-01T08:20:38.000Z</time>
      </trkpt>
      <trkpt lat="45.79013" lon="4.87865">
        <ele>167</ele>
        <time>2014-05-01T08:20:44.000Z</time>
      </trkpt>
      <trkpt lat="45.79025" lon="4.87877">
        <ele>167</ele>
        <time>2014-05-01T08:20:49.000Z</time>
      </trkpt>
      <trkpt lat="45.79037" lon="4.87888">
        <ele>167</ele>
        <time>2014-05-01T08:20:54.000Z</time>
      </trkpt>
      <trkpt lat="45.79051" lon="4.879">
        <ele>167</ele>
        <time>2014-05-01T08:21:00.000Z</time>
      </trkpt>
      <trkpt lat="45.79063" lon="4.87911">
        <ele>167</ele>
        <time>2014-05-01T08:21:05.000Z</time>
      </trkpt>
      <trkpt lat="45.79076" lon="4.87923">
        <ele>167</ele>
        <time>2014-05-01T08:21:11.000Z</time>
      </trkpt>
      <trkpt lat="45.7909" lon="4.87936">
        <ele>167</ele>
        <time>2014-05-01T08:21:17.000Z</time>
      </trkpt>
      <trkpt lat="45.79105" lon="4.87948">
        <ele>167</ele>
        <time>2014-05-01T08:21:23.000Z</time>
      </trkpt>
      <trkpt lat="45.79116" lon="4.87958">
        <ele>167</ele>
        <time>2014-05-01T08:21:28.000Z</time>
      </trkpt>
      <trkpt lat="45.79127" lon="4.87969">
        <ele>166.80000305176</ele>
        <time>2014-05-01T08:21:33.000Z</time>
      </trkpt>
      <trkpt lat="45.79144" lon="4.87984">
        <ele>166.39999389648</ele>
        <time>2014-05-01T08:21:40.000Z</time>
      </trkpt>
      <trkpt lat="45.79155" lon="4.87996">
        <ele>166.39999389648</ele>
        <time>2014-05-01T08:21:45.000Z</time>
      </trkpt>
      <trkpt lat="45.79167" lon="4.88007">
        <ele>166.39999389648</ele>
        <time>2014-05-01T08:21:50.000Z</time>
      </trkpt>
      <trkpt lat="45.79179" lon="4.88018">
        <ele>166.39999389648</ele>
        <time>2014-05-01T08:21:55.000Z</time>
      </trkpt>
      <trkpt lat="45.79191" lon="4.88028">
        <ele>166.60000610352</ele>
        <time>2014-05-01T08:22:00.000Z</time>
      </trkpt>
      <trkpt lat="45.79209" lon="4.88043">
        <ele>166.60000610352</ele>
        <time>2014-05-01T08:22:07.000Z</time>
      </trkpt>
      <trkpt lat="45.79221" lon="4.88052">
        <ele>166.80000305176</ele>
        <time>2014-05-01T08:22:12.000Z</time>
      </trkpt>
      <trkpt lat="45.79239" lon="4.88063">
        <ele>167</ele>
        <time>2014-05-01T08:22:19.000Z</time>
      </trkpt>
      <trkpt lat="45.79254" lon="4.88073">
        <ele>167</ele>
        <time>2014-05-01T08:22:25.000Z</time>
      </trkpt>
      <trkpt lat="45.79247" lon="4.88098">
        <ele>166.60000610352</ele>
        <time>2014-05-01T08:22:35.000Z</time>
      </trkpt>
      <trkpt lat="45.79237" lon="4.88101">
        <ele>166.39999389648</ele>
        <time>2014-05-01T08:22:39.000Z</time>
      </trkpt>
      <trkpt lat="45.7923" lon="4.88106">
        <ele>166.39999389648</ele>
        <time>2014-05-01T08:22:42.000Z</time>
      </trkpt>
      <trkpt lat="45.79216" lon="4.88117">
        <ele>166</ele>
        <time>2014-05-01T08:22:47.000Z</time>
      </trkpt>
      <trkpt lat="45.79205" lon="4.88124">
        <ele>166.19999694824</ele>
        <time>2014-05-01T08:22:51.000Z</time>
      </trkpt>
      <trkpt lat="45.79193" lon="4.88133">
        <ele>166.80000305176</ele>
        <time>2014-05-01T08:22:55.000Z</time>
      </trkpt>
      <trkpt lat="45.79179" lon="4.88141">
        <ele>167.39999389648</ele>
        <time>2014-05-01T08:23:00.000Z</time>
      </trkpt>
      <trkpt lat="45.79164" lon="4.88147">
        <ele>167.80000305176</ele>
        <time>2014-05-01T08:23:05.000Z</time>
      </trkpt>
      <trkpt lat="45.79151" lon="4.88146">
        <ele>167.80000305176</ele>
        <time>2014-05-01T08:23:10.000Z</time>
      </trkpt>
      <trkpt lat="45.79133" lon="4.88148">
        <ele>167.80000305176</ele>
        <time>2014-05-01T08:23:16.000Z</time>
      </trkpt>
      <trkpt lat="45.79122" lon="4.88142">
        <ele>168</ele>
        <time>2014-05-01T08:23:20.000Z</time>
      </trkpt>
      <trkpt lat="45.79112" lon="4.88132">
        <ele>168.19999694824</ele>
        <time>2014-05-01T08:23:24.000Z</time>
      </trkpt>
      <trkpt lat="45.79101" lon="4.88113">
        <ele>168</ele>
        <time>2014-05-01T08:23:30.000Z</time>
      </trkpt>
      <trkpt lat="45.79091" lon="4.88095">
        <ele>168</ele>
        <time>2014-05-01T08:23:36.000Z</time>
      </trkpt>
      <trkpt lat="45.79081" lon="4.88083">
        <ele>168</ele>
        <time>2014-05-01T08:23:41.000Z</time>
      </trkpt>
      <trkpt lat="45.79071" lon="4.88071">
        <ele>168.19999694824</ele>
        <time>2014-05-01T08:23:46.000Z</time>
      </trkpt>
      <trkpt lat="45.79058" lon="4.88056">
        <ele>168.19999694824</ele>
        <time>2014-05-01T08:23:52.000Z</time>
      </trkpt>
      <trkpt lat="45.79046" lon="4.88045">
        <ele>168.60000610352</ele>
        <time>2014-05-01T08:23:57.000Z</time>
      </trkpt>
      <trkpt lat="45.79032" lon="4.88032">
        <ele>168.80000305176</ele>
        <time>2014-05-01T08:24:03.000Z</time>
      </trkpt>
      <trkpt lat="45.79021" lon="4.88017">
        <ele>168.39999389648</ele>
        <time>2014-05-01T08:24:08.000Z</time>
      </trkpt>
      <trkpt lat="45.79011" lon="4.88001">
        <ele>167.80000305176</ele>
        <time>2014-05-01T08:24:13.000Z</time>
      </trkpt>
      <trkpt lat="45.78999" lon="4.87984">
        <ele>167.39999389648</ele>
        <time>2014-05-01T08:24:19.000Z</time>
      </trkpt>
      <trkpt lat="45.7899" lon="4.87973">
        <ele>167.19999694824</ele>
        <time>2014-05-01T08:24:23.000Z</time>
      </trkpt>
      <trkpt lat="45.78978" lon="4.87958">
        <ele>167</ele>
        <time>2014-05-01T08:24:29.000Z</time>
      </trkpt>
      <trkpt lat="45.78968" lon="4.87952">
        <ele>167</ele>
        <time>2014-05-01T08:24:33.000Z</time>
      </trkpt>
      <trkpt lat="45.78958" lon="4.87944">
        <ele>167</ele>
        <time>2014-05-01T08:24:37.000Z</time>
      </trkpt>
      <trkpt lat="45.7894" lon="4.87931">
        <ele>167.19999694824</ele>
        <time>2014-05-01T08:24:44.000Z</time>
      </trkpt>
      <trkpt lat="45.78926" lon="4.8792">
        <ele>167.19999694824</ele>
        <time>2014-05-01T08:24:50.000Z</time>
      </trkpt>
      <trkpt lat="45.78916" lon="4.87906">
        <ele>166.80000305176</ele>
        <time>2014-05-01T08:24:55.000Z</time>
      </trkpt>
      <trkpt lat="45.78907" lon="4.87895">
        <ele>166.60000610352</ele>
        <time>2014-05-01T08:24:59.000Z</time>
      </trkpt>
      <trkpt lat="45.78894" lon="4.87879">
        <ele>166.19999694824</ele>
        <time>2014-05-01T08:25:05.000Z</time>
      </trkpt>
      <trkpt lat="45.78881" lon="4.87865">
        <ele>166.39999389648</ele>
        <time>2014-05-01T08:25:11.000Z</time>
      </trkpt>
      <trkpt lat="45.78873" lon="4.87856">
        <ele>166.80000305176</ele>
        <time>2014-05-01T08:25:15.000Z</time>
      </trkpt>
      <trkpt lat="45.78864" lon="4.87842">
        <ele>167.19999694824</ele>
        <time>2014-05-01T08:25:20.000Z</time>
      </trkpt>
      <trkpt lat="45.78857" lon="4.87835">
        <ele>167.60000610352</ele>
        <time>2014-05-01T08:25:24.000Z</time>
      </trkpt>
      <trkpt lat="45.78849" lon="4.87846">
        <ele>168.19999694824</ele>
        <time>2014-05-01T08:25:29.000Z</time>
      </trkpt>
      <trkpt lat="45.78845" lon="4.87869">
        <ele>169.39999389648</ele>
        <time>2014-05-01T08:25:35.000Z</time>
      </trkpt>
      <trkpt lat="45.7884" lon="4.87889">
        <ele>171.39999389648</ele>
        <time>2014-05-01T08:25:40.000Z</time>
      </trkpt>
      <trkpt lat="45.78839" lon="4.87894">
        <ele>171.80000305176</ele>
        <time>2014-05-01T08:25:41.000Z</time>
      </trkpt>
      <trkpt lat="45.78828" lon="4.8793">
        <ele>173.39999389648</ele>
        <time>2014-05-01T08:25:51.000Z</time>
      </trkpt>
      <trkpt lat="45.78822" lon="4.87949">
        <ele>173.80000305176</ele>
        <time>2014-05-01T08:25:56.000Z</time>
      </trkpt>
      <trkpt lat="45.78818" lon="4.87963">
        <ele>174</ele>
        <time>2014-05-01T08:26:00.000Z</time>
      </trkpt>
      <trkpt lat="45.78812" lon="4.87983">
        <ele>174.39999389648</ele>
        <time>2014-05-01T08:26:05.000Z</time>
      </trkpt>
      <trkpt lat="45.78809" lon="4.87995">
        <ele>174.60000610352</ele>
        <time>2014-05-01T08:26:09.000Z</time>
      </trkpt>
      <trkpt lat="45.78804" lon="4.87992">
        <ele>174.39999389648</ele>
        <time>2014-05-01T08:26:13.000Z</time>
      </trkpt>
      <trkpt lat="45.78803" lon="4.87987">
        <ele>174.39999389648</ele>
        <time>2014-05-01T08:26:15.000Z</time>
      </trkpt>
      <trkpt lat="45.788" lon="4.87966">
        <ele>174</ele>
        <time>2014-05-01T08:26:20.000Z</time>
      </trkpt>
      <trkpt lat="45.78799" lon="4.87963">
        <ele>174</ele>
        <time>2014-05-01T08:26:21.000Z</time>
      </trkpt>
      <trkpt lat="45.78794" lon="4.87943">
        <ele>174.60000610352</ele>
        <time>2014-05-01T08:26:27.000Z</time>
      </trkpt>
      <trkpt lat="45.78791" lon="4.8792">
        <ele>174.60000610352</ele>
        <time>2014-05-01T08:26:36.000Z</time>
      </trkpt>
      <trkpt lat="45.78789" lon="4.87912">
        <ele>174.60000610352</ele>
        <time>2014-05-01T08:26:40.000Z</time>
      </trkpt>
      <trkpt lat="45.78789" lon="4.87909">
        <ele>174.60000610352</ele>
        <time>2014-05-01T08:26:41.000Z</time>
      </trkpt>
      <trkpt lat="45.78787" lon="4.87895">
        <ele>174.60000610352</ele>
        <time>2014-05-01T08:26:45.000Z</time>
      </trkpt>
      <trkpt lat="45.78786" lon="4.87888">
        <ele>174.60000610352</ele>
        <time>2014-05-01T08:26:47.000Z</time>
      </trkpt>
      <trkpt lat="45.78782" lon="4.87862">
        <ele>174.60000610352</ele>
        <time>2014-05-01T08:26:54.000Z</time>
      </trkpt>
      <trkpt lat="45.78779" lon="4.87844">
        <ele>174.39999389648</ele>
        <time>2014-05-01T08:26:59.000Z</time>
      </trkpt>
      <trkpt lat="45.78776" lon="4.8783">
        <ele>174.19999694824</ele>
        <time>2014-05-01T08:27:03.000Z</time>
      </trkpt>
      <trkpt lat="45.78774" lon="4.87816">
        <ele>174</ele>
        <time>2014-05-01T08:27:07.000Z</time>
      </trkpt>
      <trkpt lat="45.78774" lon="4.87794">
        <ele>173.19999694824</ele>
        <time>2014-05-01T08:27:13.000Z</time>
      </trkpt>
      <trkpt lat="45.78771" lon="4.87776">
        <ele>172.39999389648</ele>
        <time>2014-05-01T08:27:18.000Z</time>
      </trkpt>
      <trkpt lat="45.78768" lon="4.87758">
        <ele>171.60000610352</ele>
        <time>2014-05-01T08:27:23.000Z</time>
      </trkpt>
      <trkpt lat="45.78766" lon="4.87741">
        <ele>171</ele>
        <time>2014-05-01T08:27:28.000Z</time>
      </trkpt>
      <trkpt lat="45.78762" lon="4.87721">
        <ele>170.19999694824</ele>
        <time>2014-05-01T08:27:34.000Z</time>
      </trkpt>
      <trkpt lat="45.78757" lon="4.877">
        <ele>170</ele>
        <time>2014-05-01T08:27:40.000Z</time>
      </trkpt>
      <trkpt lat="45.78755" lon="4.87686">
        <ele>170.39999389648</ele>
        <time>2014-05-01T08:27:45.000Z</time>
      </trkpt>
      <trkpt lat="45.78753" lon="4.87668">
        <ele>170.80000305176</ele>
        <time>2014-05-01T08:27:50.000Z</time>
      </trkpt>
      <trkpt lat="45.78751" lon="4.87648">
        <ele>171.19999694824</ele>
        <time>2014-05-01T08:27:55.000Z</time>
      </trkpt>
      <trkpt lat="45.78745" lon="4.87632">
        <ele>171.60000610352</ele>
        <time>2014-05-01T08:28:00.000Z</time>
      </trkpt>
      <trkpt lat="45.78732" lon="4.87615">
        <ele>173</ele>
        <time>2014-05-01T08:28:07.000Z</time>
      </trkpt>
      <trkpt lat="45.7872" lon="4.87601">
        <ele>174</ele>
        <time>2014-05-01T08:28:13.000Z</time>
      </trkpt>
      <trkpt lat="45.78711" lon="4.87585">
        <ele>173.80000305176</ele>
        <time>2014-05-01T08:28:19.000Z</time>
      </trkpt>
      <trkpt lat="45.78707" lon="4.87571">
        <ele>173.60000610352</ele>
        <time>2014-05-01T08:28:23.000Z</time>
      </trkpt>
      <trkpt lat="45.78703" lon="4.87545">
        <ele>173.60000610352</ele>
        <time>2014-05-01T08:28:30.000Z</time>
      </trkpt>
      <trkpt lat="45.78701" lon="4.87532">
        <ele>173.39999389648</ele>
        <time>2014-05-01T08:28:34.000Z</time>
      </trkpt>
      <trkpt lat="45.78697" lon="4.87507">
        <ele>172.80000305176</ele>
        <time>2014-05-01T08:28:41.000Z</time>
      </trkpt>
      <trkpt lat="45.78693" lon="4.87483">
        <ele>172</ele>
        <time>2014-05-01T08:28:47.000Z</time>
      </trkpt>
      <trkpt lat="45.7869" lon="4.8747">
        <ele>171.60000610352</ele>
        <time>2014-05-01T08:28:50.000Z</time>
      </trkpt>
      <trkpt lat="45.78688" lon="4.87446">
        <ele>171.19999694824</ele>
        <time>2014-05-01T08:28:57.000Z</time>
      </trkpt>
      <trkpt lat="45.78686" lon="4.87442">
        <ele>171.39999389648</ele>
        <time>2014-05-01T08:28:58.000Z</time>
      </trkpt>
      <trkpt lat="45.78684" lon="4.87425">
        <ele>171.80000305176</ele>
        <time>2014-05-01T08:29:03.000Z</time>
      </trkpt>
      <trkpt lat="45.78681" lon="4.87405">
        <ele>171.80000305176</ele>
        <time>2014-05-01T08:29:08.000Z</time>
      </trkpt>
      <trkpt lat="45.7868" lon="4.87391">
        <ele>171.80000305176</ele>
        <time>2014-05-01T08:29:12.000Z</time>
      </trkpt>
      <trkpt lat="45.78678" lon="4.87373">
        <ele>171.60000610352</ele>
        <time>2014-05-01T08:29:17.000Z</time>
      </trkpt>
      <trkpt lat="45.78677" lon="4.87364">
        <ele>171.60000610352</ele>
        <time>2014-05-01T08:29:19.000Z</time>
      </trkpt>
      <trkpt lat="45.78673" lon="4.87348">
        <ele>171.80000305176</ele>
        <time>2014-05-01T08:29:24.000Z</time>
      </trkpt>
      <trkpt lat="45.78671" lon="4.87341">
        <ele>171.80000305176</ele>
        <time>2014-05-01T08:29:26.000Z</time>
      </trkpt>
      <trkpt lat="45.78662" lon="4.87319">
        <ele>172.19999694824</ele>
        <time>2014-05-01T08:29:32.000Z</time>
      </trkpt>
      <trkpt lat="45.78654" lon="4.87298">
        <ele>172.80000305176</ele>
        <time>2014-05-01T08:29:38.000Z</time>
      </trkpt>
      <trkpt lat="45.78646" lon="4.87277">
        <ele>173.19999694824</ele>
        <time>2014-05-01T08:29:44.000Z</time>
      </trkpt>
      <trkpt lat="45.78639" lon="4.87259">
        <ele>173.39999389648</ele>
        <time>2014-05-01T08:29:49.000Z</time>
      </trkpt>
      <trkpt lat="45.78636" lon="4.87238">
        <ele>173.60000610352</ele>
        <time>2014-05-01T08:29:54.000Z</time>
      </trkpt>
      <trkpt lat="45.78633" lon="4.87217">
        <ele>174</ele>
        <time>2014-05-01T08:29:59.000Z</time>
      </trkpt>
      <trkpt lat="45.78631" lon="4.87214">
        <ele>174.19999694824</ele>
        <time>2014-05-01T08:30:00.000Z</time>
      </trkpt>
      <trkpt lat="45.78629" lon="4.87206">
        <ele>174.39999389648</ele>
        <time>2014-05-01T08:30:02.000Z</time>
      </trkpt>
      <trkpt lat="45.78628" lon="4.87188">
        <ele>174.60000610352</ele>
        <time>2014-05-01T08:30:07.000Z</time>
      </trkpt>
      <trkpt lat="45.78627" lon="4.87184">
        <ele>174.80000305176</ele>
        <time>2014-05-01T08:30:08.000Z</time>
      </trkpt>
      <trkpt lat="45.78626" lon="4.87171">
        <ele>175.19999694824</ele>
        <time>2014-05-01T08:30:12.000Z</time>
      </trkpt>
      <trkpt lat="45.78621" lon="4.87152">
        <ele>175.80000305176</ele>
        <time>2014-05-01T08:30:17.000Z</time>
      </trkpt>
      <trkpt lat="45.78617" lon="4.87133">
        <ele>176.19999694824</ele>
        <time>2014-05-01T08:30:22.000Z</time>
      </trkpt>
      <trkpt lat="45.78615" lon="4.87115">
        <ele>176.19999694824</ele>
        <time>2014-05-01T08:30:27.000Z</time>
      </trkpt>
      <trkpt lat="45.78611" lon="4.87096">
        <ele>175.39999389648</ele>
        <time>2014-05-01T08:30:32.000Z</time>
      </trkpt>
      <trkpt lat="45.78605" lon="4.8706">
        <ele>175.19999694824</ele>
        <time>2014-05-01T08:30:41.000Z</time>
      </trkpt>
      <trkpt lat="45.786" lon="4.87023">
        <ele>175.19999694824</ele>
        <time>2014-05-01T08:30:51.000Z</time>
      </trkpt>
      <trkpt lat="45.78598" lon="4.87007">
        <ele>175.39999389648</ele>
        <time>2014-05-01T08:30:55.000Z</time>
      </trkpt>
      <trkpt lat="45.78595" lon="4.86987">
        <ele>175.39999389648</ele>
        <time>2014-05-01T08:31:01.000Z</time>
      </trkpt>
      <trkpt lat="45.78592" lon="4.86966">
        <ele>175.19999694824</ele>
        <time>2014-05-01T08:31:06.000Z</time>
      </trkpt>
      <trkpt lat="45.78587" lon="4.86943">
        <ele>175.19999694824</ele>
        <time>2014-05-01T08:31:12.000Z</time>
      </trkpt>
      <trkpt lat="45.78583" lon="4.86928">
        <ele>175.39999389648</ele>
        <time>2014-05-01T08:31:16.000Z</time>
      </trkpt>
      <trkpt lat="45.7858" lon="4.8691">
        <ele>175.60000610352</ele>
        <time>2014-05-01T08:31:20.000Z</time>
      </trkpt>
      <trkpt lat="45.78578" lon="4.86899">
        <ele>175.60000610352</ele>
        <time>2014-05-01T08:31:23.000Z</time>
      </trkpt>
      <trkpt lat="45.78576" lon="4.86891">
        <ele>175.60000610352</ele>
        <time>2014-05-01T08:31:25.000Z</time>
      </trkpt>
      <trkpt lat="45.78571" lon="4.86868">
        <ele>175.19999694824</ele>
        <time>2014-05-01T08:31:31.000Z</time>
      </trkpt>
      <trkpt lat="45.78569" lon="4.86844">
        <ele>174.39999389648</ele>
        <time>2014-05-01T08:31:37.000Z</time>
      </trkpt>
      <trkpt lat="45.78567" lon="4.86824">
        <ele>173.80000305176</ele>
        <time>2014-05-01T08:31:42.000Z</time>
      </trkpt>
      <trkpt lat="45.78564" lon="4.86803">
        <ele>173.19999694824</ele>
        <time>2014-05-01T08:31:47.000Z</time>
      </trkpt>
      <trkpt lat="45.78561" lon="4.86781">
        <ele>173</ele>
        <time>2014-05-01T08:31:52.000Z</time>
      </trkpt>
      <trkpt lat="45.78558" lon="4.8676">
        <ele>174</ele>
        <time>2014-05-01T08:31:57.000Z</time>
      </trkpt>
      <trkpt lat="45.78556" lon="4.86739">
        <ele>174.80000305176</ele>
        <time>2014-05-01T08:32:02.000Z</time>
      </trkpt>
      <trkpt lat="45.78555" lon="4.86734">
        <ele>175</ele>
        <time>2014-05-01T08:32:03.000Z</time>
      </trkpt>
      <trkpt lat="45.78552" lon="4.8671">
        <ele>175.80000305176</ele>
        <time>2014-05-01T08:32:09.000Z</time>
      </trkpt>
      <trkpt lat="45.78547" lon="4.86686">
        <ele>175.39999389648</ele>
        <time>2014-05-01T08:32:15.000Z</time>
      </trkpt>
      <trkpt lat="45.78547" lon="4.86676">
        <ele>175.19999694824</ele>
        <time>2014-05-01T08:32:17.000Z</time>
      </trkpt>
      <trkpt lat="45.78542" lon="4.86647">
        <ele>174.39999389648</ele>
        <time>2014-05-01T08:32:25.000Z</time>
      </trkpt>
      <trkpt lat="45.7854" lon="4.8663">
        <ele>174</ele>
        <time>2014-05-01T08:32:29.000Z</time>
      </trkpt>
      <trkpt lat="45.78538" lon="4.86612">
        <ele>173.80000305176</ele>
        <time>2014-05-01T08:32:34.000Z</time>
      </trkpt>
      <trkpt lat="45.78535" lon="4.86584">
        <ele>173</ele>
        <time>2014-05-01T08:32:40.000Z</time>
      </trkpt>
      <trkpt lat="45.78531" lon="4.86561">
        <ele>172.39999389648</ele>
        <time>2014-05-01T08:32:46.000Z</time>
      </trkpt>
      <trkpt lat="45.78526" lon="4.86538">
        <ele>171.60000610352</ele>
        <time>2014-05-01T08:32:52.000Z</time>
      </trkpt>
      <trkpt lat="45.78522" lon="4.86511">
        <ele>172.19999694824</ele>
        <time>2014-05-01T08:32:58.000Z</time>
      </trkpt>
      <trkpt lat="45.78522" lon="4.86485">
        <ele>171.60000610352</ele>
        <time>2014-05-01T08:33:04.000Z</time>
      </trkpt>
      <trkpt lat="45.78529" lon="4.86464">
        <ele>170.80000305176</ele>
        <time>2014-05-01T08:33:09.000Z</time>
      </trkpt>
      <trkpt lat="45.78539" lon="4.86444">
        <ele>170</ele>
        <time>2014-05-01T08:33:15.000Z</time>
      </trkpt>
      <trkpt lat="45.78552" lon="4.86425">
        <ele>168.80000305176</ele>
        <time>2014-05-01T08:33:21.000Z</time>
      </trkpt>
      <trkpt lat="45.78562" lon="4.86404">
        <ele>168.19999694824</ele>
        <time>2014-05-01T08:33:27.000Z</time>
      </trkpt>
      <trkpt lat="45.78568" lon="4.86384">
        <ele>167.60000610352</ele>
        <time>2014-05-01T08:33:32.000Z</time>
      </trkpt>
      <trkpt lat="45.7857" lon="4.86363">
        <ele>167.60000610352</ele>
        <time>2014-05-01T08:33:37.000Z</time>
      </trkpt>
      <trkpt lat="45.78568" lon="4.86346">
        <ele>167.39999389648</ele>
        <time>2014-05-01T08:33:41.000Z</time>
      </trkpt>
      <trkpt lat="45.7857" lon="4.86327">
        <ele>167</ele>
        <time>2014-05-01T08:33:46.000Z</time>
      </trkpt>
      <trkpt lat="45.78578" lon="4.86308">
        <ele>166.80000305176</ele>
        <time>2014-05-01T08:33:51.000Z</time>
      </trkpt>
      <trkpt lat="45.78586" lon="4.86285">
        <ele>166.60000610352</ele>
        <time>2014-05-01T08:33:57.000Z</time>
      </trkpt>
      <trkpt lat="45.78592" lon="4.8626">
        <ele>165.80000305176</ele>
        <time>2014-05-01T08:34:03.000Z</time>
      </trkpt>
      <trkpt lat="45.78595" lon="4.86239">
        <ele>165.39999389648</ele>
        <time>2014-05-01T08:34:08.000Z</time>
      </trkpt>
      <trkpt lat="45.78598" lon="4.86215">
        <ele>165.60000610352</ele>
        <time>2014-05-01T08:34:14.000Z</time>
      </trkpt>
      <trkpt lat="45.786" lon="4.86189">
        <ele>166.19999694824</ele>
        <time>2014-05-01T08:34:20.000Z</time>
      </trkpt>
      <trkpt lat="45.78602" lon="4.86167">
        <ele>166.80000305176</ele>
        <time>2014-05-01T08:34:25.000Z</time>
      </trkpt>
      <trkpt lat="45.78604" lon="4.86146">
        <ele>166.80000305176</ele>
        <time>2014-05-01T08:34:30.000Z</time>
      </trkpt>
      <trkpt lat="45.78607" lon="4.86126">
        <ele>166.80000305176</ele>
        <time>2014-05-01T08:34:35.000Z</time>
      </trkpt>
      <trkpt lat="45.7861" lon="4.86098">
        <ele>168.39999389648</ele>
        <time>2014-05-01T08:34:42.000Z</time>
      </trkpt>
      <trkpt lat="45.78611" lon="4.86077">
        <ele>168.60000610352</ele>
        <time>2014-05-01T08:34:47.000Z</time>
      </trkpt>
      <trkpt lat="45.78612" lon="4.86053">
        <ele>168.39999389648</ele>
        <time>2014-05-01T08:34:53.000Z</time>
      </trkpt>
      <trkpt lat="45.78614" lon="4.86032">
        <ele>168</ele>
        <time>2014-05-01T08:34:58.000Z</time>
      </trkpt>
      <trkpt lat="45.78615" lon="4.86016">
        <ele>167.39999389648</ele>
        <time>2014-05-01T08:35:02.000Z</time>
      </trkpt>
      <trkpt lat="45.78616" lon="4.85998">
        <ele>167.39999389648</ele>
        <time>2014-05-01T08:35:06.000Z</time>
      </trkpt>
      <trkpt lat="45.78615" lon="4.85988">
        <ele>167.39999389648</ele>
        <time>2014-05-01T08:35:10.000Z</time>
      </trkpt>
      <trkpt lat="45.78617" lon="4.85983">
        <ele>167.19999694824</ele>
        <time>2014-05-01T08:35:11.000Z</time>
      </trkpt>
      <trkpt lat="45.78628" lon="4.85951">
        <ele>166.39999389648</ele>
        <time>2014-05-01T08:35:17.000Z</time>
      </trkpt>
      <trkpt lat="45.78631" lon="4.85925">
        <ele>166.19999694824</ele>
        <time>2014-05-01T08:35:23.000Z</time>
      </trkpt>
      <trkpt lat="45.78632" lon="4.859">
        <ele>166.19999694824</ele>
        <time>2014-05-01T08:35:29.000Z</time>
      </trkpt>
      <trkpt lat="45.78632" lon="4.85875">
        <ele>166.19999694824</ele>
        <time>2014-05-01T08:35:35.000Z</time>
      </trkpt>
      <trkpt lat="45.78632" lon="4.85846">
        <ele>166.19999694824</ele>
        <time>2014-05-01T08:35:42.000Z</time>
      </trkpt>
      <trkpt lat="45.78633" lon="4.85825">
        <ele>166.19999694824</ele>
        <time>2014-05-01T08:35:47.000Z</time>
      </trkpt>
      <trkpt lat="45.78633" lon="4.85798">
        <ele>166.19999694824</ele>
        <time>2014-05-01T08:35:53.000Z</time>
      </trkpt>
      <trkpt lat="45.78634" lon="4.85773">
        <ele>166.19999694824</ele>
        <time>2014-05-01T08:35:59.000Z</time>
      </trkpt>
      <trkpt lat="45.78634" lon="4.85744">
        <ele>166.19999694824</ele>
        <time>2014-05-01T08:36:06.000Z</time>
      </trkpt>
      <trkpt lat="45.78633" lon="4.85724">
        <ele>166.19999694824</ele>
        <time>2014-05-01T08:36:11.000Z</time>
      </trkpt>
      <trkpt lat="45.78634" lon="4.85708">
        <ele>166.19999694824</ele>
        <time>2014-05-01T08:36:15.000Z</time>
      </trkpt>
      <trkpt lat="45.78633" lon="4.85688">
        <ele>166.19999694824</ele>
        <time>2014-05-01T08:36:20.000Z</time>
      </trkpt>
      <trkpt lat="45.78631" lon="4.85664">
        <ele>166.19999694824</ele>
        <time>2014-05-01T08:36:26.000Z</time>
      </trkpt>
      <trkpt lat="45.78631" lon="4.85657">
        <ele>166.19999694824</ele>
        <time>2014-05-01T08:36:28.000Z</time>
      </trkpt>
      <trkpt lat="45.7863" lon="4.85613">
        <ele>166.39999389648</ele>
        <time>2014-05-01T08:36:39.000Z</time>
      </trkpt>
      <trkpt lat="45.78628" lon="4.85591">
        <ele>166.39999389648</ele>
        <time>2014-05-01T08:36:45.000Z</time>
      </trkpt>
      <trkpt lat="45.78625" lon="4.85569">
        <ele>166.39999389648</ele>
        <time>2014-05-01T08:36:51.000Z</time>
      </trkpt>
      <trkpt lat="45.78622" lon="4.85547">
        <ele>166.60000610352</ele>
        <time>2014-05-01T08:36:57.000Z</time>
      </trkpt>
      <trkpt lat="45.78619" lon="4.85528">
        <ele>166.39999389648</ele>
        <time>2014-05-01T08:37:02.000Z</time>
      </trkpt>
      <trkpt lat="45.78615" lon="4.85506">
        <ele>166.19999694824</ele>
        <time>2014-05-01T08:37:08.000Z</time>
      </trkpt>
      <trkpt lat="45.78611" lon="4.85487">
        <ele>166.39999389648</ele>
        <time>2014-05-01T08:37:13.000Z</time>
      </trkpt>
      <trkpt lat="45.78608" lon="4.85471">
        <ele>166.39999389648</ele>
        <time>2014-05-01T08:37:18.000Z</time>
      </trkpt>
      <trkpt lat="45.78606" lon="4.85456">
        <ele>166.39999389648</ele>
        <time>2014-05-01T08:37:22.000Z</time>
      </trkpt>
      <trkpt lat="45.78603" lon="4.85429">
        <ele>166</ele>
        <time>2014-05-01T08:37:29.000Z</time>
      </trkpt>
      <trkpt lat="45.78598" lon="4.85406">
        <ele>166</ele>
        <time>2014-05-01T08:37:35.000Z</time>
      </trkpt>
      <trkpt lat="45.78592" lon="4.85383">
        <ele>166</ele>
        <time>2014-05-01T08:37:42.000Z</time>
      </trkpt>
      <trkpt lat="45.78587" lon="4.85361">
        <ele>166</ele>
        <time>2014-05-01T08:37:48.000Z</time>
      </trkpt>
      <trkpt lat="45.78583" lon="4.85342">
        <ele>166</ele>
        <time>2014-05-01T08:37:54.000Z</time>
      </trkpt>
      <trkpt lat="45.78576" lon="4.8532">
        <ele>166</ele>
        <time>2014-05-01T08:37:59.000Z</time>
      </trkpt>
      <trkpt lat="45.78569" lon="4.85298">
        <ele>166</ele>
        <time>2014-05-01T08:38:05.000Z</time>
      </trkpt>
      <trkpt lat="45.78562" lon="4.85276">
        <ele>166</ele>
        <time>2014-05-01T08:38:11.000Z</time>
      </trkpt>
      <trkpt lat="45.78557" lon="4.85261">
        <ele>166</ele>
        <time>2014-05-01T08:38:15.000Z</time>
      </trkpt>
      <trkpt lat="45.78552" lon="4.85242">
        <ele>166.19999694824</ele>
        <time>2014-05-01T08:38:20.000Z</time>
      </trkpt>
      <trkpt lat="45.78543" lon="4.85218">
        <ele>166.60000610352</ele>
        <time>2014-05-01T08:38:27.000Z</time>
      </trkpt>
      <trkpt lat="45.78536" lon="4.85194">
        <ele>166.39999389648</ele>
        <time>2014-05-01T08:38:34.000Z</time>
      </trkpt>
      <trkpt lat="45.78529" lon="4.85175">
        <ele>166</ele>
        <time>2014-05-01T08:38:40.000Z</time>
      </trkpt>
      <trkpt lat="45.78521" lon="4.85155">
        <ele>166</ele>
        <time>2014-05-01T08:38:46.000Z</time>
      </trkpt>
      <trkpt lat="45.78513" lon="4.85137">
        <ele>166</ele>
        <time>2014-05-01T08:38:51.000Z</time>
      </trkpt>
      <trkpt lat="45.78508" lon="4.85122">
        <ele>166</ele>
        <time>2014-05-01T08:38:55.000Z</time>
      </trkpt>
      <trkpt lat="45.78501" lon="4.85105">
        <ele>166</ele>
        <time>2014-05-01T08:39:00.000Z</time>
      </trkpt>
      <trkpt lat="45.78493" lon="4.85088">
        <ele>166</ele>
        <time>2014-05-01T08:39:05.000Z</time>
      </trkpt>
      <trkpt lat="45.78487" lon="4.85072">
        <ele>166</ele>
        <time>2014-05-01T08:39:10.000Z</time>
      </trkpt>
      <trkpt lat="45.78478" lon="4.85053">
        <ele>166</ele>
        <time>2014-05-01T08:39:16.000Z</time>
      </trkpt>
      <trkpt lat="45.78469" lon="4.85029">
        <ele>166</ele>
        <time>2014-05-01T08:39:23.000Z</time>
      </trkpt>
      <trkpt lat="45.78462" lon="4.85016">
        <ele>166</ele>
        <time>2014-05-01T08:39:27.000Z</time>
      </trkpt>
      <trkpt lat="45.78454" lon="4.85">
        <ele>166</ele>
        <time>2014-05-01T08:39:32.000Z</time>
      </trkpt>
      <trkpt lat="45.78443" lon="4.8498">
        <ele>166</ele>
        <time>2014-05-01T08:39:39.000Z</time>
      </trkpt>
      <trkpt lat="45.78432" lon="4.84959">
        <ele>166</ele>
        <time>2014-05-01T08:39:45.000Z</time>
      </trkpt>
      <trkpt lat="45.78423" lon="4.84946">
        <ele>166</ele>
        <time>2014-05-01T08:39:50.000Z</time>
      </trkpt>
      <trkpt lat="45.78414" lon="4.8493">
        <ele>166</ele>
        <time>2014-05-01T08:39:55.000Z</time>
      </trkpt>
      <trkpt lat="45.78405" lon="4.84916">
        <ele>166</ele>
        <time>2014-05-01T08:40:00.000Z</time>
      </trkpt>
      <trkpt lat="45.78394" lon="4.84899">
        <ele>166</ele>
        <time>2014-05-01T08:40:06.000Z</time>
      </trkpt>
      <trkpt lat="45.78386" lon="4.84887">
        <ele>166</ele>
        <time>2014-05-01T08:40:10.000Z</time>
      </trkpt>
      <trkpt lat="45.78379" lon="4.84876">
        <ele>166.39999389648</ele>
        <time>2014-05-01T08:40:14.000Z</time>
      </trkpt>
      <trkpt lat="45.78372" lon="4.84865">
        <ele>166.60000610352</ele>
        <time>2014-05-01T08:40:18.000Z</time>
      </trkpt>
      <trkpt lat="45.78364" lon="4.84854">
        <ele>166.80000305176</ele>
        <time>2014-05-01T08:40:22.000Z</time>
      </trkpt>
      <trkpt lat="45.78355" lon="4.84841">
        <ele>166.80000305176</ele>
        <time>2014-05-01T08:40:27.000Z</time>
      </trkpt>
      <trkpt lat="45.78348" lon="4.84831">
        <ele>167</ele>
        <time>2014-05-01T08:40:31.000Z</time>
      </trkpt>
      <trkpt lat="45.78338" lon="4.84819">
        <ele>167.19999694824</ele>
        <time>2014-05-01T08:40:36.000Z</time>
      </trkpt>
      <trkpt lat="45.78323" lon="4.84799">
        <ele>167.60000610352</ele>
        <time>2014-05-01T08:40:44.000Z</time>
      </trkpt>
      <trkpt lat="45.78309" lon="4.84781">
        <ele>167.60000610352</ele>
        <time>2014-05-01T08:40:51.000Z</time>
      </trkpt>
      <trkpt lat="45.78299" lon="4.84768">
        <ele>167.19999694824</ele>
        <time>2014-05-01T08:40:56.000Z</time>
      </trkpt>
      <trkpt lat="45.78289" lon="4.84757">
        <ele>166.60000610352</ele>
        <time>2014-05-01T08:41:01.000Z</time>
      </trkpt>
      <trkpt lat="45.78281" lon="4.84747">
        <ele>166.19999694824</ele>
        <time>2014-05-01T08:41:05.000Z</time>
      </trkpt>
      <trkpt lat="45.78273" lon="4.84737">
        <ele>165.60000610352</ele>
        <time>2014-05-01T08:41:09.000Z</time>
      </trkpt>
      <trkpt lat="45.7826" lon="4.84725">
        <ele>164.80000305176</ele>
        <time>2014-05-01T08:41:15.000Z</time>
      </trkpt>
      <trkpt lat="45.78248" lon="4.84713">
        <ele>164.19999694824</ele>
        <time>2014-05-01T08:41:21.000Z</time>
      </trkpt>
      <trkpt lat="45.78237" lon="4.84705">
        <ele>163.60000610352</ele>
        <time>2014-05-01T08:41:26.000Z</time>
      </trkpt>
      <trkpt lat="45.78225" lon="4.84697">
        <ele>163.39999389648</ele>
        <time>2014-05-01T08:41:31.000Z</time>
      </trkpt>
      <trkpt lat="45.78215" lon="4.84688">
        <ele>163.60000610352</ele>
        <time>2014-05-01T08:41:36.000Z</time>
      </trkpt>
      <trkpt lat="45.78204" lon="4.8468">
        <ele>163.80000305176</ele>
        <time>2014-05-01T08:41:41.000Z</time>
      </trkpt>
      <trkpt lat="45.78193" lon="4.84674">
        <ele>163.80000305176</ele>
        <time>2014-05-01T08:41:46.000Z</time>
      </trkpt>
      <trkpt lat="45.78181" lon="4.84666">
        <ele>164</ele>
        <time>2014-05-01T08:41:51.000Z</time>
      </trkpt>
      <trkpt lat="45.78169" lon="4.84661">
        <ele>164.60000610352</ele>
        <time>2014-05-01T08:41:56.000Z</time>
      </trkpt>
      <trkpt lat="45.78156" lon="4.84652">
        <ele>165.19999694824</ele>
        <time>2014-05-01T08:42:01.000Z</time>
      </trkpt>
      <trkpt lat="45.78149" lon="4.84647">
        <ele>165.39999389648</ele>
        <time>2014-05-01T08:42:04.000Z</time>
      </trkpt>
      <trkpt lat="45.78147" lon="4.84645">
        <ele>165.39999389648</ele>
        <time>2014-05-01T08:42:05.000Z</time>
      </trkpt>
      <trkpt lat="45.78134" lon="4.84635">
        <ele>165.60000610352</ele>
        <time>2014-05-01T08:42:10.000Z</time>
      </trkpt>
      <trkpt lat="45.78126" lon="4.84626">
        <ele>165.39999389648</ele>
        <time>2014-05-01T08:42:14.000Z</time>
      </trkpt>
      <trkpt lat="45.78112" lon="4.84613">
        <ele>165.60000610352</ele>
        <time>2014-05-01T08:42:20.000Z</time>
      </trkpt>
      <trkpt lat="45.78102" lon="4.84604">
        <ele>165.80000305176</ele>
        <time>2014-05-01T08:42:25.000Z</time>
      </trkpt>
      <trkpt lat="45.78092" lon="4.84594">
        <ele>166.19999694824</ele>
        <time>2014-05-01T08:42:30.000Z</time>
      </trkpt>
      <trkpt lat="45.7808" lon="4.84583">
        <ele>166.60000610352</ele>
        <time>2014-05-01T08:42:35.000Z</time>
      </trkpt>
      <trkpt lat="45.78069" lon="4.84572">
        <ele>167</ele>
        <time>2014-05-01T08:42:41.000Z</time>
      </trkpt>
      <trkpt lat="45.78057" lon="4.84561">
        <ele>167.39999389648</ele>
        <time>2014-05-01T08:42:46.000Z</time>
      </trkpt>
      <trkpt lat="45.78044" lon="4.8455">
        <ele>167.19999694824</ele>
        <time>2014-05-01T08:42:52.000Z</time>
      </trkpt>
      <trkpt lat="45.78035" lon="4.84541">
        <ele>167</ele>
        <time>2014-05-01T08:42:56.000Z</time>
      </trkpt>
      <trkpt lat="45.78023" lon="4.84532">
        <ele>166.60000610352</ele>
        <time>2014-05-01T08:43:01.000Z</time>
      </trkpt>
      <trkpt lat="45.7801" lon="4.8452">
        <ele>166</ele>
        <time>2014-05-01T08:43:07.000Z</time>
      </trkpt>
      <trkpt lat="45.78008" lon="4.84517">
        <ele>166</ele>
        <time>2014-05-01T08:43:08.000Z</time>
      </trkpt>
      <trkpt lat="45.78" lon="4.84511">
        <ele>165.80000305176</ele>
        <time>2014-05-01T08:43:12.000Z</time>
      </trkpt>
      <trkpt lat="45.77987" lon="4.84502">
        <ele>165.19999694824</ele>
        <time>2014-05-01T08:43:17.000Z</time>
      </trkpt>
      <trkpt lat="45.77974" lon="4.84492">
        <ele>164.80000305176</ele>
        <time>2014-05-01T08:43:22.000Z</time>
      </trkpt>
      <trkpt lat="45.7796" lon="4.84481">
        <ele>165</ele>
        <time>2014-05-01T08:43:28.000Z</time>
      </trkpt>
      <trkpt lat="45.77948" lon="4.84472">
        <ele>165.39999389648</ele>
        <time>2014-05-01T08:43:33.000Z</time>
      </trkpt>
      <trkpt lat="45.77935" lon="4.84462">
        <ele>165.80000305176</ele>
        <time>2014-05-01T08:43:39.000Z</time>
      </trkpt>
      <trkpt lat="45.77922" lon="4.84454">
        <ele>166.19999694824</ele>
        <time>2014-05-01T08:43:44.000Z</time>
      </trkpt>
      <trkpt lat="45.77912" lon="4.84447">
        <ele>166.39999389648</ele>
        <time>2014-05-01T08:43:48.000Z</time>
      </trkpt>
      <trkpt lat="45.77902" lon="4.84442">
        <ele>166.39999389648</ele>
        <time>2014-05-01T08:43:52.000Z</time>
      </trkpt>
      <trkpt lat="45.77888" lon="4.84433">
        <ele>166.80000305176</ele>
        <time>2014-05-01T08:43:58.000Z</time>
      </trkpt>
      <trkpt lat="45.77886" lon="4.84432">
        <ele>166.80000305176</ele>
        <time>2014-05-01T08:43:59.000Z</time>
      </trkpt>
      <trkpt lat="45.77879" lon="4.84427">
        <ele>166.80000305176</ele>
        <time>2014-05-01T08:44:02.000Z</time>
      </trkpt>
      <trkpt lat="45.7787" lon="4.84422">
        <ele>166.80000305176</ele>
        <time>2014-05-01T08:44:06.000Z</time>
      </trkpt>
      <trkpt lat="45.77868" lon="4.84422">
        <ele>166.80000305176</ele>
        <time>2014-05-01T08:44:07.000Z</time>
      </trkpt>
      <trkpt lat="45.77853" lon="4.84415">
        <ele>167</ele>
        <time>2014-05-01T08:44:13.000Z</time>
      </trkpt>
      <trkpt lat="45.77845" lon="4.84407">
        <ele>167</ele>
        <time>2014-05-01T08:44:17.000Z</time>
      </trkpt>
      <trkpt lat="45.77836" lon="4.84398">
        <ele>167</ele>
        <time>2014-05-01T08:44:22.000Z</time>
      </trkpt>
      <trkpt lat="45.77832" lon="4.84394">
        <ele>167</ele>
        <time>2014-05-01T08:44:25.000Z</time>
      </trkpt>
      <trkpt lat="45.77826" lon="4.84385">
        <ele>166.80000305176</ele>
        <time>2014-05-01T08:44:31.000Z</time>
      </trkpt>
      <trkpt lat="45.77823" lon="4.84386">
        <ele>167</ele>
        <time>2014-05-01T08:44:34.000Z</time>
      </trkpt>
      <trkpt lat="45.77819" lon="4.84389">
        <ele>167</ele>
        <time>2014-05-01T08:44:36.000Z</time>
      </trkpt>
      <trkpt lat="45.77804" lon="4.84379">
        <ele>167</ele>
        <time>2014-05-01T08:44:41.000Z</time>
      </trkpt>
      <trkpt lat="45.77793" lon="4.84375">
        <ele>166.80000305176</ele>
        <time>2014-05-01T08:44:45.000Z</time>
      </trkpt>
      <trkpt lat="45.77775" lon="4.84375">
        <ele>166.60000610352</ele>
        <time>2014-05-01T08:44:50.000Z</time>
      </trkpt>
      <trkpt lat="45.77763" lon="4.84375">
        <ele>166.60000610352</ele>
        <time>2014-05-01T08:44:54.000Z</time>
      </trkpt>
      <trkpt lat="45.77752" lon="4.84376">
        <ele>166.39999389648</ele>
        <time>2014-05-01T08:44:58.000Z</time>
      </trkpt>
      <trkpt lat="45.77739" lon="4.84378">
        <ele>166.19999694824</ele>
        <time>2014-05-01T08:45:02.000Z</time>
      </trkpt>
      <trkpt lat="45.77726" lon="4.84381">
        <ele>166.19999694824</ele>
        <time>2014-05-01T08:45:06.000Z</time>
      </trkpt>
      <trkpt lat="45.77724" lon="4.84382">
        <ele>166.19999694824</ele>
        <time>2014-05-01T08:45:07.000Z</time>
      </trkpt>
      <trkpt lat="45.77707" lon="4.84379">
        <ele>166.60000610352</ele>
        <time>2014-05-01T08:45:13.000Z</time>
      </trkpt>
      <trkpt lat="45.77702" lon="4.84376">
        <ele>166.60000610352</ele>
        <time>2014-05-01T08:45:15.000Z</time>
      </trkpt>
      <trkpt lat="45.77687" lon="4.84366">
        <ele>166.60000610352</ele>
        <time>2014-05-01T08:45:21.000Z</time>
      </trkpt>
      <trkpt lat="45.77675" lon="4.8436">
        <ele>166.60000610352</ele>
        <time>2014-05-01T08:45:26.000Z</time>
      </trkpt>
      <trkpt lat="45.77653" lon="4.84347">
        <ele>166.39999389648</ele>
        <time>2014-05-01T08:45:35.000Z</time>
      </trkpt>
      <trkpt lat="45.7763" lon="4.84334">
        <ele>166.60000610352</ele>
        <time>2014-05-01T08:45:45.000Z</time>
      </trkpt>
      <trkpt lat="45.77622" lon="4.84329">
        <ele>166.80000305176</ele>
        <time>2014-05-01T08:45:48.000Z</time>
      </trkpt>
      <trkpt lat="45.77614" lon="4.84322">
        <ele>167</ele>
        <time>2014-05-01T08:45:52.000Z</time>
      </trkpt>
      <trkpt lat="45.77605" lon="4.84316">
        <ele>167.19999694824</ele>
        <time>2014-05-01T08:45:56.000Z</time>
      </trkpt>
      <trkpt lat="45.7759" lon="4.84305">
        <ele>167.60000610352</ele>
        <time>2014-05-01T08:46:02.000Z</time>
      </trkpt>
      <trkpt lat="45.77579" lon="4.84296">
        <ele>167.80000305176</ele>
        <time>2014-05-01T08:46:07.000Z</time>
      </trkpt>
      <trkpt lat="45.77566" lon="4.84287">
        <ele>168.19999694824</ele>
        <time>2014-05-01T08:46:13.000Z</time>
      </trkpt>
      <trkpt lat="45.77553" lon="4.84277">
        <ele>168.60000610352</ele>
        <time>2014-05-01T08:46:19.000Z</time>
      </trkpt>
      <trkpt lat="45.77548" lon="4.84273">
        <ele>168.60000610352</ele>
        <time>2014-05-01T08:46:21.000Z</time>
      </trkpt>
      <trkpt lat="45.77537" lon="4.84266">
        <ele>168.39999389648</ele>
        <time>2014-05-01T08:46:25.000Z</time>
      </trkpt>
      <trkpt lat="45.77533" lon="4.84262">
        <ele>168.39999389648</ele>
        <time>2014-05-01T08:46:27.000Z</time>
      </trkpt>
      <trkpt lat="45.77514" lon="4.84251">
        <ele>168</ele>
        <time>2014-05-01T08:46:34.000Z</time>
      </trkpt>
      <trkpt lat="45.77499" lon="4.84241">
        <ele>167.80000305176</ele>
        <time>2014-05-01T08:46:40.000Z</time>
      </trkpt>
      <trkpt lat="45.77487" lon="4.84233">
        <ele>167.60000610352</ele>
        <time>2014-05-01T08:46:45.000Z</time>
      </trkpt>
      <trkpt lat="45.7748" lon="4.84228">
        <ele>167.60000610352</ele>
        <time>2014-05-01T08:46:48.000Z</time>
      </trkpt>
      <trkpt lat="45.77469" lon="4.84219">
        <ele>167.39999389648</ele>
        <time>2014-05-01T08:46:53.000Z</time>
      </trkpt>
      <trkpt lat="45.77457" lon="4.84207">
        <ele>167.80000305176</ele>
        <time>2014-05-01T08:46:59.000Z</time>
      </trkpt>
      <trkpt lat="45.77448" lon="4.84202">
        <ele>167.80000305176</ele>
        <time>2014-05-01T08:47:03.000Z</time>
      </trkpt>
      <trkpt lat="45.77444" lon="4.84198">
        <ele>167.80000305176</ele>
        <time>2014-05-01T08:47:05.000Z</time>
      </trkpt>
      <trkpt lat="45.77435" lon="4.84193">
        <ele>168</ele>
        <time>2014-05-01T08:47:09.000Z</time>
      </trkpt>
      <trkpt lat="45.77422" lon="4.84182">
        <ele>168</ele>
        <time>2014-05-01T08:47:15.000Z</time>
      </trkpt>
      <trkpt lat="45.77411" lon="4.84175">
        <ele>168</ele>
        <time>2014-05-01T08:47:20.000Z</time>
      </trkpt>
      <trkpt lat="45.774" lon="4.84169">
        <ele>168.19999694824</ele>
        <time>2014-05-01T08:47:25.000Z</time>
      </trkpt>
      <trkpt lat="45.77389" lon="4.84163">
        <ele>168.39999389648</ele>
        <time>2014-05-01T08:47:30.000Z</time>
      </trkpt>
      <trkpt lat="45.77386" lon="4.84162">
        <ele>168.39999389648</ele>
        <time>2014-05-01T08:47:31.000Z</time>
      </trkpt>
      <trkpt lat="45.77377" lon="4.84154">
        <ele>167.80000305176</ele>
        <time>2014-05-01T08:47:36.000Z</time>
      </trkpt>
      <trkpt lat="45.77366" lon="4.84145">
        <ele>167.39999389648</ele>
        <time>2014-05-01T08:47:41.000Z</time>
      </trkpt>
      <trkpt lat="45.77355" lon="4.84138">
        <ele>167</ele>
        <time>2014-05-01T08:47:45.000Z</time>
      </trkpt>
      <trkpt lat="45.77345" lon="4.84132">
        <ele>166.60000610352</ele>
        <time>2014-05-01T08:47:49.000Z</time>
      </trkpt>
      <trkpt lat="45.77343" lon="4.84131">
        <ele>166.60000610352</ele>
        <time>2014-05-01T08:47:50.000Z</time>
      </trkpt>
      <trkpt lat="45.77331" lon="4.84121">
        <ele>166</ele>
        <time>2014-05-01T08:47:55.000Z</time>
      </trkpt>
      <trkpt lat="45.7732" lon="4.84112">
        <ele>166</ele>
        <time>2014-05-01T08:48:00.000Z</time>
      </trkpt>
      <trkpt lat="45.77312" lon="4.84105">
        <ele>166</ele>
        <time>2014-05-01T08:48:04.000Z</time>
      </trkpt>
      <trkpt lat="45.77301" lon="4.84097">
        <ele>166</ele>
        <time>2014-05-01T08:48:09.000Z</time>
      </trkpt>
      <trkpt lat="45.77284" lon="4.84089">
        <ele>166</ele>
        <time>2014-05-01T08:48:15.000Z</time>
      </trkpt>
      <trkpt lat="45.77272" lon="4.84085">
        <ele>166</ele>
        <time>2014-05-01T08:48:20.000Z</time>
      </trkpt>
      <trkpt lat="45.77264" lon="4.84082">
        <ele>166</ele>
        <time>2014-05-01T08:48:25.000Z</time>
      </trkpt>
      <trkpt lat="45.77258" lon="4.8408">
        <ele>166.19999694824</ele>
        <time>2014-05-01T08:48:31.000Z</time>
      </trkpt>
      <trkpt lat="45.77256" lon="4.84079">
        <ele>166.39999389648</ele>
        <time>2014-05-01T08:48:33.000Z</time>
      </trkpt>
      <trkpt lat="45.77252" lon="4.84082">
        <ele>166.80000305176</ele>
        <time>2014-05-01T08:48:39.000Z</time>
      </trkpt>
      <trkpt lat="45.77257" lon="4.84087">
        <ele>166.80000305176</ele>
        <time>2014-05-01T08:48:43.000Z</time>
      </trkpt>
      <trkpt lat="45.77271" lon="4.8409">
        <ele>166</ele>
        <time>2014-05-01T08:48:48.000Z</time>
      </trkpt>
      <trkpt lat="45.7729" lon="4.84097">
        <ele>166</ele>
        <time>2014-05-01T08:48:56.000Z</time>
      </trkpt>
      <trkpt lat="45.77305" lon="4.84105">
        <ele>166</ele>
        <time>2014-05-01T08:49:02.000Z</time>
      </trkpt>
      <trkpt lat="45.77318" lon="4.84111">
        <ele>166</ele>
        <time>2014-05-01T08:49:07.000Z</time>
      </trkpt>
      <trkpt lat="45.77329" lon="4.84118">
        <ele>166</ele>
        <time>2014-05-01T08:49:12.000Z</time>
      </trkpt>
      <trkpt lat="45.77338" lon="4.84124">
        <ele>166.19999694824</ele>
        <time>2014-05-01T08:49:16.000Z</time>
      </trkpt>
      <trkpt lat="45.7734" lon="4.84125">
        <ele>166.19999694824</ele>
        <time>2014-05-01T08:49:17.000Z</time>
      </trkpt>
      <trkpt lat="45.77336" lon="4.8413">
        <ele>166.39999389648</ele>
        <time>2014-05-01T08:49:21.000Z</time>
      </trkpt>
      <trkpt lat="45.77331" lon="4.84128">
        <ele>166.39999389648</ele>
        <time>2014-05-01T08:49:23.000Z</time>
      </trkpt>
      <trkpt lat="45.77307" lon="4.84119">
        <ele>166</ele>
        <time>2014-05-01T08:49:31.000Z</time>
      </trkpt>
      <trkpt lat="45.77288" lon="4.84115">
        <ele>166.80000305176</ele>
        <time>2014-05-01T08:49:38.000Z</time>
      </trkpt>
      <trkpt lat="45.77272" lon="4.84112">
        <ele>167.60000610352</ele>
        <time>2014-05-01T08:49:44.000Z</time>
      </trkpt>
      <trkpt lat="45.77252" lon="4.8411">
        <ele>168.80000305176</ele>
        <time>2014-05-01T08:49:51.000Z</time>
      </trkpt>
      <trkpt lat="45.77247" lon="4.84105">
        <ele>168.80000305176</ele>
        <time>2014-05-01T08:49:54.000Z</time>
      </trkpt>
      <trkpt lat="45.77245" lon="4.84083">
        <ele>167.60000610352</ele>
        <time>2014-05-01T08:49:59.000Z</time>
      </trkpt>
      <trkpt lat="45.77244" lon="4.84079">
        <ele>167.19999694824</ele>
        <time>2014-05-01T08:50:00.000Z</time>
      </trkpt>
      <trkpt lat="45.77245" lon="4.8405">
        <ele>166</ele>
        <time>2014-05-01T08:50:08.000Z</time>
      </trkpt>
      <trkpt lat="45.77246" lon="4.84033">
        <ele>166</ele>
        <time>2014-05-01T08:50:13.000Z</time>
      </trkpt>
      <trkpt lat="45.77247" lon="4.84015">
        <ele>166</ele>
        <time>2014-05-01T08:50:18.000Z</time>
      </trkpt>
      <trkpt lat="45.77249" lon="4.8399">
        <ele>166</ele>
        <time>2014-05-01T08:50:25.000Z</time>
      </trkpt>
      <trkpt lat="45.77252" lon="4.83965">
        <ele>166</ele>
        <time>2014-05-01T08:50:32.000Z</time>
      </trkpt>
      <trkpt lat="45.77253" lon="4.83949">
        <ele>166.39999389648</ele>
        <time>2014-05-01T08:50:36.000Z</time>
      </trkpt>
      <trkpt lat="45.77254" lon="4.83929">
        <ele>168</ele>
        <time>2014-05-01T08:50:41.000Z</time>
      </trkpt>
      <trkpt lat="45.77256" lon="4.8391">
        <ele>169.19999694824</ele>
        <time>2014-05-01T08:50:46.000Z</time>
      </trkpt>
      <trkpt lat="45.77258" lon="4.8389">
        <ele>171.19999694824</ele>
        <time>2014-05-01T08:50:51.000Z</time>
      </trkpt>
      <trkpt lat="45.77259" lon="4.8387">
        <ele>173</ele>
        <time>2014-05-01T08:50:56.000Z</time>
      </trkpt>
      <trkpt lat="45.77266" lon="4.83855">
        <ele>174.39999389648</ele>
        <time>2014-05-01T08:51:01.000Z</time>
      </trkpt>
      <trkpt lat="45.77271" lon="4.83847">
        <ele>175</ele>
        <time>2014-05-01T08:51:05.000Z</time>
      </trkpt>
      <trkpt lat="45.77273" lon="4.83826">
        <ele>177.60000610352</ele>
        <time>2014-05-01T08:51:11.000Z</time>
      </trkpt>
      <trkpt lat="45.77275" lon="4.83806">
        <ele>180.80000305176</ele>
        <time>2014-05-01T08:51:16.000Z</time>
      </trkpt>
      <trkpt lat="45.77277" lon="4.83786">
        <ele>184</ele>
        <time>2014-05-01T08:51:21.000Z</time>
      </trkpt>
      <trkpt lat="45.77278" lon="4.83766">
        <ele>187.80000305176</ele>
        <time>2014-05-01T08:51:26.000Z</time>
      </trkpt>
      <trkpt lat="45.77282" lon="4.83739">
        <ele>194</ele>
        <time>2014-05-01T08:51:33.000Z</time>
      </trkpt>
      <trkpt lat="45.77285" lon="4.83716">
        <ele>199.39999389648</ele>
        <time>2014-05-01T08:51:38.000Z</time>
      </trkpt>
      <trkpt lat="45.77289" lon="4.83691">
        <ele>205.80000305176</ele>
        <time>2014-05-01T08:51:45.000Z</time>
      </trkpt>
      <trkpt lat="45.77461" lon="4.81414">
        <ele>182</ele>
        <time>2014-05-01T09:01:08.000Z</time>
      </trkpt>
      <trkpt lat="45.77448" lon="4.81386">
        <ele>177.80000305176</ele>
        <time>2014-05-01T09:01:11.000Z</time>
      </trkpt>
      <trkpt lat="45.77451" lon="4.81384">
        <ele>177.60000610352</ele>
        <time>2014-05-01T09:01:13.000Z</time>
      </trkpt>
      <trkpt lat="45.7746" lon="4.81376">
        <ele>177</ele>
        <time>2014-05-01T09:01:18.000Z</time>
      </trkpt>
      <trkpt lat="45.77462" lon="4.81359">
        <ele>176.19999694824</ele>
        <time>2014-05-01T09:01:23.000Z</time>
      </trkpt>
      <trkpt lat="45.77465" lon="4.81333">
        <ele>175.39999389648</ele>
        <time>2014-05-01T09:01:30.000Z</time>
      </trkpt>
      <trkpt lat="45.77469" lon="4.81309">
        <ele>174.60000610352</ele>
        <time>2014-05-01T09:01:36.000Z</time>
      </trkpt>
      <trkpt lat="45.77472" lon="4.81285">
        <ele>174</ele>
        <time>2014-05-01T09:01:43.000Z</time>
      </trkpt>
      <trkpt lat="45.77474" lon="4.81263">
        <ele>174.60000610352</ele>
        <time>2014-05-01T09:01:49.000Z</time>
      </trkpt>
      <trkpt lat="45.77476" lon="4.81244">
        <ele>175.19999694824</ele>
        <time>2014-05-01T09:01:54.000Z</time>
      </trkpt>
      <trkpt lat="45.77477" lon="4.81221">
        <ele>175.80000305176</ele>
        <time>2014-05-01T09:02:00.000Z</time>
      </trkpt>
      <trkpt lat="45.77479" lon="4.81204">
        <ele>175.60000610352</ele>
        <time>2014-05-01T09:02:05.000Z</time>
      </trkpt>
      <trkpt lat="45.77481" lon="4.81179">
        <ele>173.80000305176</ele>
        <time>2014-05-01T09:02:12.000Z</time>
      </trkpt>
      <trkpt lat="45.77483" lon="4.81161">
        <ele>172.39999389648</ele>
        <time>2014-05-01T09:02:17.000Z</time>
      </trkpt>
      <trkpt lat="45.77483" lon="4.81153">
        <ele>171.80000305176</ele>
        <time>2014-05-01T09:02:21.000Z</time>
      </trkpt>
      <trkpt lat="45.77482" lon="4.8115">
        <ele>171.60000610352</ele>
        <time>2014-05-01T09:02:33.000Z</time>
      </trkpt>
      <trkpt lat="45.77484" lon="4.81134">
        <ele>170.39999389648</ele>
        <time>2014-05-01T09:02:38.000Z</time>
      </trkpt>
      <trkpt lat="45.77487" lon="4.81115">
        <ele>169.80000305176</ele>
        <time>2014-05-01T09:02:44.000Z</time>
      </trkpt>
      <trkpt lat="45.77489" lon="4.81097">
        <ele>168.80000305176</ele>
        <time>2014-05-01T09:02:50.000Z</time>
      </trkpt>
      <trkpt lat="45.7749" lon="4.81081">
        <ele>167.80000305176</ele>
        <time>2014-05-01T09:02:55.000Z</time>
      </trkpt>
      <trkpt lat="45.7749" lon="4.81063">
        <ele>166.80000305176</ele>
        <time>2014-05-01T09:03:01.000Z</time>
      </trkpt>
      <trkpt lat="45.77489" lon="4.81059">
        <ele>166.39999389648</ele>
        <time>2014-05-01T09:03:04.000Z</time>
      </trkpt>
      <trkpt lat="45.77487" lon="4.81054">
        <ele>166.19999694824</ele>
        <time>2014-05-01T09:03:06.000Z</time>
      </trkpt>
      <trkpt lat="45.77491" lon="4.81026">
        <ele>166.39999389648</ele>
        <time>2014-05-01T09:03:14.000Z</time>
      </trkpt>
      <trkpt lat="45.77493" lon="4.81011">
        <ele>166.60000610352</ele>
        <time>2014-05-01T09:03:18.000Z</time>
      </trkpt>
      <trkpt lat="45.77494" lon="4.80984">
        <ele>166.60000610352</ele>
        <time>2014-05-01T09:03:26.000Z</time>
      </trkpt>
      <trkpt lat="45.77496" lon="4.80959">
        <ele>165.19999694824</ele>
        <time>2014-05-01T09:03:33.000Z</time>
      </trkpt>
      <trkpt lat="45.77498" lon="4.80941">
        <ele>166</ele>
        <time>2014-05-01T09:03:38.000Z</time>
      </trkpt>
      <trkpt lat="45.775" lon="4.80912">
        <ele>168.19999694824</ele>
        <time>2014-05-01T09:03:46.000Z</time>
      </trkpt>
      <trkpt lat="45.77501" lon="4.80894">
        <ele>169.39999389648</ele>
        <time>2014-05-01T09:03:51.000Z</time>
      </trkpt>
      <trkpt lat="45.77504" lon="4.8087">
        <ele>171.19999694824</ele>
        <time>2014-05-01T09:03:58.000Z</time>
      </trkpt>
      <trkpt lat="45.77507" lon="4.80852">
        <ele>172</ele>
        <time>2014-05-01T09:04:03.000Z</time>
      </trkpt>
      <trkpt lat="45.77517" lon="4.80843">
        <ele>172.39999389648</ele>
        <time>2014-05-01T09:04:08.000Z</time>
      </trkpt>
      <trkpt lat="45.77528" lon="4.80838">
        <ele>172.39999389648</ele>
        <time>2014-05-01T09:04:13.000Z</time>
      </trkpt>
      <trkpt lat="45.77536" lon="4.80835">
        <ele>172.19999694824</ele>
        <time>2014-05-01T09:04:17.000Z</time>
      </trkpt>
      <trkpt lat="45.77548" lon="4.8083">
        <ele>171.80000305176</ele>
        <time>2014-05-01T09:04:22.000Z</time>
      </trkpt>
      <trkpt lat="45.7756" lon="4.80824">
        <ele>171.19999694824</ele>
        <time>2014-05-01T09:04:27.000Z</time>
      </trkpt>
      <trkpt lat="45.7757" lon="4.8082">
        <ele>170.60000610352</ele>
        <time>2014-05-01T09:04:31.000Z</time>
      </trkpt>
      <trkpt lat="45.77584" lon="4.80816">
        <ele>169.60000610352</ele>
        <time>2014-05-01T09:04:37.000Z</time>
      </trkpt>
      <trkpt lat="45.77591" lon="4.80814">
        <ele>169.80000305176</ele>
        <time>2014-05-01T09:04:40.000Z</time>
      </trkpt>
      <trkpt lat="45.77598" lon="4.80812">
        <ele>169.80000305176</ele>
        <time>2014-05-01T09:04:47.000Z</time>
      </trkpt>
      <trkpt lat="45.77606" lon="4.80809">
        <ele>170</ele>
        <time>2014-05-01T09:04:51.000Z</time>
      </trkpt>
      <trkpt lat="45.77616" lon="4.80807">
        <ele>170</ele>
        <time>2014-05-01T09:04:55.000Z</time>
      </trkpt>
      <trkpt lat="45.77634" lon="4.80803">
        <ele>170</ele>
        <time>2014-05-01T09:05:03.000Z</time>
      </trkpt>
      <trkpt lat="45.7765" lon="4.80799">
        <ele>170.19999694824</ele>
        <time>2014-05-01T09:05:08.000Z</time>
      </trkpt>
      <trkpt lat="45.77659" lon="4.80796">
        <ele>170.39999389648</ele>
        <time>2014-05-01T09:05:13.000Z</time>
      </trkpt>
      <trkpt lat="45.77672" lon="4.80792">
        <ele>170.80000305176</ele>
        <time>2014-05-01T09:05:18.000Z</time>
      </trkpt>
      <trkpt lat="45.77682" lon="4.80787">
        <ele>171</ele>
        <time>2014-05-01T09:05:23.000Z</time>
      </trkpt>
      <trkpt lat="45.77694" lon="4.80778">
        <ele>171.19999694824</ele>
        <time>2014-05-01T09:05:28.000Z</time>
      </trkpt>
      <trkpt lat="45.77699" lon="4.80761">
        <ele>171.19999694824</ele>
        <time>2014-05-01T09:05:32.000Z</time>
      </trkpt>
      <trkpt lat="45.77706" lon="4.80742">
        <ele>171.19999694824</ele>
        <time>2014-05-01T09:05:39.000Z</time>
      </trkpt>
      <trkpt lat="45.77706" lon="4.80723">
        <ele>171.19999694824</ele>
        <time>2014-05-01T09:05:46.000Z</time>
      </trkpt>
      <trkpt lat="45.77706" lon="4.80721">
        <ele>171.19999694824</ele>
        <time>2014-05-01T09:05:47.000Z</time>
      </trkpt>
      <trkpt lat="45.77702" lon="4.80707">
        <ele>171.19999694824</ele>
        <time>2014-05-01T09:05:51.000Z</time>
      </trkpt>
      <trkpt lat="45.77703" lon="4.80701">
        <ele>171.19999694824</ele>
        <time>2014-05-01T09:05:53.000Z</time>
      </trkpt>
      <trkpt lat="45.77713" lon="4.80693">
        <ele>171.19999694824</ele>
        <time>2014-05-01T09:05:58.000Z</time>
      </trkpt>
      <trkpt lat="45.77715" lon="4.80692">
        <ele>171.19999694824</ele>
        <time>2014-05-01T09:05:59.000Z</time>
      </trkpt>
      <trkpt lat="45.77724" lon="4.80681">
        <ele>171.39999389648</ele>
        <time>2014-05-01T09:06:04.000Z</time>
      </trkpt>
      <trkpt lat="45.77733" lon="4.8067">
        <ele>171.60000610352</ele>
        <time>2014-05-01T09:06:09.000Z</time>
      </trkpt>
      <trkpt lat="45.7774" lon="4.80662">
        <ele>171.80000305176</ele>
        <time>2014-05-01T09:06:13.000Z</time>
      </trkpt>
      <trkpt lat="45.77753" lon="4.80652">
        <ele>172</ele>
        <time>2014-05-01T09:06:19.000Z</time>
      </trkpt>
      <trkpt lat="45.77756" lon="4.80649">
        <ele>172</ele>
        <time>2014-05-01T09:06:20.000Z</time>
      </trkpt>
      <trkpt lat="45.77761" lon="4.80643">
        <ele>171.80000305176</ele>
        <time>2014-05-01T09:06:24.000Z</time>
      </trkpt>
      <trkpt lat="45.77762" lon="4.80641">
        <ele>171.80000305176</ele>
        <time>2014-05-01T09:06:25.000Z</time>
      </trkpt>
      <trkpt lat="45.7777" lon="4.80629">
        <ele>171.60000610352</ele>
        <time>2014-05-01T09:06:31.000Z</time>
      </trkpt>
      <trkpt lat="45.77777" lon="4.80616">
        <ele>171.39999389648</ele>
        <time>2014-05-01T09:06:35.000Z</time>
      </trkpt>
      <trkpt lat="45.77787" lon="4.80607">
        <ele>171.19999694824</ele>
        <time>2014-05-01T09:06:38.000Z</time>
      </trkpt>
      <trkpt lat="45.77791" lon="4.80603">
        <ele>171.19999694824</ele>
        <time>2014-05-01T09:06:41.000Z</time>
      </trkpt>
      <trkpt lat="45.77797" lon="4.80596">
        <ele>171.39999389648</ele>
        <time>2014-05-01T09:06:45.000Z</time>
      </trkpt>
      <trkpt lat="45.77804" lon="4.80589">
        <ele>171.39999389648</ele>
        <time>2014-05-01T09:06:48.000Z</time>
      </trkpt>
      <trkpt lat="45.77808" lon="4.80578">
        <ele>171.60000610352</ele>
        <time>2014-05-01T09:06:51.000Z</time>
      </trkpt>
      <trkpt lat="45.77806" lon="4.80567">
        <ele>171.60000610352</ele>
        <time>2014-05-01T09:06:55.000Z</time>
      </trkpt>
      <trkpt lat="45.77796" lon="4.80548">
        <ele>171.80000305176</ele>
        <time>2014-05-01T09:07:00.000Z</time>
      </trkpt>
      <trkpt lat="45.77794" lon="4.80545">
        <ele>172</ele>
        <time>2014-05-01T09:07:01.000Z</time>
      </trkpt>
      <trkpt lat="45.77786" lon="4.80524">
        <ele>172</ele>
        <time>2014-05-01T09:07:07.000Z</time>
      </trkpt>
      <trkpt lat="45.7778" lon="4.80508">
        <ele>172</ele>
        <time>2014-05-01T09:07:12.000Z</time>
      </trkpt>
      <trkpt lat="45.77771" lon="4.80493">
        <ele>172</ele>
        <time>2014-05-01T09:07:18.000Z</time>
      </trkpt>
      <trkpt lat="45.82798" lon="4.8129">
        <ele>412</ele>
        <time>2014-05-01T12:04:31.000Z</time>
      </trkpt>
      <trkpt lat="45.82767" lon="4.81378">
        <ele>413.39999389648</ele>
        <time>2014-05-01T12:05:02.000Z</time>
      </trkpt>
      <trkpt lat="45.8277" lon="4.81362">
        <ele>413</ele>
        <time>2014-05-01T12:05:13.000Z</time>
      </trkpt>
      <trkpt lat="45.82772" lon="4.81349">
        <ele>412</ele>
        <time>2014-05-01T12:05:18.000Z</time>
      </trkpt>
      <trkpt lat="45.82776" lon="4.81335">
        <ele>411.39999389648</ele>
        <time>2014-05-01T12:05:22.000Z</time>
      </trkpt>
      <trkpt lat="45.82779" lon="4.81323">
        <ele>411.60000610352</ele>
        <time>2014-05-01T12:05:26.000Z</time>
      </trkpt>
      <trkpt lat="45.82794" lon="4.81292">
        <ele>412</ele>
        <time>2014-05-01T12:05:35.000Z</time>
      </trkpt>
      <trkpt lat="45.82794" lon="4.81293">
        <ele>412</ele>
        <time>2014-05-01T12:05:36.000Z</time>
      </trkpt>
      <trkpt lat="45.82794" lon="4.813">
        <ele>411.79998779297</ele>
        <time>2014-05-01T12:05:42.000Z</time>
      </trkpt>
      <trkpt lat="45.82793" lon="4.81303">
        <ele>411.79998779297</ele>
        <time>2014-05-01T12:05:44.000Z</time>
      </trkpt>
      <trkpt lat="45.82792" lon="4.8131">
        <ele>411.79998779297</ele>
        <time>2014-05-01T12:05:57.000Z</time>
      </trkpt>
      <trkpt lat="45.82789" lon="4.8132">
        <ele>411.60000610352</ele>
        <time>2014-05-01T12:06:06.000Z</time>
      </trkpt>
      <trkpt lat="45.82787" lon="4.81331">
        <ele>411.39999389648</ele>
        <time>2014-05-01T12:06:14.000Z</time>
      </trkpt>
      <trkpt lat="45.82784" lon="4.81343">
        <ele>411.39999389648</ele>
        <time>2014-05-01T12:06:24.000Z</time>
      </trkpt>
      <trkpt lat="45.82783" lon="4.81347">
        <ele>411.39999389648</ele>
        <time>2014-05-01T12:06:27.000Z</time>
      </trkpt>
      <trkpt lat="45.82782" lon="4.81355">
        <ele>411.60000610352</ele>
        <time>2014-05-01T12:06:34.000Z</time>
      </trkpt>
      <trkpt lat="45.82779" lon="4.81361">
        <ele>412.20001220703</ele>
        <time>2014-05-01T12:06:40.000Z</time>
      </trkpt>
      <trkpt lat="45.82778" lon="4.81364">
        <ele>412.60000610352</ele>
        <time>2014-05-01T12:06:42.000Z</time>
      </trkpt>
      <trkpt lat="45.82774" lon="4.81372">
        <ele>413.20001220703</ele>
        <time>2014-05-01T12:06:50.000Z</time>
      </trkpt>
      <trkpt lat="45.82771" lon="4.81378">
        <ele>413</ele>
        <time>2014-05-01T12:06:55.000Z</time>
      </trkpt>
      <trkpt lat="45.8277" lon="4.81388">
        <ele>412.20001220703</ele>
        <time>2014-05-01T12:07:02.000Z</time>
      </trkpt>
      <trkpt lat="45.8277" lon="4.81395">
        <ele>411.60000610352</ele>
        <time>2014-05-01T12:07:07.000Z</time>
      </trkpt>
      <trkpt lat="45.8277" lon="4.81403">
        <ele>411</ele>
        <time>2014-05-01T12:07:14.000Z</time>
      </trkpt>
      <trkpt lat="45.82769" lon="4.81411">
        <ele>410.39999389648</ele>
        <time>2014-05-01T12:07:21.000Z</time>
      </trkpt>
      <trkpt lat="45.82769" lon="4.81412">
        <ele>410.20001220703</ele>
        <time>2014-05-01T12:07:22.000Z</time>
      </trkpt>
      <trkpt lat="45.82769" lon="4.81415">
        <ele>410</ele>
        <time>2014-05-01T12:07:24.000Z</time>
      </trkpt>
      <trkpt lat="45.82768" lon="4.81422">
        <ele>410</ele>
        <time>2014-05-01T12:07:30.000Z</time>
      </trkpt>
      <trkpt lat="45.82769" lon="4.81428">
        <ele>410.60000610352</ele>
        <time>2014-05-01T12:07:34.000Z</time>
      </trkpt>
      <trkpt lat="45.82767" lon="4.81435">
        <ele>411.60000610352</ele>
        <time>2014-05-01T12:07:42.000Z</time>
      </trkpt>
      <trkpt lat="45.82766" lon="4.81439">
        <ele>412.20001220703</ele>
        <time>2014-05-01T12:07:47.000Z</time>
      </trkpt>
      <trkpt lat="45.82762" lon="4.81442">
        <ele>413.20001220703</ele>
        <time>2014-05-01T12:07:52.000Z</time>
      </trkpt>
      <trkpt lat="45.82762" lon="4.81447">
        <ele>413.79998779297</ele>
        <time>2014-05-01T12:07:57.000Z</time>
      </trkpt>
      <trkpt lat="45.82762" lon="4.81452">
        <ele>414</ele>
        <time>2014-05-01T12:08:02.000Z</time>
      </trkpt>
      <trkpt lat="45.82762" lon="4.81456">
        <ele>414.39999389648</ele>
        <time>2014-05-01T12:08:07.000Z</time>
      </trkpt>
      <trkpt lat="45.8276" lon="4.81462">
        <ele>414.39999389648</ele>
        <time>2014-05-01T12:08:10.000Z</time>
      </trkpt>
      <trkpt lat="45.82759" lon="4.81469">
        <ele>414.20001220703</ele>
        <time>2014-05-01T12:08:16.000Z</time>
      </trkpt>
      <trkpt lat="45.82756" lon="4.81475">
        <ele>414.39999389648</ele>
        <time>2014-05-01T12:08:22.000Z</time>
      </trkpt>
      <trkpt lat="45.82756" lon="4.81477">
        <ele>414.39999389648</ele>
        <time>2014-05-01T12:08:24.000Z</time>
      </trkpt>
      <trkpt lat="45.82755" lon="4.81481">
        <ele>414.20001220703</ele>
        <time>2014-05-01T12:08:28.000Z</time>
      </trkpt>
      <trkpt lat="45.82753" lon="4.81486">
        <ele>414.39999389648</ele>
        <time>2014-05-01T12:08:35.000Z</time>
      </trkpt>
      <trkpt lat="45.82753" lon="4.8149">
        <ele>414.60000610352</ele>
        <time>2014-05-01T12:08:37.000Z</time>
      </trkpt>
      <trkpt lat="45.82752" lon="4.81498">
        <ele>416</ele>
        <time>2014-05-01T12:08:44.000Z</time>
      </trkpt>
      <trkpt lat="45.82751" lon="4.81499">
        <ele>416.20001220703</ele>
        <time>2014-05-01T12:08:45.000Z</time>
      </trkpt>
      <trkpt lat="45.82751" lon="4.815">
        <ele>416.39999389648</ele>
        <time>2014-05-01T12:08:47.000Z</time>
      </trkpt>
      <trkpt lat="45.82755" lon="4.81505">
        <ele>415</ele>
        <time>2014-05-01T12:08:56.000Z</time>
      </trkpt>
      <trkpt lat="45.82757" lon="4.81508">
        <ele>414.79998779297</ele>
        <time>2014-05-01T12:09:03.000Z</time>
      </trkpt>
      <trkpt lat="45.82752" lon="4.8151">
        <ele>416.79998779297</ele>
        <time>2014-05-01T12:09:09.000Z</time>
      </trkpt>
      <trkpt lat="45.82751" lon="4.8151">
        <ele>417.39999389648</ele>
        <time>2014-05-01T12:09:10.000Z</time>
      </trkpt>
      <trkpt lat="45.8275" lon="4.81514">
        <ele>418</ele>
        <time>2014-05-01T12:09:16.000Z</time>
      </trkpt>
      <trkpt lat="45.82749" lon="4.81516">
        <ele>418.39999389648</ele>
        <time>2014-05-01T12:09:21.000Z</time>
      </trkpt>
      <trkpt lat="45.82747" lon="4.81519">
        <ele>419.39999389648</ele>
        <time>2014-05-01T12:09:28.000Z</time>
      </trkpt>
      <trkpt lat="45.82744" lon="4.81522">
        <ele>421</ele>
        <time>2014-05-01T12:09:36.000Z</time>
      </trkpt>
      <trkpt lat="45.82736" lon="4.81526">
        <ele>424.39999389648</ele>
        <time>2014-05-01T12:09:42.000Z</time>
      </trkpt>
      <trkpt lat="45.82727" lon="4.81533">
        <ele>428.79998779297</ele>
        <time>2014-05-01T12:09:49.000Z</time>
      </trkpt>
      <trkpt lat="45.82726" lon="4.81535">
        <ele>429.20001220703</ele>
        <time>2014-05-01T12:09:50.000Z</time>
      </trkpt>
      <trkpt lat="45.82727" lon="4.81543">
        <ele>429.39999389648</ele>
        <time>2014-05-01T12:09:56.000Z</time>
      </trkpt>
      <trkpt lat="45.82728" lon="4.81546">
        <ele>429.39999389648</ele>
        <time>2014-05-01T12:09:58.000Z</time>
      </trkpt>
      <trkpt lat="45.82727" lon="4.81549">
        <ele>430</ele>
        <time>2014-05-01T12:10:03.000Z</time>
      </trkpt>
      <trkpt lat="45.82722" lon="4.81555">
        <ele>432</ele>
        <time>2014-05-01T12:10:12.000Z</time>
      </trkpt>
      <trkpt lat="45.82721" lon="4.81561">
        <ele>432.39999389648</ele>
        <time>2014-05-01T12:10:19.000Z</time>
      </trkpt>
      <trkpt lat="45.82717" lon="4.81567">
        <ele>433</ele>
        <time>2014-05-01T12:10:34.000Z</time>
      </trkpt>
      <trkpt lat="45.82718" lon="4.8157">
        <ele>433.20001220703</ele>
        <time>2014-05-01T12:10:36.000Z</time>
      </trkpt>
      <trkpt lat="45.82714" lon="4.81574">
        <ele>433.60000610352</ele>
        <time>2014-05-01T12:10:40.000Z</time>
      </trkpt>
      <trkpt lat="45.8271" lon="4.8158">
        <ele>434.39999389648</ele>
        <time>2014-05-01T12:10:46.000Z</time>
      </trkpt>
      <trkpt lat="45.82709" lon="4.81581">
        <ele>434.39999389648</ele>
        <time>2014-05-01T12:10:47.000Z</time>
      </trkpt>
      <trkpt lat="45.82709" lon="4.81582">
        <ele>434.60000610352</ele>
        <time>2014-05-01T12:10:49.000Z</time>
      </trkpt>
      <trkpt lat="45.82708" lon="4.81584">
        <ele>434.79998779297</ele>
        <time>2014-05-01T12:10:52.000Z</time>
      </trkpt>
      <trkpt lat="45.82704" lon="4.81594">
        <ele>435.60000610352</ele>
        <time>2014-05-01T12:11:00.000Z</time>
      </trkpt>
      <trkpt lat="45.82703" lon="4.81598">
        <ele>436</ele>
        <time>2014-05-01T12:11:03.000Z</time>
      </trkpt>
      <trkpt lat="45.82703" lon="4.81604">
        <ele>436.39999389648</ele>
        <time>2014-05-01T12:11:13.000Z</time>
      </trkpt>
      <trkpt lat="45.82701" lon="4.8162">
        <ele>437.20001220703</ele>
        <time>2014-05-01T12:11:48.000Z</time>
      </trkpt>
      <trkpt lat="45.827" lon="4.81625">
        <ele>437.39999389648</ele>
        <time>2014-05-01T12:11:53.000Z</time>
      </trkpt>
      <trkpt lat="45.82698" lon="4.81628">
        <ele>437.60000610352</ele>
        <time>2014-05-01T12:11:59.000Z</time>
      </trkpt>
      <trkpt lat="45.82696" lon="4.81634">
        <ele>437.79998779297</ele>
        <time>2014-05-01T12:12:05.000Z</time>
      </trkpt>
      <trkpt lat="45.82695" lon="4.81639">
        <ele>437.79998779297</ele>
        <time>2014-05-01T12:12:12.000Z</time>
      </trkpt>
      <trkpt lat="45.82692" lon="4.81648">
        <ele>438.20001220703</ele>
        <time>2014-05-01T12:12:28.000Z</time>
      </trkpt>
      <trkpt lat="45.82691" lon="4.81652">
        <ele>438.20001220703</ele>
        <time>2014-05-01T12:12:32.000Z</time>
      </trkpt>
      <trkpt lat="45.82689" lon="4.81655">
        <ele>438.39999389648</ele>
        <time>2014-05-01T12:12:35.000Z</time>
      </trkpt>
      <trkpt lat="45.82689" lon="4.81665">
        <ele>438.60000610352</ele>
        <time>2014-05-01T12:12:44.000Z</time>
      </trkpt>
      <trkpt lat="45.82688" lon="4.81674">
        <ele>438.60000610352</ele>
        <time>2014-05-01T12:12:51.000Z</time>
      </trkpt>
      <trkpt lat="45.82688" lon="4.81678">
        <ele>438.60000610352</ele>
        <time>2014-05-01T12:12:53.000Z</time>
      </trkpt>
      <trkpt lat="45.82687" lon="4.81689">
        <ele>439</ele>
        <time>2014-05-01T12:13:01.000Z</time>
      </trkpt>
      <trkpt lat="45.82686" lon="4.81697">
        <ele>439</ele>
        <time>2014-05-01T12:13:07.000Z</time>
      </trkpt>
      <trkpt lat="45.82685" lon="4.81705">
        <ele>439.20001220703</ele>
        <time>2014-05-01T12:13:14.000Z</time>
      </trkpt>
      <trkpt lat="45.82685" lon="4.81706">
        <ele>439.20001220703</ele>
        <time>2014-05-01T12:13:15.000Z</time>
      </trkpt>
      <trkpt lat="45.82685" lon="4.81707">
        <ele>439.20001220703</ele>
        <time>2014-05-01T12:13:16.000Z</time>
      </trkpt>
      <trkpt lat="45.82685" lon="4.81712">
        <ele>439.39999389648</ele>
        <time>2014-05-01T12:13:21.000Z</time>
      </trkpt>
      <trkpt lat="45.82685" lon="4.81715">
        <ele>439.39999389648</ele>
        <time>2014-05-01T12:13:27.000Z</time>
      </trkpt>
      <trkpt lat="45.82687" lon="4.81719">
        <ele>439.39999389648</ele>
        <time>2014-05-01T12:13:47.000Z</time>
      </trkpt>
      <trkpt lat="45.82687" lon="4.81723">
        <ele>439.60000610352</ele>
        <time>2014-05-01T12:14:04.000Z</time>
      </trkpt>
      <trkpt lat="45.82685" lon="4.81723">
        <ele>439.60000610352</ele>
        <time>2014-05-01T12:14:11.000Z</time>
      </trkpt>
      <trkpt lat="45.82685" lon="4.8173">
        <ele>439.79998779297</ele>
        <time>2014-05-01T12:14:26.000Z</time>
      </trkpt>
      <trkpt lat="45.82684" lon="4.81737">
        <ele>440</ele>
        <time>2014-05-01T12:14:32.000Z</time>
      </trkpt>
      <trkpt lat="45.82683" lon="4.81746">
        <ele>440.39999389648</ele>
        <time>2014-05-01T12:14:41.000Z</time>
      </trkpt>
      <trkpt lat="45.82682" lon="4.81753">
        <ele>440.60000610352</ele>
        <time>2014-05-01T12:14:46.000Z</time>
      </trkpt>
      <trkpt lat="45.82681" lon="4.81757">
        <ele>441</ele>
        <time>2014-05-01T12:14:49.000Z</time>
      </trkpt>
      <trkpt lat="45.82681" lon="4.8176">
        <ele>441</ele>
        <time>2014-05-01T12:14:58.000Z</time>
      </trkpt>
      <trkpt lat="45.8268" lon="4.81766">
        <ele>441.39999389648</ele>
        <time>2014-05-01T12:15:04.000Z</time>
      </trkpt>
      <trkpt lat="45.82679" lon="4.81772">
        <ele>441.79998779297</ele>
        <time>2014-05-01T12:15:11.000Z</time>
      </trkpt>
      <trkpt lat="45.82678" lon="4.81776">
        <ele>442.20001220703</ele>
        <time>2014-05-01T12:15:16.000Z</time>
      </trkpt>
      <trkpt lat="45.82676" lon="4.81784">
        <ele>442.60000610352</ele>
        <time>2014-05-01T12:15:26.000Z</time>
      </trkpt>
      <trkpt lat="45.82675" lon="4.81791">
        <ele>443</ele>
        <time>2014-05-01T12:15:33.000Z</time>
      </trkpt>
      <trkpt lat="45.82675" lon="4.81794">
        <ele>443</ele>
        <time>2014-05-01T12:15:40.000Z</time>
      </trkpt>
      <trkpt lat="45.82674" lon="4.81798">
        <ele>443</ele>
        <time>2014-05-01T12:15:43.000Z</time>
      </trkpt>
      <trkpt lat="45.82674" lon="4.81804">
        <ele>443</ele>
        <time>2014-05-01T12:15:47.000Z</time>
      </trkpt>
      <trkpt lat="45.82673" lon="4.8181">
        <ele>443.20001220703</ele>
        <time>2014-05-01T12:15:52.000Z</time>
      </trkpt>
      <trkpt lat="45.82672" lon="4.81817">
        <ele>443.20001220703</ele>
        <time>2014-05-01T12:15:57.000Z</time>
      </trkpt>
      <trkpt lat="45.82671" lon="4.81819">
        <ele>443.20001220703</ele>
        <time>2014-05-01T12:15:59.000Z</time>
      </trkpt>
      <trkpt lat="45.82668" lon="4.81833">
        <ele>444.39999389648</ele>
        <time>2014-05-01T12:16:12.000Z</time>
      </trkpt>
      <trkpt lat="45.82667" lon="4.81837">
        <ele>444.79998779297</ele>
        <time>2014-05-01T12:16:20.000Z</time>
      </trkpt>
      <trkpt lat="45.82664" lon="4.81846">
        <ele>446</ele>
        <time>2014-05-01T12:16:44.000Z</time>
      </trkpt>
      <trkpt lat="45.82662" lon="4.8185">
        <ele>446.39999389648</ele>
        <time>2014-05-01T12:16:46.000Z</time>
      </trkpt>
      <trkpt lat="45.82658" lon="4.81858">
        <ele>447.39999389648</ele>
        <time>2014-05-01T12:16:54.000Z</time>
      </trkpt>
      <trkpt lat="45.82658" lon="4.8186">
        <ele>447.60000610352</ele>
        <time>2014-05-01T12:16:55.000Z</time>
      </trkpt>
      <trkpt lat="45.82655" lon="4.81869">
        <ele>448.39999389648</ele>
        <time>2014-05-01T12:17:02.000Z</time>
      </trkpt>
      <trkpt lat="45.82653" lon="4.81875">
        <ele>449</ele>
        <time>2014-05-01T12:17:07.000Z</time>
      </trkpt>
      <trkpt lat="45.82652" lon="4.81878">
        <ele>449.20001220703</ele>
        <time>2014-05-01T12:17:10.000Z</time>
      </trkpt>
      <trkpt lat="45.82652" lon="4.81881">
        <ele>449.20001220703</ele>
        <time>2014-05-01T12:17:12.000Z</time>
      </trkpt>
      <trkpt lat="45.82649" lon="4.81886">
        <ele>449.79998779297</ele>
        <time>2014-05-01T12:17:19.000Z</time>
      </trkpt>
      <trkpt lat="45.82649" lon="4.81893">
        <ele>450.20001220703</ele>
        <time>2014-05-01T12:17:25.000Z</time>
      </trkpt>
      <trkpt lat="45.82647" lon="4.819">
        <ele>450.60000610352</ele>
        <time>2014-05-01T12:17:31.000Z</time>
      </trkpt>
      <trkpt lat="45.82646" lon="4.81905">
        <ele>451</ele>
        <time>2014-05-01T12:17:34.000Z</time>
      </trkpt>
      <trkpt lat="45.82645" lon="4.81911">
        <ele>451.39999389648</ele>
        <time>2014-05-01T12:17:39.000Z</time>
      </trkpt>
      <trkpt lat="45.82644" lon="4.81919">
        <ele>451.79998779297</ele>
        <time>2014-05-01T12:17:55.000Z</time>
      </trkpt>
      <trkpt lat="45.8264" lon="4.81925">
        <ele>452.79998779297</ele>
        <time>2014-05-01T12:18:01.000Z</time>
      </trkpt>
      <trkpt lat="45.82638" lon="4.81928">
        <ele>453</ele>
        <time>2014-05-01T12:18:04.000Z</time>
      </trkpt>
      <trkpt lat="45.82635" lon="4.81942">
        <ele>453.60000610352</ele>
        <time>2014-05-01T12:18:12.000Z</time>
      </trkpt>
      <trkpt lat="45.82634" lon="4.81949">
        <ele>454</ele>
        <time>2014-05-01T12:18:17.000Z</time>
      </trkpt>
      <trkpt lat="45.82633" lon="4.81958">
        <ele>454</ele>
        <time>2014-05-01T12:18:24.000Z</time>
      </trkpt>
      <trkpt lat="45.82632" lon="4.81965">
        <ele>453.79998779297</ele>
        <time>2014-05-01T12:18:28.000Z</time>
      </trkpt>
      <trkpt lat="45.82631" lon="4.81971">
        <ele>453.79998779297</ele>
        <time>2014-05-01T12:18:32.000Z</time>
      </trkpt>
      <trkpt lat="45.82631" lon="4.81974">
        <ele>453.60000610352</ele>
        <time>2014-05-01T12:18:34.000Z</time>
      </trkpt>
      <trkpt lat="45.8263" lon="4.81984">
        <ele>453.39999389648</ele>
        <time>2014-05-01T12:18:40.000Z</time>
      </trkpt>
      <trkpt lat="45.8263" lon="4.81987">
        <ele>453.39999389648</ele>
        <time>2014-05-01T12:18:42.000Z</time>
      </trkpt>
      <trkpt lat="45.82625" lon="4.81993">
        <ele>453.20001220703</ele>
        <time>2014-05-01T12:18:47.000Z</time>
      </trkpt>
      <trkpt lat="45.82622" lon="4.81998">
        <ele>453.20001220703</ele>
        <time>2014-05-01T12:18:55.000Z</time>
      </trkpt>
      <trkpt lat="45.82622" lon="4.82006">
        <ele>453</ele>
        <time>2014-05-01T12:19:05.000Z</time>
      </trkpt>
      <trkpt lat="45.8262" lon="4.82011">
        <ele>452.79998779297</ele>
        <time>2014-05-01T12:19:10.000Z</time>
      </trkpt>
      <trkpt lat="45.8262" lon="4.82016">
        <ele>452.79998779297</ele>
        <time>2014-05-01T12:19:13.000Z</time>
      </trkpt>
      <trkpt lat="45.82618" lon="4.82024">
        <ele>453.20001220703</ele>
        <time>2014-05-01T12:19:19.000Z</time>
      </trkpt>
      <trkpt lat="45.82619" lon="4.82031">
        <ele>453.60000610352</ele>
        <time>2014-05-01T12:19:24.000Z</time>
      </trkpt>
      <trkpt lat="45.8262" lon="4.82035">
        <ele>453.79998779297</ele>
        <time>2014-05-01T12:19:27.000Z</time>
      </trkpt>
      <trkpt lat="45.82617" lon="4.82043">
        <ele>454</ele>
        <time>2014-05-01T12:19:33.000Z</time>
      </trkpt>
      <trkpt lat="45.82621" lon="4.82055">
        <ele>452.79998779297</ele>
        <time>2014-05-01T12:19:39.000Z</time>
      </trkpt>
      <trkpt lat="45.82622" lon="4.82058">
        <ele>452.39999389648</ele>
        <time>2014-05-01T12:19:41.000Z</time>
      </trkpt>
      <trkpt lat="45.82626" lon="4.82069">
        <ele>451.20001220703</ele>
        <time>2014-05-01T12:19:48.000Z</time>
      </trkpt>
      <trkpt lat="45.8263" lon="4.82083">
        <ele>449.79998779297</ele>
        <time>2014-05-01T12:19:57.000Z</time>
      </trkpt>
      <trkpt lat="45.82633" lon="4.82096">
        <ele>448.60000610352</ele>
        <time>2014-05-01T12:20:06.000Z</time>
      </trkpt>
      <trkpt lat="45.82633" lon="4.82098">
        <ele>448.39999389648</ele>
        <time>2014-05-01T12:20:07.000Z</time>
      </trkpt>
      <trkpt lat="45.82634" lon="4.82102">
        <ele>448</ele>
        <time>2014-05-01T12:20:10.000Z</time>
      </trkpt>
      <trkpt lat="45.82637" lon="4.82111">
        <ele>447</ele>
        <time>2014-05-01T12:20:16.000Z</time>
      </trkpt>
      <trkpt lat="45.82637" lon="4.82114">
        <ele>446.79998779297</ele>
        <time>2014-05-01T12:20:19.000Z</time>
      </trkpt>
      <trkpt lat="45.82637" lon="4.82115">
        <ele>446.60000610352</ele>
        <time>2014-05-01T12:20:22.000Z</time>
      </trkpt>
      <trkpt lat="45.82643" lon="4.8213">
        <ele>446.20001220703</ele>
        <time>2014-05-01T12:20:31.000Z</time>
      </trkpt>
      <trkpt lat="45.82644" lon="4.82134">
        <ele>446.39999389648</ele>
        <time>2014-05-01T12:20:34.000Z</time>
      </trkpt>
      <trkpt lat="45.82648" lon="4.82133">
        <ele>445.79998779297</ele>
        <time>2014-05-01T12:20:40.000Z</time>
      </trkpt>
      <trkpt lat="45.82649" lon="4.82134">
        <ele>445.79998779297</ele>
        <time>2014-05-01T12:20:50.000Z</time>
      </trkpt>
      <trkpt lat="45.82651" lon="4.82137">
        <ele>445.79998779297</ele>
        <time>2014-05-01T12:20:57.000Z</time>
      </trkpt>
      <trkpt lat="45.82655" lon="4.8214">
        <ele>445.60000610352</ele>
        <time>2014-05-01T12:21:02.000Z</time>
      </trkpt>
      <trkpt lat="45.82658" lon="4.82143">
        <ele>445.39999389648</ele>
        <time>2014-05-01T12:21:07.000Z</time>
      </trkpt>
      <trkpt lat="45.82662" lon="4.82144">
        <ele>445</ele>
        <time>2014-05-01T12:21:14.000Z</time>
      </trkpt>
      <trkpt lat="45.82664" lon="4.82144">
        <ele>444.60000610352</ele>
        <time>2014-05-01T12:21:20.000Z</time>
      </trkpt>
      <trkpt lat="45.82668" lon="4.82143">
        <ele>443.79998779297</ele>
        <time>2014-05-01T12:21:27.000Z</time>
      </trkpt>
      <trkpt lat="45.82669" lon="4.82145">
        <ele>443.60000610352</ele>
        <time>2014-05-01T12:21:34.000Z</time>
      </trkpt>
      <trkpt lat="45.82669" lon="4.82148">
        <ele>444.20001220703</ele>
        <time>2014-05-01T12:21:42.000Z</time>
      </trkpt>
      <trkpt lat="45.82666" lon="4.82148">
        <ele>444.79998779297</ele>
        <time>2014-05-01T12:21:50.000Z</time>
      </trkpt>
      <trkpt lat="45.82661" lon="4.82146">
        <ele>445.39999389648</ele>
        <time>2014-05-01T12:21:57.000Z</time>
      </trkpt>
      <trkpt lat="45.82657" lon="4.82145">
        <ele>445.60000610352</ele>
        <time>2014-05-01T12:22:02.000Z</time>
      </trkpt>
      <trkpt lat="45.82653" lon="4.82143">
        <ele>446</ele>
        <time>2014-05-01T12:22:09.000Z</time>
      </trkpt>
      <trkpt lat="45.82649" lon="4.82141">
        <ele>446.39999389648</ele>
        <time>2014-05-01T12:22:16.000Z</time>
      </trkpt>
      <trkpt lat="45.82645" lon="4.82139">
        <ele>446.79998779297</ele>
        <time>2014-05-01T12:22:22.000Z</time>
      </trkpt>
      <trkpt lat="45.82645" lon="4.82142">
        <ele>446.79998779297</ele>
        <time>2014-05-01T12:23:01.000Z</time>
      </trkpt>
      <trkpt lat="45.82643" lon="4.82145">
        <ele>447.39999389648</ele>
        <time>2014-05-01T12:23:06.000Z</time>
      </trkpt>
      <trkpt lat="45.82642" lon="4.82143">
        <ele>447.39999389648</ele>
        <time>2014-05-01T12:23:08.000Z</time>
      </trkpt>
      <trkpt lat="45.82639" lon="4.82131">
        <ele>446.79998779297</ele>
        <time>2014-05-01T12:23:17.000Z</time>
      </trkpt>
      <trkpt lat="45.82636" lon="4.82124">
        <ele>446.60000610352</ele>
        <time>2014-05-01T12:23:22.000Z</time>
      </trkpt>
      <trkpt lat="45.82634" lon="4.82113">
        <ele>447.20001220703</ele>
        <time>2014-05-01T12:23:31.000Z</time>
      </trkpt>
      <trkpt lat="45.82631" lon="4.82102">
        <ele>448.20001220703</ele>
        <time>2014-05-01T12:23:39.000Z</time>
      </trkpt>
      <trkpt lat="45.8263" lon="4.821">
        <ele>448.60000610352</ele>
        <time>2014-05-01T12:23:41.000Z</time>
      </trkpt>
      <trkpt lat="45.82624" lon="4.82085">
        <ele>450.20001220703</ele>
        <time>2014-05-01T12:23:51.000Z</time>
      </trkpt>
      <trkpt lat="45.82623" lon="4.82082">
        <ele>450.60000610352</ele>
        <time>2014-05-01T12:23:54.000Z</time>
      </trkpt>
      <trkpt lat="45.8262" lon="4.82073">
        <ele>451.60000610352</ele>
        <time>2014-05-01T12:24:00.000Z</time>
      </trkpt>
      <trkpt lat="45.82619" lon="4.82064">
        <ele>452.39999389648</ele>
        <time>2014-05-01T12:24:07.000Z</time>
      </trkpt>
      <trkpt lat="45.82617" lon="4.82063">
        <ele>452.60000610352</ele>
        <time>2014-05-01T12:24:10.000Z</time>
      </trkpt>
      <trkpt lat="45.82612" lon="4.82063">
        <ele>453.20001220703</ele>
        <time>2014-05-01T12:24:17.000Z</time>
      </trkpt>
      <trkpt lat="45.82609" lon="4.82063">
        <ele>453.39999389648</ele>
        <time>2014-05-01T12:24:22.000Z</time>
      </trkpt>
      <trkpt lat="45.82608" lon="4.8206">
        <ele>453.79998779297</ele>
        <time>2014-05-01T12:24:29.000Z</time>
      </trkpt>
      <trkpt lat="45.82608" lon="4.82059">
        <ele>453.79998779297</ele>
        <time>2014-05-01T12:24:34.000Z</time>
      </trkpt>
      <trkpt lat="45.8261" lon="4.82061">
        <ele>453.39999389648</ele>
        <time>2014-05-01T12:28:36.000Z</time>
      </trkpt>
      <trkpt lat="45.82607" lon="4.82059">
        <ele>453.79998779297</ele>
        <time>2014-05-01T12:31:47.000Z</time>
      </trkpt>
      <trkpt lat="45.82613" lon="4.82056">
        <ele>453.60000610352</ele>
        <time>2014-05-01T12:37:23.000Z</time>
      </trkpt>
      <trkpt lat="45.82613" lon="4.82056">
        <ele>453.60000610352</ele>
        <time>2014-05-01T12:37:33.000Z</time>
      </trkpt>
      <trkpt lat="45.82607" lon="4.82062">
        <ele>453.79998779297</ele>
        <time>2014-05-01T12:52:27.000Z</time>
      </trkpt>
      <trkpt lat="45.82609" lon="4.82061">
        <ele>453.60000610352</ele>
        <time>2014-05-01T12:53:06.000Z</time>
      </trkpt>
      <trkpt lat="45.82611" lon="4.82062">
        <ele>453.20001220703</ele>
        <time>2014-05-01T12:53:09.000Z</time>
      </trkpt>
      <trkpt lat="45.82615" lon="4.82062">
        <ele>452.79998779297</ele>
        <time>2014-05-01T12:53:16.000Z</time>
      </trkpt>
      <trkpt lat="45.82622" lon="4.82064">
        <ele>452</ele>
        <time>2014-05-01T12:54:59.000Z</time>
      </trkpt>
      <trkpt lat="45.82617" lon="4.82067">
        <ele>452.39999389648</ele>
        <time>2014-05-01T12:56:17.000Z</time>
      </trkpt>
      <trkpt lat="45.82618" lon="4.82057">
        <ele>453</ele>
        <time>2014-05-01T12:56:29.000Z</time>
      </trkpt>
      <trkpt lat="45.82617" lon="4.82056">
        <ele>453</ele>
        <time>2014-05-01T12:56:30.000Z</time>
      </trkpt>
      <trkpt lat="45.82615" lon="4.82054">
        <ele>453.39999389648</ele>
        <time>2014-05-01T12:56:35.000Z</time>
      </trkpt>
      <trkpt lat="45.82614" lon="4.82054">
        <ele>453.60000610352</ele>
        <time>2014-05-01T12:56:41.000Z</time>
      </trkpt>
      <trkpt lat="45.82614" lon="4.82052">
        <ele>453.79998779297</ele>
        <time>2014-05-01T12:57:01.000Z</time>
      </trkpt>
      <trkpt lat="45.82618" lon="4.82051">
        <ele>453.39999389648</ele>
        <time>2014-05-01T12:57:38.000Z</time>
      </trkpt>
      <trkpt lat="45.82621" lon="4.82052">
        <ele>453</ele>
        <time>2014-05-01T12:57:51.000Z</time>
      </trkpt>
      <trkpt lat="45.82619" lon="4.82051">
        <ele>453.20001220703</ele>
        <time>2014-05-01T12:58:00.000Z</time>
      </trkpt>
      <trkpt lat="45.82618" lon="4.8205">
        <ele>453.39999389648</ele>
        <time>2014-05-01T12:58:06.000Z</time>
      </trkpt>
      <trkpt lat="45.82618" lon="4.82051">
        <ele>453.39999389648</ele>
        <time>2014-05-01T12:58:14.000Z</time>
      </trkpt>
      <trkpt lat="45.82616" lon="4.8205">
        <ele>453.60000610352</ele>
        <time>2014-05-01T12:58:21.000Z</time>
      </trkpt>
      <trkpt lat="45.82616" lon="4.8205">
        <ele>453.60000610352</ele>
        <time>2014-05-01T12:58:27.000Z</time>
      </trkpt>
      <trkpt lat="45.82615" lon="4.8205">
        <ele>453.79998779297</ele>
        <time>2014-05-01T12:58:29.000Z</time>
      </trkpt>
      <trkpt lat="45.82614" lon="4.82052">
        <ele>453.60000610352</ele>
        <time>2014-05-01T12:58:35.000Z</time>
      </trkpt>
      <trkpt lat="45.82615" lon="4.82051">
        <ele>453.60000610352</ele>
        <time>2014-05-01T12:59:06.000Z</time>
      </trkpt>
      <trkpt lat="45.8262" lon="4.82048">
        <ele>453.39999389648</ele>
        <time>2014-05-01T13:01:08.000Z</time>
      </trkpt>
      <trkpt lat="45.8262" lon="4.82047">
        <ele>453.39999389648</ele>
        <time>2014-05-01T13:01:15.000Z</time>
      </trkpt>
      <trkpt lat="45.8262" lon="4.82047">
        <ele>453.39999389648</ele>
        <time>2014-05-01T13:02:00.000Z</time>
      </trkpt>
      <trkpt lat="45.82618" lon="4.82046">
        <ele>453.79998779297</ele>
        <time>2014-05-01T13:02:06.000Z</time>
      </trkpt>
      <trkpt lat="45.82623" lon="4.82041">
        <ele>453.60000610352</ele>
        <time>2014-05-01T13:03:11.000Z</time>
      </trkpt>
      <trkpt lat="45.82618" lon="4.82039">
        <ele>454.20001220703</ele>
        <time>2014-05-01T13:04:50.000Z</time>
      </trkpt>
      <trkpt lat="45.82618" lon="4.82042">
        <ele>454</ele>
        <time>2014-05-01T13:05:25.000Z</time>
      </trkpt>
      <trkpt lat="45.8262" lon="4.82048">
        <ele>453.39999389648</ele>
        <time>2014-05-01T13:05:31.000Z</time>
      </trkpt>
      <trkpt lat="45.8262" lon="4.82056">
        <ele>452.79998779297</ele>
        <time>2014-05-01T13:05:38.000Z</time>
      </trkpt>
      <trkpt lat="45.8262" lon="4.8206">
        <ele>452.60000610352</ele>
        <time>2014-05-01T13:05:45.000Z</time>
      </trkpt>
      <trkpt lat="45.8262" lon="4.82056">
        <ele>452.79998779297</ele>
        <time>2014-05-01T13:05:53.000Z</time>
      </trkpt>
      <trkpt lat="45.8262" lon="4.8205">
        <ele>453.20001220703</ele>
        <time>2014-05-01T13:06:01.000Z</time>
      </trkpt>
      <trkpt lat="45.82619" lon="4.82046">
        <ele>453.60000610352</ele>
        <time>2014-05-01T13:06:08.000Z</time>
      </trkpt>
      <trkpt lat="45.8262" lon="4.8204">
        <ele>454</ele>
        <time>2014-05-01T13:06:18.000Z</time>
      </trkpt>
      <trkpt lat="45.8262" lon="4.82037">
        <ele>453.79998779297</ele>
        <time>2014-05-01T13:06:25.000Z</time>
      </trkpt>
      <trkpt lat="45.82622" lon="4.82034">
        <ele>453.39999389648</ele>
        <time>2014-05-01T13:06:31.000Z</time>
      </trkpt>
      <trkpt lat="45.8262" lon="4.82026">
        <ele>453.20001220703</ele>
        <time>2014-05-01T13:06:59.000Z</time>
      </trkpt>
      <trkpt lat="45.8262" lon="4.82021">
        <ele>452.79998779297</ele>
        <time>2014-05-01T13:07:03.000Z</time>
      </trkpt>
      <trkpt lat="45.82622" lon="4.82013">
        <ele>452.79998779297</ele>
        <time>2014-05-01T13:07:11.000Z</time>
      </trkpt>
      <trkpt lat="45.82624" lon="4.82002">
        <ele>453</ele>
        <time>2014-05-01T13:07:21.000Z</time>
      </trkpt>
      <trkpt lat="45.82626" lon="4.81992">
        <ele>453.20001220703</ele>
        <time>2014-05-01T13:07:28.000Z</time>
      </trkpt>
      <trkpt lat="45.82629" lon="4.81983">
        <ele>453.39999389648</ele>
        <time>2014-05-01T13:07:36.000Z</time>
      </trkpt>
      <trkpt lat="45.8263" lon="4.81977">
        <ele>453.60000610352</ele>
        <time>2014-05-01T13:07:41.000Z</time>
      </trkpt>
      <trkpt lat="45.82631" lon="4.81973">
        <ele>453.60000610352</ele>
        <time>2014-05-01T13:07:45.000Z</time>
      </trkpt>
      <trkpt lat="45.82635" lon="4.81963">
        <ele>453.79998779297</ele>
        <time>2014-05-01T13:07:52.000Z</time>
      </trkpt>
      <trkpt lat="45.82635" lon="4.81961">
        <ele>453.79998779297</ele>
        <time>2014-05-01T13:07:53.000Z</time>
      </trkpt>
      <trkpt lat="45.82638" lon="4.81951">
        <ele>453.79998779297</ele>
        <time>2014-05-01T13:08:00.000Z</time>
      </trkpt>
      <trkpt lat="45.82639" lon="4.81948">
        <ele>453.60000610352</ele>
        <time>2014-05-01T13:08:02.000Z</time>
      </trkpt>
      <trkpt lat="45.82641" lon="4.81942">
        <ele>453.20001220703</ele>
        <time>2014-05-01T13:08:08.000Z</time>
      </trkpt>
      <trkpt lat="45.82644" lon="4.81931">
        <ele>452.20001220703</ele>
        <time>2014-05-01T13:08:16.000Z</time>
      </trkpt>
      <trkpt lat="45.82644" lon="4.81929">
        <ele>452.20001220703</ele>
        <time>2014-05-01T13:08:17.000Z</time>
      </trkpt>
      <trkpt lat="45.82646" lon="4.81921">
        <ele>451.60000610352</ele>
        <time>2014-05-01T13:08:23.000Z</time>
      </trkpt>
      <trkpt lat="45.82647" lon="4.8192">
        <ele>451.60000610352</ele>
        <time>2014-05-01T13:08:24.000Z</time>
      </trkpt>
      <trkpt lat="45.82648" lon="4.81914">
        <ele>451.20001220703</ele>
        <time>2014-05-01T13:08:28.000Z</time>
      </trkpt>
      <trkpt lat="45.82649" lon="4.81909">
        <ele>450.79998779297</ele>
        <time>2014-05-01T13:08:32.000Z</time>
      </trkpt>
      <trkpt lat="45.82649" lon="4.81905">
        <ele>450.60000610352</ele>
        <time>2014-05-01T13:08:34.000Z</time>
      </trkpt>
      <trkpt lat="45.82649" lon="4.81903">
        <ele>450.39999389648</ele>
        <time>2014-05-01T13:08:36.000Z</time>
      </trkpt>
      <trkpt lat="45.82652" lon="4.81893">
        <ele>449.60000610352</ele>
        <time>2014-05-01T13:08:44.000Z</time>
      </trkpt>
      <trkpt lat="45.82656" lon="4.81881">
        <ele>448.79998779297</ele>
        <time>2014-05-01T13:08:52.000Z</time>
      </trkpt>
      <trkpt lat="45.82657" lon="4.81877">
        <ele>448.60000610352</ele>
        <time>2014-05-01T13:08:55.000Z</time>
      </trkpt>
      <trkpt lat="45.8266" lon="4.81868">
        <ele>447.60000610352</ele>
        <time>2014-05-01T13:09:06.000Z</time>
      </trkpt>
      <trkpt lat="45.82663" lon="4.81863">
        <ele>447</ele>
        <time>2014-05-01T13:09:14.000Z</time>
      </trkpt>
      <trkpt lat="45.82665" lon="4.81856">
        <ele>446.20001220703</ele>
        <time>2014-05-01T13:09:22.000Z</time>
      </trkpt>
      <trkpt lat="45.82667" lon="4.81851">
        <ele>445.79998779297</ele>
        <time>2014-05-01T13:09:28.000Z</time>
      </trkpt>
      <trkpt lat="45.82668" lon="4.81842">
        <ele>445</ele>
        <time>2014-05-01T13:09:35.000Z</time>
      </trkpt>
      <trkpt lat="45.82669" lon="4.8184">
        <ele>444.79998779297</ele>
        <time>2014-05-01T13:09:37.000Z</time>
      </trkpt>
      <trkpt lat="45.82671" lon="4.81831">
        <ele>444</ele>
        <time>2014-05-01T13:09:45.000Z</time>
      </trkpt>
      <trkpt lat="45.82672" lon="4.81825">
        <ele>443.39999389648</ele>
        <time>2014-05-01T13:09:51.000Z</time>
      </trkpt>
      <trkpt lat="45.82673" lon="4.81822">
        <ele>443.20001220703</ele>
        <time>2014-05-01T13:09:53.000Z</time>
      </trkpt>
      <trkpt lat="45.82675" lon="4.81815">
        <ele>443</ele>
        <time>2014-05-01T13:09:59.000Z</time>
      </trkpt>
      <trkpt lat="45.82677" lon="4.81808">
        <ele>442.79998779297</ele>
        <time>2014-05-01T13:10:08.000Z</time>
      </trkpt>
      <trkpt lat="45.82678" lon="4.81801">
        <ele>442.79998779297</ele>
        <time>2014-05-01T13:10:18.000Z</time>
      </trkpt>
      <trkpt lat="45.82679" lon="4.81796">
        <ele>442.60000610352</ele>
        <time>2014-05-01T13:10:27.000Z</time>
      </trkpt>
      <trkpt lat="45.82679" lon="4.81789">
        <ele>442.60000610352</ele>
        <time>2014-05-01T13:10:33.000Z</time>
      </trkpt>
      <trkpt lat="45.8268" lon="4.81783">
        <ele>442.20001220703</ele>
        <time>2014-05-01T13:10:39.000Z</time>
      </trkpt>
      <trkpt lat="45.82683" lon="4.81772">
        <ele>441.60000610352</ele>
        <time>2014-05-01T13:10:48.000Z</time>
      </trkpt>
      <trkpt lat="45.82684" lon="4.81769">
        <ele>441.20001220703</ele>
        <time>2014-05-01T13:10:51.000Z</time>
      </trkpt>
      <trkpt lat="45.82684" lon="4.81763">
        <ele>441</ele>
        <time>2014-05-01T13:10:55.000Z</time>
      </trkpt>
      <trkpt lat="45.82685" lon="4.81749">
        <ele>440.20001220703</ele>
        <time>2014-05-01T13:11:06.000Z</time>
      </trkpt>
      <trkpt lat="45.82686" lon="4.81743">
        <ele>440</ele>
        <time>2014-05-01T13:11:11.000Z</time>
      </trkpt>
      <trkpt lat="45.82687" lon="4.81741">
        <ele>440</ele>
        <time>2014-05-01T13:11:17.000Z</time>
      </trkpt>
      <trkpt lat="45.82687" lon="4.81728">
        <ele>439.60000610352</ele>
        <time>2014-05-01T13:11:49.000Z</time>
      </trkpt>
      <trkpt lat="45.82688" lon="4.81723">
        <ele>439.39999389648</ele>
        <time>2014-05-01T13:11:54.000Z</time>
      </trkpt>
      <trkpt lat="45.82689" lon="4.81713">
        <ele>439.20001220703</ele>
        <time>2014-05-01T13:12:02.000Z</time>
      </trkpt>
      <trkpt lat="45.82691" lon="4.81705">
        <ele>438.79998779297</ele>
        <time>2014-05-01T13:12:09.000Z</time>
      </trkpt>
      <trkpt lat="45.82691" lon="4.81694">
        <ele>438.79998779297</ele>
        <time>2014-05-01T13:12:18.000Z</time>
      </trkpt>
      <trkpt lat="45.82691" lon="4.81687">
        <ele>438.60000610352</ele>
        <time>2014-05-01T13:12:26.000Z</time>
      </trkpt>
      <trkpt lat="45.82692" lon="4.81677">
        <ele>438.39999389648</ele>
        <time>2014-05-01T13:12:42.000Z</time>
      </trkpt>
      <trkpt lat="45.82694" lon="4.81667">
        <ele>438.20001220703</ele>
        <time>2014-05-01T13:12:50.000Z</time>
      </trkpt>
      <trkpt lat="45.82694" lon="4.81666">
        <ele>438.20001220703</ele>
        <time>2014-05-01T13:12:51.000Z</time>
      </trkpt>
      <trkpt lat="45.82695" lon="4.81657">
        <ele>438</ele>
        <time>2014-05-01T13:12:59.000Z</time>
      </trkpt>
      <trkpt lat="45.82696" lon="4.81655">
        <ele>438</ele>
        <time>2014-05-01T13:13:00.000Z</time>
      </trkpt>
      <trkpt lat="45.82696" lon="4.81654">
        <ele>438</ele>
        <time>2014-05-01T13:13:01.000Z</time>
      </trkpt>
      <trkpt lat="45.82698" lon="4.8165">
        <ele>437.79998779297</ele>
        <time>2014-05-01T13:13:05.000Z</time>
      </trkpt>
      <trkpt lat="45.82698" lon="4.81649">
        <ele>437.79998779297</ele>
        <time>2014-05-01T13:13:07.000Z</time>
      </trkpt>
      <trkpt lat="45.827" lon="4.81639">
        <ele>437.60000610352</ele>
        <time>2014-05-01T13:13:15.000Z</time>
      </trkpt>
      <trkpt lat="45.82701" lon="4.81635">
        <ele>437.39999389648</ele>
        <time>2014-05-01T13:13:18.000Z</time>
      </trkpt>
      <trkpt lat="45.82702" lon="4.81629">
        <ele>437.39999389648</ele>
        <time>2014-05-01T13:13:23.000Z</time>
      </trkpt>
      <trkpt lat="45.82702" lon="4.81626">
        <ele>437.20001220703</ele>
        <time>2014-05-01T13:13:25.000Z</time>
      </trkpt>
      <trkpt lat="45.82704" lon="4.8162">
        <ele>437</ele>
        <time>2014-05-01T13:13:32.000Z</time>
      </trkpt>
      <trkpt lat="45.82705" lon="4.81615">
        <ele>436.60000610352</ele>
        <time>2014-05-01T13:13:39.000Z</time>
      </trkpt>
      <trkpt lat="45.82704" lon="4.81599">
        <ele>436</ele>
        <time>2014-05-01T13:14:12.000Z</time>
      </trkpt>
      <trkpt lat="45.82708" lon="4.81592">
        <ele>435.20001220703</ele>
        <time>2014-05-01T13:14:20.000Z</time>
      </trkpt>
      <trkpt lat="45.82708" lon="4.81591">
        <ele>435.20001220703</ele>
        <time>2014-05-01T13:14:21.000Z</time>
      </trkpt>
      <trkpt lat="45.82711" lon="4.81583">
        <ele>434.39999389648</ele>
        <time>2014-05-01T13:14:29.000Z</time>
      </trkpt>
      <trkpt lat="45.82713" lon="4.81579">
        <ele>434</ele>
        <time>2014-05-01T13:14:34.000Z</time>
      </trkpt>
      <trkpt lat="45.82714" lon="4.81573">
        <ele>433.60000610352</ele>
        <time>2014-05-01T13:14:40.000Z</time>
      </trkpt>
      <trkpt lat="45.82716" lon="4.81565">
        <ele>433</ele>
        <time>2014-05-01T13:14:46.000Z</time>
      </trkpt>
      <trkpt lat="45.82716" lon="4.81563">
        <ele>433</ele>
        <time>2014-05-01T13:14:48.000Z</time>
      </trkpt>
      <trkpt lat="45.82715" lon="4.81557">
        <ele>432.60000610352</ele>
        <time>2014-05-01T13:14:55.000Z</time>
      </trkpt>
      <trkpt lat="45.82713" lon="4.81553">
        <ele>432.39999389648</ele>
        <time>2014-05-01T13:15:11.000Z</time>
      </trkpt>
      <trkpt lat="45.82714" lon="4.81551">
        <ele>432.39999389648</ele>
        <time>2014-05-01T13:15:21.000Z</time>
      </trkpt>
      <trkpt lat="45.82715" lon="4.81552">
        <ele>432.20001220703</ele>
        <time>2014-05-01T13:15:29.000Z</time>
      </trkpt>
      <trkpt lat="45.82715" lon="4.81548">
        <ele>432</ele>
        <time>2014-05-01T13:15:34.000Z</time>
      </trkpt>
      <trkpt lat="45.82715" lon="4.81548">
        <ele>432</ele>
        <time>2014-05-01T13:15:45.000Z</time>
      </trkpt>
      <trkpt lat="45.82713" lon="4.81548">
        <ele>432.20001220703</ele>
        <time>2014-05-01T13:15:54.000Z</time>
      </trkpt>
      <trkpt lat="45.82709" lon="4.81544">
        <ele>432.20001220703</ele>
        <time>2014-05-01T13:16:04.000Z</time>
      </trkpt>
      <trkpt lat="45.82704" lon="4.81544">
        <ele>432.60000610352</ele>
        <time>2014-05-01T13:16:11.000Z</time>
      </trkpt>
      <trkpt lat="45.82698" lon="4.81544">
        <ele>433</ele>
        <time>2014-05-01T13:16:19.000Z</time>
      </trkpt>
      <trkpt lat="45.82692" lon="4.81544">
        <ele>433.39999389648</ele>
        <time>2014-05-01T13:16:27.000Z</time>
      </trkpt>
      <trkpt lat="45.82688" lon="4.81547">
        <ele>434</ele>
        <time>2014-05-01T13:16:34.000Z</time>
      </trkpt>
      <trkpt lat="45.82683" lon="4.8155">
        <ele>434.60000610352</ele>
        <time>2014-05-01T13:16:41.000Z</time>
      </trkpt>
      <trkpt lat="45.82679" lon="4.81551">
        <ele>434.79998779297</ele>
        <time>2014-05-01T13:16:46.000Z</time>
      </trkpt>
      <trkpt lat="45.82673" lon="4.81553">
        <ele>435.39999389648</ele>
        <time>2014-05-01T13:16:55.000Z</time>
      </trkpt>
      <trkpt lat="45.82668" lon="4.81555">
        <ele>435.79998779297</ele>
        <time>2014-05-01T13:17:03.000Z</time>
      </trkpt>
      <trkpt lat="45.82662" lon="4.81558">
        <ele>436.39999389648</ele>
        <time>2014-05-01T13:17:12.000Z</time>
      </trkpt>
      <trkpt lat="45.82658" lon="4.81561">
        <ele>437</ele>
        <time>2014-05-01T13:17:19.000Z</time>
      </trkpt>
      <trkpt lat="45.82654" lon="4.81563">
        <ele>437.20001220703</ele>
        <time>2014-05-01T13:17:26.000Z</time>
      </trkpt>
      <trkpt lat="45.8265" lon="4.81565">
        <ele>437.60000610352</ele>
        <time>2014-05-01T13:17:34.000Z</time>
      </trkpt>
      <trkpt lat="45.82644" lon="4.81567">
        <ele>438</ele>
        <time>2014-05-01T13:17:48.000Z</time>
      </trkpt>
      <trkpt lat="45.82637" lon="4.81569">
        <ele>438.39999389648</ele>
        <time>2014-05-01T13:17:57.000Z</time>
      </trkpt>
      <trkpt lat="45.82629" lon="4.81573">
        <ele>438.60000610352</ele>
        <time>2014-05-01T13:18:05.000Z</time>
      </trkpt>
      <trkpt lat="45.8262" lon="4.81578">
        <ele>438.60000610352</ele>
        <time>2014-05-01T13:18:15.000Z</time>
      </trkpt>
      <trkpt lat="45.82616" lon="4.8158">
        <ele>438.79998779297</ele>
        <time>2014-05-01T13:18:22.000Z</time>
      </trkpt>
      <trkpt lat="45.82609" lon="4.81583">
        <ele>438.79998779297</ele>
        <time>2014-05-01T13:18:50.000Z</time>
      </trkpt>
      <trkpt lat="45.82599" lon="4.81588">
        <ele>439</ele>
        <time>2014-05-01T13:19:00.000Z</time>
      </trkpt>
      <trkpt lat="45.82597" lon="4.81588">
        <ele>439</ele>
        <time>2014-05-01T13:19:02.000Z</time>
      </trkpt>
      <trkpt lat="45.82593" lon="4.81591">
        <ele>439.39999389648</ele>
        <time>2014-05-01T13:19:07.000Z</time>
      </trkpt>
      <trkpt lat="45.8259" lon="4.81594">
        <ele>439.60000610352</ele>
        <time>2014-05-01T13:19:14.000Z</time>
      </trkpt>
      <trkpt lat="45.82584" lon="4.81596">
        <ele>439.79998779297</ele>
        <time>2014-05-01T13:19:22.000Z</time>
      </trkpt>
      <trkpt lat="45.8258" lon="4.81599">
        <ele>440</ele>
        <time>2014-05-01T13:19:28.000Z</time>
      </trkpt>
      <trkpt lat="45.82572" lon="4.81603">
        <ele>440.39999389648</ele>
        <time>2014-05-01T13:19:38.000Z</time>
      </trkpt>
      <trkpt lat="45.82565" lon="4.81607">
        <ele>440.79998779297</ele>
        <time>2014-05-01T13:19:47.000Z</time>
      </trkpt>
      <trkpt lat="45.82564" lon="4.81607">
        <ele>440.79998779297</ele>
        <time>2014-05-01T13:19:48.000Z</time>
      </trkpt>
      <trkpt lat="45.82559" lon="4.81611">
        <ele>441.20001220703</ele>
        <time>2014-05-01T13:19:56.000Z</time>
      </trkpt>
      <trkpt lat="45.82555" lon="4.81615">
        <ele>441.39999389648</ele>
        <time>2014-05-01T13:20:03.000Z</time>
      </trkpt>
      <trkpt lat="45.82556" lon="4.81617">
        <ele>441.60000610352</ele>
        <time>2014-05-01T13:20:15.000Z</time>
      </trkpt>
      <trkpt lat="45.82554" lon="4.81619">
        <ele>441.79998779297</ele>
        <time>2014-05-01T13:20:23.000Z</time>
      </trkpt>
      <trkpt lat="45.82549" lon="4.8162">
        <ele>441.79998779297</ele>
        <time>2014-05-01T13:20:29.000Z</time>
      </trkpt>
      <trkpt lat="45.82547" lon="4.81621">
        <ele>442</ele>
        <time>2014-05-01T13:20:35.000Z</time>
      </trkpt>
      <trkpt lat="45.82541" lon="4.81626">
        <ele>442.20001220703</ele>
        <time>2014-05-01T13:21:10.000Z</time>
      </trkpt>
      <trkpt lat="45.82535" lon="4.81628">
        <ele>442.20001220703</ele>
        <time>2014-05-01T13:21:17.000Z</time>
      </trkpt>
      <trkpt lat="45.82533" lon="4.81628">
        <ele>442.39999389648</ele>
        <time>2014-05-01T13:21:19.000Z</time>
      </trkpt>
      <trkpt lat="45.82529" lon="4.81631">
        <ele>442.39999389648</ele>
        <time>2014-05-01T13:21:26.000Z</time>
      </trkpt>
      <trkpt lat="45.82522" lon="4.81635">
        <ele>442.60000610352</ele>
        <time>2014-05-01T13:21:33.000Z</time>
      </trkpt>
      <trkpt lat="45.82521" lon="4.81635">
        <ele>442.60000610352</ele>
        <time>2014-05-01T13:21:34.000Z</time>
      </trkpt>
      <trkpt lat="45.82514" lon="4.81639">
        <ele>442.79998779297</ele>
        <time>2014-05-01T13:21:42.000Z</time>
      </trkpt>
      <trkpt lat="45.82512" lon="4.8164">
        <ele>442.79998779297</ele>
        <time>2014-05-01T13:21:44.000Z</time>
      </trkpt>
      <trkpt lat="45.8251" lon="4.81641">
        <ele>443</ele>
        <time>2014-05-01T13:21:46.000Z</time>
      </trkpt>
      <trkpt lat="45.82506" lon="4.81645">
        <ele>443.20001220703</ele>
        <time>2014-05-01T13:21:51.000Z</time>
      </trkpt>
      <trkpt lat="45.82505" lon="4.81646">
        <ele>443.20001220703</ele>
        <time>2014-05-01T13:21:52.000Z</time>
      </trkpt>
      <trkpt lat="45.82501" lon="4.81649">
        <ele>443.20001220703</ele>
        <time>2014-05-01T13:21:56.000Z</time>
      </trkpt>
      <trkpt lat="45.82492" lon="4.81652">
        <ele>443.39999389648</ele>
        <time>2014-05-01T13:22:04.000Z</time>
      </trkpt>
      <trkpt lat="45.82487" lon="4.81652">
        <ele>443.39999389648</ele>
        <time>2014-05-01T13:22:08.000Z</time>
      </trkpt>
      <trkpt lat="45.82484" lon="4.81653">
        <ele>443.39999389648</ele>
        <time>2014-05-01T13:22:12.000Z</time>
      </trkpt>
      <trkpt lat="45.82479" lon="4.81653">
        <ele>443.60000610352</ele>
        <time>2014-05-01T13:22:17.000Z</time>
      </trkpt>
      <trkpt lat="45.82478" lon="4.81653">
        <ele>443.39999389648</ele>
        <time>2014-05-01T13:22:18.000Z</time>
      </trkpt>
      <trkpt lat="45.82471" lon="4.81655">
        <ele>443.20001220703</ele>
        <time>2014-05-01T13:22:24.000Z</time>
      </trkpt>
      <trkpt lat="45.82468" lon="4.81657">
        <ele>442.79998779297</ele>
        <time>2014-05-01T13:22:27.000Z</time>
      </trkpt>
      <trkpt lat="45.82466" lon="4.8166">
        <ele>442.20001220703</ele>
        <time>2014-05-01T13:22:30.000Z</time>
      </trkpt>
      <trkpt lat="45.82462" lon="4.81666">
        <ele>441.79998779297</ele>
        <time>2014-05-01T13:22:36.000Z</time>
      </trkpt>
      <trkpt lat="45.82461" lon="4.81669">
        <ele>441.60000610352</ele>
        <time>2014-05-01T13:22:40.000Z</time>
      </trkpt>
      <trkpt lat="45.82458" lon="4.81675">
        <ele>441.20001220703</ele>
        <time>2014-05-01T13:22:45.000Z</time>
      </trkpt>
      <trkpt lat="45.82456" lon="4.81681">
        <ele>441</ele>
        <time>2014-05-01T13:22:50.000Z</time>
      </trkpt>
      <trkpt lat="45.82455" lon="4.81686">
        <ele>441</ele>
        <time>2014-05-01T13:22:54.000Z</time>
      </trkpt>
      <trkpt lat="45.82453" lon="4.81695">
        <ele>441.60000610352</ele>
        <time>2014-05-01T13:23:01.000Z</time>
      </trkpt>
      <trkpt lat="45.82451" lon="4.81699">
        <ele>441.79998779297</ele>
        <time>2014-05-01T13:23:05.000Z</time>
      </trkpt>
      <trkpt lat="45.8245" lon="4.81704">
        <ele>442.20001220703</ele>
        <time>2014-05-01T13:23:11.000Z</time>
      </trkpt>
      <trkpt lat="45.82447" lon="4.81708">
        <ele>441.79998779297</ele>
        <time>2014-05-01T13:23:24.000Z</time>
      </trkpt>
      <trkpt lat="45.82444" lon="4.81709">
        <ele>441.20001220703</ele>
        <time>2014-05-01T13:23:28.000Z</time>
      </trkpt>
      <trkpt lat="45.82441" lon="4.81711">
        <ele>440.79998779297</ele>
        <time>2014-05-01T13:23:33.000Z</time>
      </trkpt>
      <trkpt lat="45.82438" lon="4.81711">
        <ele>440.39999389648</ele>
        <time>2014-05-01T13:23:38.000Z</time>
      </trkpt>
      <trkpt lat="45.82434" lon="4.8171">
        <ele>439.60000610352</ele>
        <time>2014-05-01T13:23:45.000Z</time>
      </trkpt>
      <trkpt lat="45.82429" lon="4.81709">
        <ele>438.79998779297</ele>
        <time>2014-05-01T13:23:50.000Z</time>
      </trkpt>
      <trkpt lat="45.82426" lon="4.81706">
        <ele>438.20001220703</ele>
        <time>2014-05-01T13:23:57.000Z</time>
      </trkpt>
      <trkpt lat="45.82422" lon="4.81705">
        <ele>437.60000610352</ele>
        <time>2014-05-01T13:24:01.000Z</time>
      </trkpt>
      <trkpt lat="45.8242" lon="4.81704">
        <ele>437.20001220703</ele>
        <time>2014-05-01T13:24:04.000Z</time>
      </trkpt>
      <trkpt lat="45.82416" lon="4.81703">
        <ele>436.20001220703</ele>
        <time>2014-05-01T13:24:09.000Z</time>
      </trkpt>
      <trkpt lat="45.82417" lon="4.81708">
        <ele>436.79998779297</ele>
        <time>2014-05-01T13:24:17.000Z</time>
      </trkpt>
      <trkpt lat="45.82419" lon="4.8171">
        <ele>437.20001220703</ele>
        <time>2014-05-01T13:24:23.000Z</time>
      </trkpt>
      <trkpt lat="45.8242" lon="4.81711">
        <ele>437.39999389648</ele>
        <time>2014-05-01T13:24:27.000Z</time>
      </trkpt>
      <trkpt lat="45.82422" lon="4.81713">
        <ele>437.60000610352</ele>
        <time>2014-05-01T13:24:33.000Z</time>
      </trkpt>
      <trkpt lat="45.82425" lon="4.81714">
        <ele>438.20001220703</ele>
        <time>2014-05-01T13:24:38.000Z</time>
      </trkpt>
      <trkpt lat="45.82429" lon="4.81714">
        <ele>438.79998779297</ele>
        <time>2014-05-01T13:24:43.000Z</time>
      </trkpt>
      <trkpt lat="45.82433" lon="4.81715">
        <ele>439.60000610352</ele>
        <time>2014-05-01T13:24:51.000Z</time>
      </trkpt>
      <trkpt lat="45.82437" lon="4.81715">
        <ele>440.20001220703</ele>
        <time>2014-05-01T13:24:57.000Z</time>
      </trkpt>
      <trkpt lat="45.82441" lon="4.81715">
        <ele>440.79998779297</ele>
        <time>2014-05-01T13:25:04.000Z</time>
      </trkpt>
      <trkpt lat="45.82444" lon="4.8171">
        <ele>441.39999389648</ele>
        <time>2014-05-01T13:25:11.000Z</time>
      </trkpt>
      <trkpt lat="45.82445" lon="4.81707">
        <ele>441.39999389648</ele>
        <time>2014-05-01T13:25:18.000Z</time>
      </trkpt>
      <trkpt lat="45.82446" lon="4.81704">
        <ele>441.39999389648</ele>
        <time>2014-05-01T13:25:23.000Z</time>
      </trkpt>
      <trkpt lat="45.82449" lon="4.81702">
        <ele>441.79998779297</ele>
        <time>2014-05-01T13:25:29.000Z</time>
      </trkpt>
      <trkpt lat="45.8245" lon="4.81698">
        <ele>441.39999389648</ele>
        <time>2014-05-01T13:25:34.000Z</time>
      </trkpt>
      <trkpt lat="45.82451" lon="4.81697">
        <ele>441.39999389648</ele>
        <time>2014-05-01T13:25:40.000Z</time>
      </trkpt>
      <trkpt lat="45.82452" lon="4.81692">
        <ele>441</ele>
        <time>2014-05-01T13:25:45.000Z</time>
      </trkpt>
      <trkpt lat="45.82451" lon="4.81686">
        <ele>440.20001220703</ele>
        <time>2014-05-01T13:25:53.000Z</time>
      </trkpt>
      <trkpt lat="45.82452" lon="4.81683">
        <ele>440.20001220703</ele>
        <time>2014-05-01T13:25:57.000Z</time>
      </trkpt>
      <trkpt lat="45.82453" lon="4.8168">
        <ele>440</ele>
        <time>2014-05-01T13:25:59.000Z</time>
      </trkpt>
      <trkpt lat="45.82453" lon="4.81678">
        <ele>440</ele>
        <time>2014-05-01T13:26:01.000Z</time>
      </trkpt>
      <trkpt lat="45.82456" lon="4.81672">
        <ele>440.39999389648</ele>
        <time>2014-05-01T13:26:08.000Z</time>
      </trkpt>
      <trkpt lat="45.82462" lon="4.81673">
        <ele>442</ele>
        <time>2014-05-01T13:26:16.000Z</time>
      </trkpt>
      <trkpt lat="45.82467" lon="4.81672">
        <ele>443.20001220703</ele>
        <time>2014-05-01T13:26:22.000Z</time>
      </trkpt>
      <trkpt lat="45.8247" lon="4.8167">
        <ele>443.79998779297</ele>
        <time>2014-05-01T13:26:25.000Z</time>
      </trkpt>
      <trkpt lat="45.82474" lon="4.81667">
        <ele>444.20001220703</ele>
        <time>2014-05-01T13:26:30.000Z</time>
      </trkpt>
      <trkpt lat="45.82478" lon="4.81664">
        <ele>444</ele>
        <time>2014-05-01T13:26:35.000Z</time>
      </trkpt>
      <trkpt lat="45.82479" lon="4.81663">
        <ele>444</ele>
        <time>2014-05-01T13:26:38.000Z</time>
      </trkpt>
      <trkpt lat="45.82485" lon="4.8166">
        <ele>443.79998779297</ele>
        <time>2014-05-01T13:26:46.000Z</time>
      </trkpt>
      <trkpt lat="45.8249" lon="4.81657">
        <ele>443.60000610352</ele>
        <time>2014-05-01T13:26:53.000Z</time>
      </trkpt>
      <trkpt lat="45.82493" lon="4.81655">
        <ele>443.60000610352</ele>
        <time>2014-05-01T13:26:58.000Z</time>
      </trkpt>
      <trkpt lat="45.825" lon="4.81651">
        <ele>443.39999389648</ele>
        <time>2014-05-01T13:27:06.000Z</time>
      </trkpt>
      <trkpt lat="45.82503" lon="4.81649">
        <ele>443.39999389648</ele>
        <time>2014-05-01T13:27:10.000Z</time>
      </trkpt>
      <trkpt lat="45.82512" lon="4.81644">
        <ele>443</ele>
        <time>2014-05-01T13:27:19.000Z</time>
      </trkpt>
      <trkpt lat="45.8252" lon="4.8164">
        <ele>442.79998779297</ele>
        <time>2014-05-01T13:27:27.000Z</time>
      </trkpt>
      <trkpt lat="45.82522" lon="4.81639">
        <ele>442.79998779297</ele>
        <time>2014-05-01T13:27:29.000Z</time>
      </trkpt>
      <trkpt lat="45.82531" lon="4.81634">
        <ele>442.60000610352</ele>
        <time>2014-05-01T13:27:37.000Z</time>
      </trkpt>
      <trkpt lat="45.82539" lon="4.8163">
        <ele>442.39999389648</ele>
        <time>2014-05-01T13:27:45.000Z</time>
      </trkpt>
      <trkpt lat="45.82542" lon="4.81629">
        <ele>442.39999389648</ele>
        <time>2014-05-01T13:27:49.000Z</time>
      </trkpt>
      <trkpt lat="45.82544" lon="4.81627">
        <ele>442.20001220703</ele>
        <time>2014-05-01T13:27:52.000Z</time>
      </trkpt>
      <trkpt lat="45.82553" lon="4.81621">
        <ele>442</ele>
        <time>2014-05-01T13:28:00.000Z</time>
      </trkpt>
      <trkpt lat="45.82559" lon="4.81617">
        <ele>441.60000610352</ele>
        <time>2014-05-01T13:28:06.000Z</time>
      </trkpt>
      <trkpt lat="45.82568" lon="4.81612">
        <ele>441.20001220703</ele>
        <time>2014-05-01T13:28:15.000Z</time>
      </trkpt>
      <trkpt lat="45.82578" lon="4.81606">
        <ele>440.60000610352</ele>
        <time>2014-05-01T13:28:25.000Z</time>
      </trkpt>
      <trkpt lat="45.82587" lon="4.816">
        <ele>440</ele>
        <time>2014-05-01T13:28:35.000Z</time>
      </trkpt>
      <trkpt lat="45.82596" lon="4.81596">
        <ele>439.60000610352</ele>
        <time>2014-05-01T13:28:44.000Z</time>
      </trkpt>
      <trkpt lat="45.82599" lon="4.81594">
        <ele>439.39999389648</ele>
        <time>2014-05-01T13:28:51.000Z</time>
      </trkpt>
      <trkpt lat="45.82601" lon="4.8159">
        <ele>439.20001220703</ele>
        <time>2014-05-01T13:28:58.000Z</time>
      </trkpt>
      <trkpt lat="45.82602" lon="4.81582">
        <ele>438.60000610352</ele>
        <time>2014-05-01T13:29:06.000Z</time>
      </trkpt>
      <trkpt lat="45.82603" lon="4.81577">
        <ele>438.39999389648</ele>
        <time>2014-05-01T13:29:11.000Z</time>
      </trkpt>
      <trkpt lat="45.82608" lon="4.81572">
        <ele>438.20001220703</ele>
        <time>2014-05-01T13:29:19.000Z</time>
      </trkpt>
      <trkpt lat="45.82614" lon="4.81571">
        <ele>438.20001220703</ele>
        <time>2014-05-01T13:29:26.000Z</time>
      </trkpt>
      <trkpt lat="45.82622" lon="4.81567">
        <ele>438.20001220703</ele>
        <time>2014-05-01T13:29:35.000Z</time>
      </trkpt>
      <trkpt lat="45.82628" lon="4.81564">
        <ele>438</ele>
        <time>2014-05-01T13:29:43.000Z</time>
      </trkpt>
      <trkpt lat="45.82635" lon="4.81561">
        <ele>438</ele>
        <time>2014-05-01T13:29:52.000Z</time>
      </trkpt>
      <trkpt lat="45.82639" lon="4.81558">
        <ele>438</ele>
        <time>2014-05-01T13:29:59.000Z</time>
      </trkpt>
      <trkpt lat="45.82638" lon="4.81558">
        <ele>438</ele>
        <time>2014-05-01T13:30:05.000Z</time>
      </trkpt>
      <trkpt lat="45.82638" lon="4.81557">
        <ele>437.79998779297</ele>
        <time>2014-05-01T13:30:10.000Z</time>
      </trkpt>
      <trkpt lat="45.82639" lon="4.81558">
        <ele>438</ele>
        <time>2014-05-01T13:30:14.000Z</time>
      </trkpt>
      <trkpt lat="45.8264" lon="4.8155">
        <ele>437.39999389648</ele>
        <time>2014-05-01T13:35:45.000Z</time>
      </trkpt>
      <trkpt lat="45.82638" lon="4.81548">
        <ele>437.39999389648</ele>
        <time>2014-05-01T13:40:35.000Z</time>
      </trkpt>
      <trkpt lat="45.82641" lon="4.81551">
        <ele>437.39999389648</ele>
        <time>2014-05-01T13:46:15.000Z</time>
      </trkpt>
      <trkpt lat="45.82641" lon="4.81551">
        <ele>437.39999389648</ele>
        <time>2014-05-01T13:46:24.000Z</time>
      </trkpt>
      <trkpt lat="45.82638" lon="4.81552">
        <ele>437.60000610352</ele>
        <time>2014-05-01T13:46:35.000Z</time>
      </trkpt>
      <trkpt lat="45.82632" lon="4.81552">
        <ele>437.60000610352</ele>
        <time>2014-05-01T13:46:42.000Z</time>
      </trkpt>
      <trkpt lat="45.82626" lon="4.81553">
        <ele>437.60000610352</ele>
        <time>2014-05-01T13:46:49.000Z</time>
      </trkpt>
      <trkpt lat="45.82621" lon="4.81555">
        <ele>437.60000610352</ele>
        <time>2014-05-01T13:46:56.000Z</time>
      </trkpt>
      <trkpt lat="45.82611" lon="4.81558">
        <ele>437.60000610352</ele>
        <time>2014-05-01T13:47:06.000Z</time>
      </trkpt>
      <trkpt lat="45.8261" lon="4.81559">
        <ele>437.60000610352</ele>
        <time>2014-05-01T13:47:08.000Z</time>
      </trkpt>
      <trkpt lat="45.82607" lon="4.81567">
        <ele>438</ele>
        <time>2014-05-01T13:47:15.000Z</time>
      </trkpt>
      <trkpt lat="45.82606" lon="4.81572">
        <ele>438.20001220703</ele>
        <time>2014-05-01T13:47:19.000Z</time>
      </trkpt>
      <trkpt lat="45.82605" lon="4.81577">
        <ele>438.39999389648</ele>
        <time>2014-05-01T13:47:25.000Z</time>
      </trkpt>
      <trkpt lat="45.82609" lon="4.81581">
        <ele>438.60000610352</ele>
        <time>2014-05-01T13:47:31.000Z</time>
      </trkpt>
      <trkpt lat="45.82616" lon="4.81581">
        <ele>438.79998779297</ele>
        <time>2014-05-01T13:47:39.000Z</time>
      </trkpt>
      <trkpt lat="45.82623" lon="4.81581">
        <ele>438.79998779297</ele>
        <time>2014-05-01T13:47:46.000Z</time>
      </trkpt>
      <trkpt lat="45.82628" lon="4.81579">
        <ele>438.79998779297</ele>
        <time>2014-05-01T13:47:52.000Z</time>
      </trkpt>
      <trkpt lat="45.82634" lon="4.81577">
        <ele>438.79998779297</ele>
        <time>2014-05-01T13:48:01.000Z</time>
      </trkpt>
      <trkpt lat="45.82638" lon="4.81575">
        <ele>438.79998779297</ele>
        <time>2014-05-01T13:48:06.000Z</time>
      </trkpt>
      <trkpt lat="45.82643" lon="4.81574">
        <ele>438.39999389648</ele>
        <time>2014-05-01T13:48:14.000Z</time>
      </trkpt>
      <trkpt lat="45.82646" lon="4.81572">
        <ele>438.20001220703</ele>
        <time>2014-05-01T13:48:21.000Z</time>
      </trkpt>
      <trkpt lat="45.82649" lon="4.81572">
        <ele>438</ele>
        <time>2014-05-01T13:48:25.000Z</time>
      </trkpt>
    </trkseg>
  </trk>
</gpx>